<?xml version="1.0" encoding="UTF-8" standalone="no" ?>
<gpx xmlns="http://www.topografix.com/GPX/1/1" xmlns:xsi="http://www.w3.org/2001/XMLSchema-instance" xsi:schemaLocation="http://www.topografix.com/GPX/1/1 http://www.topografix.com/GPX/1/1/gpx.xsd" version="1.1" creator="VisuGPX - https://www.visugpx.com">
  <metadata>
    <name>2014-09-10 - Liliental, Bickensohl, Lösshohlwege-Pfad</name>
    <desc><![CDATA[2014-09-10 - Liliental, Bickensohl, Lösshohlwege-Pfad - Club vosgien Colmar, 24 participants - Guides : Jean-Pierre Béringer et Denis Vouin]]></desc>
  </metadata>
  <trk>
    <name><![CDATA[SEP-10-14 16:32:49]]></name>
    <trkseg>
      <trkpt lat="48.06749" lon="7.67578">
        <ele>300.07</ele>
        <time>2014-09-10T07:21:25Z</time>
      </trkpt>
      <trkpt lat="48.06749" lon="7.67583">
        <ele>301.03</ele>
        <time>2014-09-10T07:22:09Z</time>
      </trkpt>
      <trkpt lat="48.06748" lon="7.67585">
        <ele>299.59</ele>
        <time>2014-09-10T07:22:18Z</time>
      </trkpt>
      <trkpt lat="48.06748" lon="7.67584">
        <ele>299.59</ele>
        <time>2014-09-10T07:22:54Z</time>
      </trkpt>
      <trkpt lat="48.06749" lon="7.6758">
        <ele>298.63</ele>
        <time>2014-09-10T07:23:32Z</time>
      </trkpt>
      <trkpt lat="48.06751" lon="7.6758">
        <ele>299.11</ele>
        <time>2014-09-10T07:23:41Z</time>
      </trkpt>
      <trkpt lat="48.0675" lon="7.67579">
        <ele>295.74</ele>
        <time>2014-09-10T07:24:24Z</time>
      </trkpt>
      <trkpt lat="48.0675" lon="7.67579">
        <ele>300.07</ele>
        <time>2014-09-10T07:24:25Z</time>
      </trkpt>
      <trkpt lat="48.06749" lon="7.67581">
        <ele>298.63</ele>
        <time>2014-09-10T07:25:09Z</time>
      </trkpt>
      <trkpt lat="48.0675" lon="7.67584">
        <ele>298.63</ele>
        <time>2014-09-10T07:25:22Z</time>
      </trkpt>
      <trkpt lat="48.06751" lon="7.67583">
        <ele>298.63</ele>
        <time>2014-09-10T07:25:37Z</time>
      </trkpt>
      <trkpt lat="48.06751" lon="7.67583">
        <ele>299.11</ele>
        <time>2014-09-10T07:25:49Z</time>
      </trkpt>
      <trkpt lat="48.0675" lon="7.67583">
        <ele>299.11</ele>
        <time>2014-09-10T07:25:53Z</time>
      </trkpt>
      <trkpt lat="48.0675" lon="7.67582">
        <ele>298.15</ele>
        <time>2014-09-10T07:25:56Z</time>
      </trkpt>
      <trkpt lat="48.06751" lon="7.67579">
        <ele>298.63</ele>
        <time>2014-09-10T07:26:04Z</time>
      </trkpt>
      <trkpt lat="48.06752" lon="7.67577">
        <ele>298.15</ele>
        <time>2014-09-10T07:26:06Z</time>
      </trkpt>
      <trkpt lat="48.06754" lon="7.67575">
        <ele>297.67</ele>
        <time>2014-09-10T07:26:08Z</time>
      </trkpt>
      <trkpt lat="48.0676" lon="7.6756">
        <ele>296.7</ele>
        <time>2014-09-10T07:26:18Z</time>
      </trkpt>
      <trkpt lat="48.06761" lon="7.67559">
        <ele>296.22</ele>
        <time>2014-09-10T07:26:20Z</time>
      </trkpt>
      <trkpt lat="48.06763" lon="7.67553">
        <ele>295.74</ele>
        <time>2014-09-10T07:26:25Z</time>
      </trkpt>
      <trkpt lat="48.06765" lon="7.67546">
        <ele>295.26</ele>
        <time>2014-09-10T07:26:30Z</time>
      </trkpt>
      <trkpt lat="48.06772" lon="7.6754">
        <ele>295.26</ele>
        <time>2014-09-10T07:26:40Z</time>
      </trkpt>
      <trkpt lat="48.06774" lon="7.67537">
        <ele>295.26</ele>
        <time>2014-09-10T07:26:43Z</time>
      </trkpt>
      <trkpt lat="48.06775" lon="7.67536">
        <ele>295.74</ele>
        <time>2014-09-10T07:26:45Z</time>
      </trkpt>
      <trkpt lat="48.06777" lon="7.67535">
        <ele>295.74</ele>
        <time>2014-09-10T07:26:47Z</time>
      </trkpt>
      <trkpt lat="48.06785" lon="7.67533">
        <ele>295.74</ele>
        <time>2014-09-10T07:26:54Z</time>
      </trkpt>
      <trkpt lat="48.06789" lon="7.67537">
        <ele>295.26</ele>
        <time>2014-09-10T07:27:01Z</time>
      </trkpt>
      <trkpt lat="48.06792" lon="7.67541">
        <ele>295.26</ele>
        <time>2014-09-10T07:27:05Z</time>
      </trkpt>
      <trkpt lat="48.06793" lon="7.67543">
        <ele>295.26</ele>
        <time>2014-09-10T07:27:07Z</time>
      </trkpt>
      <trkpt lat="48.06797" lon="7.67549">
        <ele>295.26</ele>
        <time>2014-09-10T07:27:17Z</time>
      </trkpt>
      <trkpt lat="48.06797" lon="7.67568">
        <ele>294.3</ele>
        <time>2014-09-10T07:27:28Z</time>
      </trkpt>
      <trkpt lat="48.06793" lon="7.67584">
        <ele>292.86</ele>
        <time>2014-09-10T07:27:37Z</time>
      </trkpt>
      <trkpt lat="48.06793" lon="7.67587">
        <ele>292.38</ele>
        <time>2014-09-10T07:27:39Z</time>
      </trkpt>
      <trkpt lat="48.06787" lon="7.67606">
        <ele>291.42</ele>
        <time>2014-09-10T07:27:51Z</time>
      </trkpt>
      <trkpt lat="48.06786" lon="7.67608">
        <ele>291.42</ele>
        <time>2014-09-10T07:27:52Z</time>
      </trkpt>
      <trkpt lat="48.06785" lon="7.67614">
        <ele>291.42</ele>
        <time>2014-09-10T07:27:56Z</time>
      </trkpt>
      <trkpt lat="48.06777" lon="7.67631">
        <ele>290.46</ele>
        <time>2014-09-10T07:28:08Z</time>
      </trkpt>
      <trkpt lat="48.0677" lon="7.67648">
        <ele>289.01</ele>
        <time>2014-09-10T07:28:20Z</time>
      </trkpt>
      <trkpt lat="48.06764" lon="7.67664">
        <ele>288.05</ele>
        <time>2014-09-10T07:28:32Z</time>
      </trkpt>
      <trkpt lat="48.06763" lon="7.67665">
        <ele>288.05</ele>
        <time>2014-09-10T07:28:33Z</time>
      </trkpt>
      <trkpt lat="48.06752" lon="7.67689">
        <ele>287.09</ele>
        <time>2014-09-10T07:28:48Z</time>
      </trkpt>
      <trkpt lat="48.06749" lon="7.67695">
        <ele>286.61</ele>
        <time>2014-09-10T07:28:53Z</time>
      </trkpt>
      <trkpt lat="48.06746" lon="7.67701">
        <ele>286.13</ele>
        <time>2014-09-10T07:28:58Z</time>
      </trkpt>
      <trkpt lat="48.06738" lon="7.67718">
        <ele>285.17</ele>
        <time>2014-09-10T07:29:11Z</time>
      </trkpt>
      <trkpt lat="48.06737" lon="7.67721">
        <ele>283.73</ele>
        <time>2014-09-10T07:29:13Z</time>
      </trkpt>
      <trkpt lat="48.06734" lon="7.67744">
        <ele>283.25</ele>
        <time>2014-09-10T07:29:26Z</time>
      </trkpt>
      <trkpt lat="48.06734" lon="7.67747">
        <ele>283.25</ele>
        <time>2014-09-10T07:29:28Z</time>
      </trkpt>
      <trkpt lat="48.06733" lon="7.67757">
        <ele>282.28</ele>
        <time>2014-09-10T07:29:33Z</time>
      </trkpt>
      <trkpt lat="48.06733" lon="7.67781">
        <ele>280.84</ele>
        <time>2014-09-10T07:29:47Z</time>
      </trkpt>
      <trkpt lat="48.06733" lon="7.6779">
        <ele>280.36</ele>
        <time>2014-09-10T07:29:53Z</time>
      </trkpt>
      <trkpt lat="48.06732" lon="7.67794">
        <ele>280.36</ele>
        <time>2014-09-10T07:29:56Z</time>
      </trkpt>
      <trkpt lat="48.06734" lon="7.67805">
        <ele>279.88</ele>
        <time>2014-09-10T07:30:01Z</time>
      </trkpt>
      <trkpt lat="48.06738" lon="7.67824">
        <ele>278.92</ele>
        <time>2014-09-10T07:30:13Z</time>
      </trkpt>
      <trkpt lat="48.06739" lon="7.67841">
        <ele>277.96</ele>
        <time>2014-09-10T07:30:23Z</time>
      </trkpt>
      <trkpt lat="48.06744" lon="7.6786">
        <ele>277.48</ele>
        <time>2014-09-10T07:30:34Z</time>
      </trkpt>
      <trkpt lat="48.06757" lon="7.67882">
        <ele>277</ele>
        <time>2014-09-10T07:30:49Z</time>
      </trkpt>
      <trkpt lat="48.06761" lon="7.67887">
        <ele>277</ele>
        <time>2014-09-10T07:30:54Z</time>
      </trkpt>
      <trkpt lat="48.06771" lon="7.67894">
        <ele>277</ele>
        <time>2014-09-10T07:31:03Z</time>
      </trkpt>
      <trkpt lat="48.06784" lon="7.67902">
        <ele>277.48</ele>
        <time>2014-09-10T07:31:16Z</time>
      </trkpt>
      <trkpt lat="48.06808" lon="7.67913">
        <ele>277.96</ele>
        <time>2014-09-10T07:31:38Z</time>
      </trkpt>
      <trkpt lat="48.06824" lon="7.67922">
        <ele>278.92</ele>
        <time>2014-09-10T07:31:54Z</time>
      </trkpt>
      <trkpt lat="48.06842" lon="7.67934">
        <ele>279.4</ele>
        <time>2014-09-10T07:32:12Z</time>
      </trkpt>
      <trkpt lat="48.0685" lon="7.67937">
        <ele>279.88</ele>
        <time>2014-09-10T07:32:25Z</time>
      </trkpt>
      <trkpt lat="48.06856" lon="7.6794">
        <ele>280.36</ele>
        <time>2014-09-10T07:32:38Z</time>
      </trkpt>
      <trkpt lat="48.06858" lon="7.6794">
        <ele>280.36</ele>
        <time>2014-09-10T07:32:39Z</time>
      </trkpt>
      <trkpt lat="48.06863" lon="7.67944">
        <ele>280.36</ele>
        <time>2014-09-10T07:32:45Z</time>
      </trkpt>
      <trkpt lat="48.06881" lon="7.67952">
        <ele>281.32</ele>
        <time>2014-09-10T07:33:00Z</time>
      </trkpt>
      <trkpt lat="48.06885" lon="7.67953">
        <ele>281.8</ele>
        <time>2014-09-10T07:33:03Z</time>
      </trkpt>
      <trkpt lat="48.06905" lon="7.67958">
        <ele>282.77</ele>
        <time>2014-09-10T07:33:18Z</time>
      </trkpt>
      <trkpt lat="48.06918" lon="7.67961">
        <ele>283.25</ele>
        <time>2014-09-10T07:33:31Z</time>
      </trkpt>
      <trkpt lat="48.06932" lon="7.67967">
        <ele>284.21</ele>
        <time>2014-09-10T07:33:45Z</time>
      </trkpt>
      <trkpt lat="48.0695" lon="7.67969">
        <ele>285.17</ele>
        <time>2014-09-10T07:33:58Z</time>
      </trkpt>
      <trkpt lat="48.0697" lon="7.67974">
        <ele>286.13</ele>
        <time>2014-09-10T07:34:13Z</time>
      </trkpt>
      <trkpt lat="48.06986" lon="7.67978">
        <ele>286.61</ele>
        <time>2014-09-10T07:34:27Z</time>
      </trkpt>
      <trkpt lat="48.07004" lon="7.67981">
        <ele>288.05</ele>
        <time>2014-09-10T07:34:43Z</time>
      </trkpt>
      <trkpt lat="48.07023" lon="7.67986">
        <ele>288.53</ele>
        <time>2014-09-10T07:35:00Z</time>
      </trkpt>
      <trkpt lat="48.07037" lon="7.67988">
        <ele>289.49</ele>
        <time>2014-09-10T07:35:12Z</time>
      </trkpt>
      <trkpt lat="48.07055" lon="7.67993">
        <ele>290.46</ele>
        <time>2014-09-10T07:35:28Z</time>
      </trkpt>
      <trkpt lat="48.07071" lon="7.67998">
        <ele>291.42</ele>
        <time>2014-09-10T07:35:42Z</time>
      </trkpt>
      <trkpt lat="48.07083" lon="7.68003">
        <ele>291.42</ele>
        <time>2014-09-10T07:35:55Z</time>
      </trkpt>
      <trkpt lat="48.07097" lon="7.68012">
        <ele>292.38</ele>
        <time>2014-09-10T07:36:10Z</time>
      </trkpt>
      <trkpt lat="48.07106" lon="7.68022">
        <ele>292.86</ele>
        <time>2014-09-10T07:36:26Z</time>
      </trkpt>
      <trkpt lat="48.07109" lon="7.68026">
        <ele>292.86</ele>
        <time>2014-09-10T07:36:46Z</time>
      </trkpt>
      <trkpt lat="48.07125" lon="7.68037">
        <ele>293.82</ele>
        <time>2014-09-10T07:37:01Z</time>
      </trkpt>
      <trkpt lat="48.07135" lon="7.68051">
        <ele>293.82</ele>
        <time>2014-09-10T07:37:16Z</time>
      </trkpt>
      <trkpt lat="48.07149" lon="7.68061">
        <ele>294.78</ele>
        <time>2014-09-10T07:37:29Z</time>
      </trkpt>
      <trkpt lat="48.07159" lon="7.68076">
        <ele>294.78</ele>
        <time>2014-09-10T07:37:42Z</time>
      </trkpt>
      <trkpt lat="48.07172" lon="7.68089">
        <ele>295.74</ele>
        <time>2014-09-10T07:37:55Z</time>
      </trkpt>
      <trkpt lat="48.07176" lon="7.6809">
        <ele>295.74</ele>
        <time>2014-09-10T07:38:00Z</time>
      </trkpt>
      <trkpt lat="48.07183" lon="7.68094">
        <ele>295.74</ele>
        <time>2014-09-10T07:38:07Z</time>
      </trkpt>
      <trkpt lat="48.07185" lon="7.68101">
        <ele>295.74</ele>
        <time>2014-09-10T07:38:11Z</time>
      </trkpt>
      <trkpt lat="48.0719" lon="7.68108">
        <ele>296.22</ele>
        <time>2014-09-10T07:38:16Z</time>
      </trkpt>
      <trkpt lat="48.07195" lon="7.68112">
        <ele>296.22</ele>
        <time>2014-09-10T07:38:20Z</time>
      </trkpt>
      <trkpt lat="48.07209" lon="7.68123">
        <ele>296.7</ele>
        <time>2014-09-10T07:38:30Z</time>
      </trkpt>
      <trkpt lat="48.0722" lon="7.6813">
        <ele>297.18</ele>
        <time>2014-09-10T07:38:41Z</time>
      </trkpt>
      <trkpt lat="48.07226" lon="7.68135">
        <ele>297.18</ele>
        <time>2014-09-10T07:38:45Z</time>
      </trkpt>
      <trkpt lat="48.07233" lon="7.68142">
        <ele>297.67</ele>
        <time>2014-09-10T07:38:52Z</time>
      </trkpt>
      <trkpt lat="48.07243" lon="7.68158">
        <ele>298.63</ele>
        <time>2014-09-10T07:39:04Z</time>
      </trkpt>
      <trkpt lat="48.07256" lon="7.68171">
        <ele>298.63</ele>
        <time>2014-09-10T07:39:18Z</time>
      </trkpt>
      <trkpt lat="48.07268" lon="7.68186">
        <ele>299.59</ele>
        <time>2014-09-10T07:39:32Z</time>
      </trkpt>
      <trkpt lat="48.07286" lon="7.68189">
        <ele>300.07</ele>
        <time>2014-09-10T07:39:45Z</time>
      </trkpt>
      <trkpt lat="48.07305" lon="7.68197">
        <ele>301.03</ele>
        <time>2014-09-10T07:40:00Z</time>
      </trkpt>
      <trkpt lat="48.07322" lon="7.68197">
        <ele>301.99</ele>
        <time>2014-09-10T07:40:14Z</time>
      </trkpt>
      <trkpt lat="48.07332" lon="7.682">
        <ele>302.95</ele>
        <time>2014-09-10T07:40:24Z</time>
      </trkpt>
      <trkpt lat="48.07347" lon="7.68207">
        <ele>303.91</ele>
        <time>2014-09-10T07:40:37Z</time>
      </trkpt>
      <trkpt lat="48.07367" lon="7.68208">
        <ele>304.88</ele>
        <time>2014-09-10T07:40:52Z</time>
      </trkpt>
      <trkpt lat="48.07374" lon="7.68211">
        <ele>305.36</ele>
        <time>2014-09-10T07:40:59Z</time>
      </trkpt>
      <trkpt lat="48.07391" lon="7.68214">
        <ele>306.32</ele>
        <time>2014-09-10T07:41:14Z</time>
      </trkpt>
      <trkpt lat="48.07398" lon="7.68215">
        <ele>306.32</ele>
        <time>2014-09-10T07:41:26Z</time>
      </trkpt>
      <trkpt lat="48.07417" lon="7.68227">
        <ele>307.76</ele>
        <time>2014-09-10T07:41:41Z</time>
      </trkpt>
      <trkpt lat="48.07427" lon="7.68229">
        <ele>309.2</ele>
        <time>2014-09-10T07:41:54Z</time>
      </trkpt>
      <trkpt lat="48.07443" lon="7.68231">
        <ele>310.16</ele>
        <time>2014-09-10T07:42:09Z</time>
      </trkpt>
      <trkpt lat="48.07459" lon="7.68234">
        <ele>311.6</ele>
        <time>2014-09-10T07:42:23Z</time>
      </trkpt>
      <trkpt lat="48.07463" lon="7.68233">
        <ele>311.6</ele>
        <time>2014-09-10T07:42:27Z</time>
      </trkpt>
      <trkpt lat="48.07474" lon="7.68235">
        <ele>312.57</ele>
        <time>2014-09-10T07:42:37Z</time>
      </trkpt>
      <trkpt lat="48.0748" lon="7.68249">
        <ele>313.53</ele>
        <time>2014-09-10T07:42:53Z</time>
      </trkpt>
      <trkpt lat="48.07477" lon="7.68227">
        <ele>312.57</ele>
        <time>2014-09-10T07:43:08Z</time>
      </trkpt>
      <trkpt lat="48.07477" lon="7.68226">
        <ele>312.09</ele>
        <time>2014-09-10T07:43:10Z</time>
      </trkpt>
      <trkpt lat="48.07467" lon="7.68225">
        <ele>311.12</ele>
        <time>2014-09-10T07:43:25Z</time>
      </trkpt>
      <trkpt lat="48.07465" lon="7.68225">
        <ele>311.6</ele>
        <time>2014-09-10T07:43:45Z</time>
      </trkpt>
      <trkpt lat="48.07465" lon="7.68226">
        <ele>312.57</ele>
        <time>2014-09-10T07:44:23Z</time>
      </trkpt>
      <trkpt lat="48.07465" lon="7.68227">
        <ele>313.05</ele>
        <time>2014-09-10T07:45:33Z</time>
      </trkpt>
      <trkpt lat="48.07465" lon="7.68229">
        <ele>314.01</ele>
        <time>2014-09-10T07:47:37Z</time>
      </trkpt>
      <trkpt lat="48.07466" lon="7.68231">
        <ele>314.01</ele>
        <time>2014-09-10T07:47:45Z</time>
      </trkpt>
      <trkpt lat="48.07473" lon="7.68247">
        <ele>314.49</ele>
        <time>2014-09-10T07:47:59Z</time>
      </trkpt>
      <trkpt lat="48.07482" lon="7.68235">
        <ele>315.45</ele>
        <time>2014-09-10T07:48:13Z</time>
      </trkpt>
      <trkpt lat="48.07479" lon="7.68224">
        <ele>315.45</ele>
        <time>2014-09-10T07:48:26Z</time>
      </trkpt>
      <trkpt lat="48.07477" lon="7.68223">
        <ele>315.45</ele>
        <time>2014-09-10T07:48:41Z</time>
      </trkpt>
      <trkpt lat="48.07472" lon="7.68213">
        <ele>315.45</ele>
        <time>2014-09-10T07:49:00Z</time>
      </trkpt>
      <trkpt lat="48.0746" lon="7.68198">
        <ele>314.49</ele>
        <time>2014-09-10T07:49:17Z</time>
      </trkpt>
      <trkpt lat="48.07436" lon="7.68208">
        <ele>314.01</ele>
        <time>2014-09-10T07:49:36Z</time>
      </trkpt>
      <trkpt lat="48.07414" lon="7.68201">
        <ele>314.01</ele>
        <time>2014-09-10T07:49:55Z</time>
      </trkpt>
      <trkpt lat="48.074" lon="7.68202">
        <ele>314.01</ele>
        <time>2014-09-10T07:50:09Z</time>
      </trkpt>
      <trkpt lat="48.07383" lon="7.68196">
        <ele>314.97</ele>
        <time>2014-09-10T07:50:25Z</time>
      </trkpt>
      <trkpt lat="48.07364" lon="7.68189">
        <ele>314.97</ele>
        <time>2014-09-10T07:50:40Z</time>
      </trkpt>
      <trkpt lat="48.0735" lon="7.68172">
        <ele>315.45</ele>
        <time>2014-09-10T07:50:55Z</time>
      </trkpt>
      <trkpt lat="48.07344" lon="7.68144">
        <ele>315.45</ele>
        <time>2014-09-10T07:51:10Z</time>
      </trkpt>
      <trkpt lat="48.07337" lon="7.68121">
        <ele>315.93</ele>
        <time>2014-09-10T07:51:24Z</time>
      </trkpt>
      <trkpt lat="48.0733" lon="7.68099">
        <ele>316.89</ele>
        <time>2014-09-10T07:51:39Z</time>
      </trkpt>
      <trkpt lat="48.07326" lon="7.68086">
        <ele>317.37</ele>
        <time>2014-09-10T07:51:46Z</time>
      </trkpt>
      <trkpt lat="48.07319" lon="7.68067">
        <ele>317.85</ele>
        <time>2014-09-10T07:51:58Z</time>
      </trkpt>
      <trkpt lat="48.0731" lon="7.68045">
        <ele>319.3</ele>
        <time>2014-09-10T07:52:13Z</time>
      </trkpt>
      <trkpt lat="48.07303" lon="7.68027">
        <ele>320.74</ele>
        <time>2014-09-10T07:52:26Z</time>
      </trkpt>
      <trkpt lat="48.07295" lon="7.6801">
        <ele>321.7</ele>
        <time>2014-09-10T07:52:40Z</time>
      </trkpt>
      <trkpt lat="48.07289" lon="7.67986">
        <ele>323.14</ele>
        <time>2014-09-10T07:52:57Z</time>
      </trkpt>
      <trkpt lat="48.07276" lon="7.67967">
        <ele>324.1</ele>
        <time>2014-09-10T07:53:10Z</time>
      </trkpt>
      <trkpt lat="48.07275" lon="7.67964">
        <ele>323.62</ele>
        <time>2014-09-10T07:53:12Z</time>
      </trkpt>
      <trkpt lat="48.07271" lon="7.67953">
        <ele>324.1</ele>
        <time>2014-09-10T07:53:21Z</time>
      </trkpt>
      <trkpt lat="48.07258" lon="7.67939">
        <ele>325.06</ele>
        <time>2014-09-10T07:53:36Z</time>
      </trkpt>
      <trkpt lat="48.07247" lon="7.67934">
        <ele>325.54</ele>
        <time>2014-09-10T07:53:46Z</time>
      </trkpt>
      <trkpt lat="48.07228" lon="7.67935">
        <ele>326.02</ele>
        <time>2014-09-10T07:54:00Z</time>
      </trkpt>
      <trkpt lat="48.07214" lon="7.67939">
        <ele>326.5</ele>
        <time>2014-09-10T07:54:12Z</time>
      </trkpt>
      <trkpt lat="48.07209" lon="7.67935">
        <ele>326.99</ele>
        <time>2014-09-10T07:54:18Z</time>
      </trkpt>
      <trkpt lat="48.07206" lon="7.67932">
        <ele>326.99</ele>
        <time>2014-09-10T07:54:21Z</time>
      </trkpt>
      <trkpt lat="48.07205" lon="7.67928">
        <ele>326.5</ele>
        <time>2014-09-10T07:54:24Z</time>
      </trkpt>
      <trkpt lat="48.07203" lon="7.67922">
        <ele>326.99</ele>
        <time>2014-09-10T07:54:29Z</time>
      </trkpt>
      <trkpt lat="48.07193" lon="7.679">
        <ele>326.5</ele>
        <time>2014-09-10T07:54:45Z</time>
      </trkpt>
      <trkpt lat="48.07184" lon="7.67876">
        <ele>325.54</ele>
        <time>2014-09-10T07:55:01Z</time>
      </trkpt>
      <trkpt lat="48.07181" lon="7.67866">
        <ele>325.54</ele>
        <time>2014-09-10T07:55:12Z</time>
      </trkpt>
      <trkpt lat="48.0718" lon="7.67867">
        <ele>325.06</ele>
        <time>2014-09-10T07:55:29Z</time>
      </trkpt>
      <trkpt lat="48.07185" lon="7.67882">
        <ele>325.06</ele>
        <time>2014-09-10T07:55:58Z</time>
      </trkpt>
      <trkpt lat="48.07187" lon="7.6789">
        <ele>324.58</ele>
        <time>2014-09-10T07:56:03Z</time>
      </trkpt>
      <trkpt lat="48.07192" lon="7.67905">
        <ele>326.02</ele>
        <time>2014-09-10T07:56:16Z</time>
      </trkpt>
      <trkpt lat="48.07202" lon="7.67928">
        <ele>326.02</ele>
        <time>2014-09-10T07:56:33Z</time>
      </trkpt>
      <trkpt lat="48.07206" lon="7.67936">
        <ele>326.02</ele>
        <time>2014-09-10T07:56:39Z</time>
      </trkpt>
      <trkpt lat="48.07223" lon="7.67948">
        <ele>326.02</ele>
        <time>2014-09-10T07:56:56Z</time>
      </trkpt>
      <trkpt lat="48.07228" lon="7.67935">
        <ele>326.02</ele>
        <time>2014-09-10T07:57:04Z</time>
      </trkpt>
      <trkpt lat="48.07239" lon="7.67911">
        <ele>326.99</ele>
        <time>2014-09-10T07:57:17Z</time>
      </trkpt>
      <trkpt lat="48.0724" lon="7.67907">
        <ele>326.99</ele>
        <time>2014-09-10T07:57:19Z</time>
      </trkpt>
      <trkpt lat="48.07244" lon="7.67895">
        <ele>326.02</ele>
        <time>2014-09-10T07:57:31Z</time>
      </trkpt>
      <trkpt lat="48.07256" lon="7.67886">
        <ele>326.99</ele>
        <time>2014-09-10T07:57:45Z</time>
      </trkpt>
      <trkpt lat="48.07258" lon="7.67887">
        <ele>326.99</ele>
        <time>2014-09-10T07:57:46Z</time>
      </trkpt>
      <trkpt lat="48.07279" lon="7.6789">
        <ele>326.5</ele>
        <time>2014-09-10T07:58:01Z</time>
      </trkpt>
      <trkpt lat="48.07296" lon="7.67897">
        <ele>327.47</ele>
        <time>2014-09-10T07:58:16Z</time>
      </trkpt>
      <trkpt lat="48.07314" lon="7.67905">
        <ele>329.39</ele>
        <time>2014-09-10T07:58:33Z</time>
      </trkpt>
      <trkpt lat="48.07325" lon="7.67911">
        <ele>331.31</ele>
        <time>2014-09-10T07:58:48Z</time>
      </trkpt>
      <trkpt lat="48.07346" lon="7.67927">
        <ele>333.23</ele>
        <time>2014-09-10T07:59:06Z</time>
      </trkpt>
      <trkpt lat="48.07346" lon="7.67923">
        <ele>333.71</ele>
        <time>2014-09-10T07:59:33Z</time>
      </trkpt>
      <trkpt lat="48.07347" lon="7.67923">
        <ele>333.23</ele>
        <time>2014-09-10T07:59:58Z</time>
      </trkpt>
      <trkpt lat="48.07357" lon="7.67932">
        <ele>334.68</ele>
        <time>2014-09-10T08:00:12Z</time>
      </trkpt>
      <trkpt lat="48.07372" lon="7.67943">
        <ele>336.12</ele>
        <time>2014-09-10T08:00:28Z</time>
      </trkpt>
      <trkpt lat="48.07388" lon="7.67954">
        <ele>337.56</ele>
        <time>2014-09-10T08:00:46Z</time>
      </trkpt>
      <trkpt lat="48.07409" lon="7.67962">
        <ele>339</ele>
        <time>2014-09-10T08:01:02Z</time>
      </trkpt>
      <trkpt lat="48.07426" lon="7.67974">
        <ele>341.41</ele>
        <time>2014-09-10T08:01:21Z</time>
      </trkpt>
      <trkpt lat="48.07436" lon="7.67978">
        <ele>342.37</ele>
        <time>2014-09-10T08:01:49Z</time>
      </trkpt>
      <trkpt lat="48.07448" lon="7.67971">
        <ele>343.33</ele>
        <time>2014-09-10T08:02:08Z</time>
      </trkpt>
      <trkpt lat="48.07459" lon="7.67965">
        <ele>344.29</ele>
        <time>2014-09-10T08:02:23Z</time>
      </trkpt>
      <trkpt lat="48.07476" lon="7.67954">
        <ele>345.25</ele>
        <time>2014-09-10T08:02:36Z</time>
      </trkpt>
      <trkpt lat="48.07482" lon="7.67938">
        <ele>345.73</ele>
        <time>2014-09-10T08:02:50Z</time>
      </trkpt>
      <trkpt lat="48.07476" lon="7.67917">
        <ele>347.65</ele>
        <time>2014-09-10T08:03:05Z</time>
      </trkpt>
      <trkpt lat="48.07467" lon="7.67885">
        <ele>348.62</ele>
        <time>2014-09-10T08:03:22Z</time>
      </trkpt>
      <trkpt lat="48.07466" lon="7.6787">
        <ele>350.06</ele>
        <time>2014-09-10T08:03:36Z</time>
      </trkpt>
      <trkpt lat="48.07466" lon="7.67866">
        <ele>350.54</ele>
        <time>2014-09-10T08:03:40Z</time>
      </trkpt>
      <trkpt lat="48.07474" lon="7.67844">
        <ele>351.98</ele>
        <time>2014-09-10T08:03:55Z</time>
      </trkpt>
      <trkpt lat="48.07482" lon="7.67823">
        <ele>353.42</ele>
        <time>2014-09-10T08:04:09Z</time>
      </trkpt>
      <trkpt lat="48.07498" lon="7.67812">
        <ele>353.9</ele>
        <time>2014-09-10T08:04:21Z</time>
      </trkpt>
      <trkpt lat="48.07505" lon="7.67797">
        <ele>355.34</ele>
        <time>2014-09-10T08:04:35Z</time>
      </trkpt>
      <trkpt lat="48.07508" lon="7.67792">
        <ele>356.79</ele>
        <time>2014-09-10T08:04:47Z</time>
      </trkpt>
      <trkpt lat="48.07514" lon="7.67767">
        <ele>358.23</ele>
        <time>2014-09-10T08:05:00Z</time>
      </trkpt>
      <trkpt lat="48.07516" lon="7.67764">
        <ele>358.23</ele>
        <time>2014-09-10T08:05:01Z</time>
      </trkpt>
      <trkpt lat="48.0752" lon="7.67735">
        <ele>360.15</ele>
        <time>2014-09-10T08:05:16Z</time>
      </trkpt>
      <trkpt lat="48.07511" lon="7.67717">
        <ele>361.11</ele>
        <time>2014-09-10T08:05:34Z</time>
      </trkpt>
      <trkpt lat="48.07511" lon="7.67717">
        <ele>360.63</ele>
        <time>2014-09-10T08:06:39Z</time>
      </trkpt>
      <trkpt lat="48.07511" lon="7.67717">
        <ele>360.63</ele>
        <time>2014-09-10T08:07:09Z</time>
      </trkpt>
      <trkpt lat="48.07511" lon="7.67716">
        <ele>361.11</ele>
        <time>2014-09-10T08:07:33Z</time>
      </trkpt>
      <trkpt lat="48.07515" lon="7.67715">
        <ele>360.15</ele>
        <time>2014-09-10T08:08:01Z</time>
      </trkpt>
      <trkpt lat="48.07507" lon="7.67719">
        <ele>359.67</ele>
        <time>2014-09-10T08:08:25Z</time>
      </trkpt>
      <trkpt lat="48.07508" lon="7.67718">
        <ele>359.67</ele>
        <time>2014-09-10T08:08:56Z</time>
      </trkpt>
      <trkpt lat="48.07508" lon="7.67718">
        <ele>360.15</ele>
        <time>2014-09-10T08:09:20Z</time>
      </trkpt>
      <trkpt lat="48.07514" lon="7.67713">
        <ele>359.19</ele>
        <time>2014-09-10T08:10:01Z</time>
      </trkpt>
      <trkpt lat="48.07512" lon="7.67708">
        <ele>359.67</ele>
        <time>2014-09-10T08:10:25Z</time>
      </trkpt>
      <trkpt lat="48.07511" lon="7.67709">
        <ele>359.67</ele>
        <time>2014-09-10T08:10:52Z</time>
      </trkpt>
      <trkpt lat="48.07512" lon="7.6771">
        <ele>360.15</ele>
        <time>2014-09-10T08:11:11Z</time>
      </trkpt>
      <trkpt lat="48.07515" lon="7.67713">
        <ele>359.67</ele>
        <time>2014-09-10T08:11:16Z</time>
      </trkpt>
      <trkpt lat="48.07512" lon="7.67714">
        <ele>359.67</ele>
        <time>2014-09-10T08:11:31Z</time>
      </trkpt>
      <trkpt lat="48.0752" lon="7.67715">
        <ele>359.67</ele>
        <time>2014-09-10T08:12:16Z</time>
      </trkpt>
      <trkpt lat="48.07534" lon="7.67736">
        <ele>360.15</ele>
        <time>2014-09-10T08:12:32Z</time>
      </trkpt>
      <trkpt lat="48.07543" lon="7.67745">
        <ele>360.15</ele>
        <time>2014-09-10T08:12:43Z</time>
      </trkpt>
      <trkpt lat="48.07543" lon="7.67744">
        <ele>360.15</ele>
        <time>2014-09-10T08:12:58Z</time>
      </trkpt>
      <trkpt lat="48.07543" lon="7.67744">
        <ele>360.15</ele>
        <time>2014-09-10T08:13:28Z</time>
      </trkpt>
      <trkpt lat="48.07544" lon="7.6774">
        <ele>359.67</ele>
        <time>2014-09-10T08:13:44Z</time>
      </trkpt>
      <trkpt lat="48.07544" lon="7.6774">
        <ele>359.67</ele>
        <time>2014-09-10T08:14:19Z</time>
      </trkpt>
      <trkpt lat="48.07544" lon="7.6774">
        <ele>359.19</ele>
        <time>2014-09-10T08:14:59Z</time>
      </trkpt>
      <trkpt lat="48.07545" lon="7.67738">
        <ele>359.19</ele>
        <time>2014-09-10T08:15:25Z</time>
      </trkpt>
      <trkpt lat="48.07545" lon="7.67736">
        <ele>359.19</ele>
        <time>2014-09-10T08:15:54Z</time>
      </trkpt>
      <trkpt lat="48.07544" lon="7.67738">
        <ele>359.19</ele>
        <time>2014-09-10T08:16:46Z</time>
      </trkpt>
      <trkpt lat="48.07544" lon="7.67746">
        <ele>359.67</ele>
        <time>2014-09-10T08:16:55Z</time>
      </trkpt>
      <trkpt lat="48.07546" lon="7.67747">
        <ele>359.67</ele>
        <time>2014-09-10T08:16:58Z</time>
      </trkpt>
      <trkpt lat="48.07565" lon="7.67765">
        <ele>361.59</ele>
        <time>2014-09-10T08:17:15Z</time>
      </trkpt>
      <trkpt lat="48.0757" lon="7.67771">
        <ele>362.07</ele>
        <time>2014-09-10T08:17:21Z</time>
      </trkpt>
      <trkpt lat="48.07585" lon="7.67773">
        <ele>362.55</ele>
        <time>2014-09-10T08:17:36Z</time>
      </trkpt>
      <trkpt lat="48.07588" lon="7.67775">
        <ele>362.55</ele>
        <time>2014-09-10T08:17:39Z</time>
      </trkpt>
      <trkpt lat="48.07609" lon="7.67786">
        <ele>364.96</ele>
        <time>2014-09-10T08:17:58Z</time>
      </trkpt>
      <trkpt lat="48.07616" lon="7.67789">
        <ele>365.92</ele>
        <time>2014-09-10T08:18:04Z</time>
      </trkpt>
      <trkpt lat="48.07633" lon="7.67796">
        <ele>368.32</ele>
        <time>2014-09-10T08:18:19Z</time>
      </trkpt>
      <trkpt lat="48.07646" lon="7.67805">
        <ele>370.24</ele>
        <time>2014-09-10T08:18:37Z</time>
      </trkpt>
      <trkpt lat="48.07666" lon="7.67808">
        <ele>373.61</ele>
        <time>2014-09-10T08:18:54Z</time>
      </trkpt>
      <trkpt lat="48.07688" lon="7.67812">
        <ele>376.49</ele>
        <time>2014-09-10T08:19:13Z</time>
      </trkpt>
      <trkpt lat="48.07705" lon="7.67812">
        <ele>379.86</ele>
        <time>2014-09-10T08:19:32Z</time>
      </trkpt>
      <trkpt lat="48.07721" lon="7.67817">
        <ele>383.22</ele>
        <time>2014-09-10T08:19:52Z</time>
      </trkpt>
      <trkpt lat="48.07739" lon="7.67816">
        <ele>385.15</ele>
        <time>2014-09-10T08:20:12Z</time>
      </trkpt>
      <trkpt lat="48.07755" lon="7.67818">
        <ele>387.55</ele>
        <time>2014-09-10T08:20:30Z</time>
      </trkpt>
      <trkpt lat="48.07775" lon="7.67823">
        <ele>390.43</ele>
        <time>2014-09-10T08:20:48Z</time>
      </trkpt>
      <trkpt lat="48.07794" lon="7.67827">
        <ele>393.32</ele>
        <time>2014-09-10T08:21:08Z</time>
      </trkpt>
      <trkpt lat="48.078" lon="7.67829">
        <ele>396.68</ele>
        <time>2014-09-10T08:21:24Z</time>
      </trkpt>
      <trkpt lat="48.07815" lon="7.67838">
        <ele>398.6</ele>
        <time>2014-09-10T08:21:39Z</time>
      </trkpt>
      <trkpt lat="48.07823" lon="7.67849">
        <ele>400.05</ele>
        <time>2014-09-10T08:21:53Z</time>
      </trkpt>
      <trkpt lat="48.07833" lon="7.67855">
        <ele>401.01</ele>
        <time>2014-09-10T08:22:05Z</time>
      </trkpt>
      <trkpt lat="48.07836" lon="7.67857">
        <ele>401.97</ele>
        <time>2014-09-10T08:22:33Z</time>
      </trkpt>
      <trkpt lat="48.07843" lon="7.6787">
        <ele>401.49</ele>
        <time>2014-09-10T08:22:40Z</time>
      </trkpt>
      <trkpt lat="48.07857" lon="7.67883">
        <ele>402.45</ele>
        <time>2014-09-10T08:22:55Z</time>
      </trkpt>
      <trkpt lat="48.07873" lon="7.67917">
        <ele>402.93</ele>
        <time>2014-09-10T08:23:12Z</time>
      </trkpt>
      <trkpt lat="48.07879" lon="7.67934">
        <ele>403.89</ele>
        <time>2014-09-10T08:23:28Z</time>
      </trkpt>
      <trkpt lat="48.07888" lon="7.67953">
        <ele>404.37</ele>
        <time>2014-09-10T08:23:45Z</time>
      </trkpt>
      <trkpt lat="48.07908" lon="7.67982">
        <ele>404.37</ele>
        <time>2014-09-10T08:24:03Z</time>
      </trkpt>
      <trkpt lat="48.07915" lon="7.67997">
        <ele>404.85</ele>
        <time>2014-09-10T08:24:18Z</time>
      </trkpt>
      <trkpt lat="48.07925" lon="7.68019">
        <ele>405.33</ele>
        <time>2014-09-10T08:24:34Z</time>
      </trkpt>
      <trkpt lat="48.07926" lon="7.68021">
        <ele>405.33</ele>
        <time>2014-09-10T08:24:35Z</time>
      </trkpt>
      <trkpt lat="48.07953" lon="7.68042">
        <ele>406.29</ele>
        <time>2014-09-10T08:24:53Z</time>
      </trkpt>
      <trkpt lat="48.07973" lon="7.68028">
        <ele>406.77</ele>
        <time>2014-09-10T08:25:06Z</time>
      </trkpt>
      <trkpt lat="48.07991" lon="7.68021">
        <ele>407.26</ele>
        <time>2014-09-10T08:25:18Z</time>
      </trkpt>
      <trkpt lat="48.08007" lon="7.68018">
        <ele>407.74</ele>
        <time>2014-09-10T08:25:31Z</time>
      </trkpt>
      <trkpt lat="48.08015" lon="7.68012">
        <ele>408.22</ele>
        <time>2014-09-10T08:25:42Z</time>
      </trkpt>
      <trkpt lat="48.08023" lon="7.68005">
        <ele>409.18</ele>
        <time>2014-09-10T08:25:56Z</time>
      </trkpt>
      <trkpt lat="48.08048" lon="7.67989">
        <ele>410.14</ele>
        <time>2014-09-10T08:26:09Z</time>
      </trkpt>
      <trkpt lat="48.08067" lon="7.6798">
        <ele>410.62</ele>
        <time>2014-09-10T08:26:23Z</time>
      </trkpt>
      <trkpt lat="48.0808" lon="7.67988">
        <ele>411.1</ele>
        <time>2014-09-10T08:26:39Z</time>
      </trkpt>
      <trkpt lat="48.08086" lon="7.6799">
        <ele>411.58</ele>
        <time>2014-09-10T08:26:45Z</time>
      </trkpt>
      <trkpt lat="48.08095" lon="7.68">
        <ele>411.58</ele>
        <time>2014-09-10T08:26:58Z</time>
      </trkpt>
      <trkpt lat="48.08097" lon="7.68009">
        <ele>412.06</ele>
        <time>2014-09-10T08:27:05Z</time>
      </trkpt>
      <trkpt lat="48.08103" lon="7.68036">
        <ele>413.02</ele>
        <time>2014-09-10T08:27:22Z</time>
      </trkpt>
      <trkpt lat="48.08105" lon="7.68057">
        <ele>413.5</ele>
        <time>2014-09-10T08:27:33Z</time>
      </trkpt>
      <trkpt lat="48.08108" lon="7.68069">
        <ele>413.02</ele>
        <time>2014-09-10T08:27:39Z</time>
      </trkpt>
      <trkpt lat="48.0811" lon="7.68095">
        <ele>413.98</ele>
        <time>2014-09-10T08:27:53Z</time>
      </trkpt>
      <trkpt lat="48.08113" lon="7.68119">
        <ele>413.98</ele>
        <time>2014-09-10T08:28:05Z</time>
      </trkpt>
      <trkpt lat="48.08122" lon="7.68137">
        <ele>413.5</ele>
        <time>2014-09-10T08:28:17Z</time>
      </trkpt>
      <trkpt lat="48.08137" lon="7.68164">
        <ele>413.02</ele>
        <time>2014-09-10T08:28:35Z</time>
      </trkpt>
      <trkpt lat="48.08143" lon="7.6817">
        <ele>412.54</ele>
        <time>2014-09-10T08:28:41Z</time>
      </trkpt>
      <trkpt lat="48.08163" lon="7.68179">
        <ele>411.1</ele>
        <time>2014-09-10T08:28:57Z</time>
      </trkpt>
      <trkpt lat="48.08167" lon="7.68196">
        <ele>410.62</ele>
        <time>2014-09-10T08:29:05Z</time>
      </trkpt>
      <trkpt lat="48.08186" lon="7.68212">
        <ele>410.62</ele>
        <time>2014-09-10T08:29:22Z</time>
      </trkpt>
      <trkpt lat="48.08201" lon="7.68223">
        <ele>410.14</ele>
        <time>2014-09-10T08:29:35Z</time>
      </trkpt>
      <trkpt lat="48.08221" lon="7.68225">
        <ele>410.14</ele>
        <time>2014-09-10T08:29:49Z</time>
      </trkpt>
      <trkpt lat="48.08233" lon="7.68222">
        <ele>410.62</ele>
        <time>2014-09-10T08:30:02Z</time>
      </trkpt>
      <trkpt lat="48.08238" lon="7.68226">
        <ele>410.62</ele>
        <time>2014-09-10T08:30:16Z</time>
      </trkpt>
      <trkpt lat="48.08241" lon="7.6824">
        <ele>411.1</ele>
        <time>2014-09-10T08:30:30Z</time>
      </trkpt>
      <trkpt lat="48.08253" lon="7.68256">
        <ele>411.58</ele>
        <time>2014-09-10T08:30:42Z</time>
      </trkpt>
      <trkpt lat="48.08267" lon="7.68272">
        <ele>411.58</ele>
        <time>2014-09-10T08:30:53Z</time>
      </trkpt>
      <trkpt lat="48.08277" lon="7.68297">
        <ele>412.54</ele>
        <time>2014-09-10T08:31:09Z</time>
      </trkpt>
      <trkpt lat="48.0828" lon="7.683">
        <ele>412.54</ele>
        <time>2014-09-10T08:31:12Z</time>
      </trkpt>
      <trkpt lat="48.08306" lon="7.68306">
        <ele>412.54</ele>
        <time>2014-09-10T08:31:31Z</time>
      </trkpt>
      <trkpt lat="48.08312" lon="7.68315">
        <ele>413.02</ele>
        <time>2014-09-10T08:31:42Z</time>
      </trkpt>
      <trkpt lat="48.08316" lon="7.68332">
        <ele>414.47</ele>
        <time>2014-09-10T08:32:01Z</time>
      </trkpt>
      <trkpt lat="48.08316" lon="7.68357">
        <ele>414.95</ele>
        <time>2014-09-10T08:32:18Z</time>
      </trkpt>
      <trkpt lat="48.08317" lon="7.68378">
        <ele>415.91</ele>
        <time>2014-09-10T08:32:31Z</time>
      </trkpt>
      <trkpt lat="48.0832" lon="7.68397">
        <ele>415.91</ele>
        <time>2014-09-10T08:32:45Z</time>
      </trkpt>
      <trkpt lat="48.08315" lon="7.68418">
        <ele>417.83</ele>
        <time>2014-09-10T08:33:00Z</time>
      </trkpt>
      <trkpt lat="48.08315" lon="7.68439">
        <ele>418.31</ele>
        <time>2014-09-10T08:33:12Z</time>
      </trkpt>
      <trkpt lat="48.0831" lon="7.68455">
        <ele>418.31</ele>
        <time>2014-09-10T08:33:17Z</time>
      </trkpt>
      <trkpt lat="48.08303" lon="7.68484">
        <ele>418.79</ele>
        <time>2014-09-10T08:33:28Z</time>
      </trkpt>
      <trkpt lat="48.08301" lon="7.68518">
        <ele>419.75</ele>
        <time>2014-09-10T08:33:42Z</time>
      </trkpt>
      <trkpt lat="48.083" lon="7.68519">
        <ele>419.75</ele>
        <time>2014-09-10T08:33:43Z</time>
      </trkpt>
      <trkpt lat="48.08302" lon="7.68534">
        <ele>419.75</ele>
        <time>2014-09-10T08:33:53Z</time>
      </trkpt>
      <trkpt lat="48.08303" lon="7.68542">
        <ele>420.23</ele>
        <time>2014-09-10T08:33:58Z</time>
      </trkpt>
      <trkpt lat="48.08303" lon="7.68573">
        <ele>421.19</ele>
        <time>2014-09-10T08:34:15Z</time>
      </trkpt>
      <trkpt lat="48.08304" lon="7.68588">
        <ele>421.68</ele>
        <time>2014-09-10T08:34:25Z</time>
      </trkpt>
      <trkpt lat="48.08313" lon="7.68611">
        <ele>421.68</ele>
        <time>2014-09-10T08:34:36Z</time>
      </trkpt>
      <trkpt lat="48.08323" lon="7.68622">
        <ele>421.68</ele>
        <time>2014-09-10T08:34:47Z</time>
      </trkpt>
      <trkpt lat="48.08335" lon="7.68626">
        <ele>421.68</ele>
        <time>2014-09-10T08:34:56Z</time>
      </trkpt>
      <trkpt lat="48.08352" lon="7.68628">
        <ele>419.75</ele>
        <time>2014-09-10T08:35:09Z</time>
      </trkpt>
      <trkpt lat="48.08364" lon="7.68628">
        <ele>418.79</ele>
        <time>2014-09-10T08:35:23Z</time>
      </trkpt>
      <trkpt lat="48.08383" lon="7.68635">
        <ele>416.87</ele>
        <time>2014-09-10T08:35:38Z</time>
      </trkpt>
      <trkpt lat="48.08396" lon="7.68637">
        <ele>416.39</ele>
        <time>2014-09-10T08:35:46Z</time>
      </trkpt>
      <trkpt lat="48.08412" lon="7.68644">
        <ele>416.87</ele>
        <time>2014-09-10T08:35:58Z</time>
      </trkpt>
      <trkpt lat="48.08418" lon="7.68645">
        <ele>416.87</ele>
        <time>2014-09-10T08:36:02Z</time>
      </trkpt>
      <trkpt lat="48.0843" lon="7.68657">
        <ele>417.35</ele>
        <time>2014-09-10T08:36:17Z</time>
      </trkpt>
      <trkpt lat="48.08432" lon="7.68666">
        <ele>417.35</ele>
        <time>2014-09-10T08:36:25Z</time>
      </trkpt>
      <trkpt lat="48.08452" lon="7.68684">
        <ele>417.83</ele>
        <time>2014-09-10T08:36:39Z</time>
      </trkpt>
      <trkpt lat="48.08467" lon="7.68707">
        <ele>417.83</ele>
        <time>2014-09-10T08:36:57Z</time>
      </trkpt>
      <trkpt lat="48.08472" lon="7.68719">
        <ele>417.83</ele>
        <time>2014-09-10T08:37:08Z</time>
      </trkpt>
      <trkpt lat="48.08483" lon="7.68737">
        <ele>417.35</ele>
        <time>2014-09-10T08:37:23Z</time>
      </trkpt>
      <trkpt lat="48.08496" lon="7.68754">
        <ele>416.87</ele>
        <time>2014-09-10T08:37:37Z</time>
      </trkpt>
      <trkpt lat="48.08505" lon="7.68773">
        <ele>414.95</ele>
        <time>2014-09-10T08:37:51Z</time>
      </trkpt>
      <trkpt lat="48.08522" lon="7.68792">
        <ele>412.54</ele>
        <time>2014-09-10T08:38:07Z</time>
      </trkpt>
      <trkpt lat="48.08533" lon="7.68812">
        <ele>410.62</ele>
        <time>2014-09-10T08:38:19Z</time>
      </trkpt>
      <trkpt lat="48.0854" lon="7.68831">
        <ele>409.66</ele>
        <time>2014-09-10T08:38:31Z</time>
      </trkpt>
      <trkpt lat="48.08542" lon="7.68835">
        <ele>409.66</ele>
        <time>2014-09-10T08:38:34Z</time>
      </trkpt>
      <trkpt lat="48.08545" lon="7.68838">
        <ele>409.66</ele>
        <time>2014-09-10T08:38:36Z</time>
      </trkpt>
      <trkpt lat="48.08552" lon="7.68859">
        <ele>409.18</ele>
        <time>2014-09-10T08:38:51Z</time>
      </trkpt>
      <trkpt lat="48.08553" lon="7.68858">
        <ele>409.18</ele>
        <time>2014-09-10T08:39:10Z</time>
      </trkpt>
      <trkpt lat="48.08556" lon="7.68853">
        <ele>408.22</ele>
        <time>2014-09-10T08:39:24Z</time>
      </trkpt>
      <trkpt lat="48.08555" lon="7.68852">
        <ele>409.18</ele>
        <time>2014-09-10T08:39:44Z</time>
      </trkpt>
      <trkpt lat="48.08556" lon="7.68853">
        <ele>408.22</ele>
        <time>2014-09-10T08:40:12Z</time>
      </trkpt>
      <trkpt lat="48.08556" lon="7.68853">
        <ele>408.7</ele>
        <time>2014-09-10T08:41:11Z</time>
      </trkpt>
      <trkpt lat="48.08556" lon="7.68849">
        <ele>408.22</ele>
        <time>2014-09-10T08:42:14Z</time>
      </trkpt>
      <trkpt lat="48.08554" lon="7.68851">
        <ele>407.74</ele>
        <time>2014-09-10T08:42:28Z</time>
      </trkpt>
      <trkpt lat="48.08553" lon="7.68852">
        <ele>407.26</ele>
        <time>2014-09-10T08:42:41Z</time>
      </trkpt>
      <trkpt lat="48.08554" lon="7.68853">
        <ele>407.74</ele>
        <time>2014-09-10T08:45:02Z</time>
      </trkpt>
      <trkpt lat="48.08553" lon="7.68854">
        <ele>408.22</ele>
        <time>2014-09-10T08:49:46Z</time>
      </trkpt>
      <trkpt lat="48.08552" lon="7.68855">
        <ele>408.22</ele>
        <time>2014-09-10T08:51:00Z</time>
      </trkpt>
      <trkpt lat="48.08553" lon="7.68854">
        <ele>407.74</ele>
        <time>2014-09-10T08:56:17Z</time>
      </trkpt>
      <trkpt lat="48.08554" lon="7.68853">
        <ele>408.7</ele>
        <time>2014-09-10T08:57:37Z</time>
      </trkpt>
      <trkpt lat="48.08554" lon="7.68854">
        <ele>407.74</ele>
        <time>2014-09-10T08:57:57Z</time>
      </trkpt>
      <trkpt lat="48.08559" lon="7.68856">
        <ele>408.7</ele>
        <time>2014-09-10T08:58:23Z</time>
      </trkpt>
      <trkpt lat="48.0856" lon="7.68856">
        <ele>408.22</ele>
        <time>2014-09-10T08:58:40Z</time>
      </trkpt>
      <trkpt lat="48.0856" lon="7.68855">
        <ele>408.22</ele>
        <time>2014-09-10T08:58:53Z</time>
      </trkpt>
      <trkpt lat="48.08563" lon="7.68851">
        <ele>407.74</ele>
        <time>2014-09-10T08:59:05Z</time>
      </trkpt>
      <trkpt lat="48.08569" lon="7.68849">
        <ele>407.74</ele>
        <time>2014-09-10T08:59:21Z</time>
      </trkpt>
      <trkpt lat="48.0857" lon="7.68834">
        <ele>408.22</ele>
        <time>2014-09-10T08:59:33Z</time>
      </trkpt>
      <trkpt lat="48.08571" lon="7.68819">
        <ele>408.7</ele>
        <time>2014-09-10T08:59:48Z</time>
      </trkpt>
      <trkpt lat="48.0857" lon="7.68808">
        <ele>409.66</ele>
        <time>2014-09-10T09:00:01Z</time>
      </trkpt>
      <trkpt lat="48.0857" lon="7.68805">
        <ele>410.14</ele>
        <time>2014-09-10T09:00:17Z</time>
      </trkpt>
      <trkpt lat="48.08572" lon="7.68789">
        <ele>409.66</ele>
        <time>2014-09-10T09:00:29Z</time>
      </trkpt>
      <trkpt lat="48.08572" lon="7.68788">
        <ele>410.14</ele>
        <time>2014-09-10T09:00:30Z</time>
      </trkpt>
      <trkpt lat="48.08573" lon="7.68764">
        <ele>410.14</ele>
        <time>2014-09-10T09:00:42Z</time>
      </trkpt>
      <trkpt lat="48.08579" lon="7.68735">
        <ele>410.14</ele>
        <time>2014-09-10T09:00:56Z</time>
      </trkpt>
      <trkpt lat="48.08581" lon="7.6871">
        <ele>409.18</ele>
        <time>2014-09-10T09:01:09Z</time>
      </trkpt>
      <trkpt lat="48.0858" lon="7.68704">
        <ele>409.18</ele>
        <time>2014-09-10T09:01:12Z</time>
      </trkpt>
      <trkpt lat="48.08585" lon="7.68686">
        <ele>408.22</ele>
        <time>2014-09-10T09:01:23Z</time>
      </trkpt>
      <trkpt lat="48.08583" lon="7.68661">
        <ele>408.7</ele>
        <time>2014-09-10T09:01:39Z</time>
      </trkpt>
      <trkpt lat="48.08591" lon="7.68638">
        <ele>407.26</ele>
        <time>2014-09-10T09:01:48Z</time>
      </trkpt>
      <trkpt lat="48.08593" lon="7.68629">
        <ele>407.74</ele>
        <time>2014-09-10T09:01:55Z</time>
      </trkpt>
      <trkpt lat="48.08594" lon="7.686">
        <ele>407.74</ele>
        <time>2014-09-10T09:02:08Z</time>
      </trkpt>
      <trkpt lat="48.08594" lon="7.68591">
        <ele>407.74</ele>
        <time>2014-09-10T09:02:12Z</time>
      </trkpt>
      <trkpt lat="48.08587" lon="7.68572">
        <ele>407.26</ele>
        <time>2014-09-10T09:02:27Z</time>
      </trkpt>
      <trkpt lat="48.08589" lon="7.68571">
        <ele>407.26</ele>
        <time>2014-09-10T09:02:44Z</time>
      </trkpt>
      <trkpt lat="48.08588" lon="7.68569">
        <ele>407.26</ele>
        <time>2014-09-10T09:03:00Z</time>
      </trkpt>
      <trkpt lat="48.08586" lon="7.68567">
        <ele>407.74</ele>
        <time>2014-09-10T09:03:24Z</time>
      </trkpt>
      <trkpt lat="48.08566" lon="7.6854">
        <ele>408.22</ele>
        <time>2014-09-10T09:03:43Z</time>
      </trkpt>
      <trkpt lat="48.08531" lon="7.68485">
        <ele>408.7</ele>
        <time>2014-09-10T09:03:56Z</time>
      </trkpt>
      <trkpt lat="48.08521" lon="7.68442">
        <ele>409.18</ele>
        <time>2014-09-10T09:04:10Z</time>
      </trkpt>
      <trkpt lat="48.08519" lon="7.68435">
        <ele>409.18</ele>
        <time>2014-09-10T09:04:14Z</time>
      </trkpt>
      <trkpt lat="48.08512" lon="7.6841">
        <ele>408.7</ele>
        <time>2014-09-10T09:04:28Z</time>
      </trkpt>
      <trkpt lat="48.08512" lon="7.68407">
        <ele>409.18</ele>
        <time>2014-09-10T09:04:30Z</time>
      </trkpt>
      <trkpt lat="48.08521" lon="7.6839">
        <ele>409.18</ele>
        <time>2014-09-10T09:04:43Z</time>
      </trkpt>
      <trkpt lat="48.08522" lon="7.68375">
        <ele>410.14</ele>
        <time>2014-09-10T09:04:48Z</time>
      </trkpt>
      <trkpt lat="48.08526" lon="7.68351">
        <ele>410.62</ele>
        <time>2014-09-10T09:05:01Z</time>
      </trkpt>
      <trkpt lat="48.08528" lon="7.68346">
        <ele>410.62</ele>
        <time>2014-09-10T09:05:04Z</time>
      </trkpt>
      <trkpt lat="48.08534" lon="7.68326">
        <ele>411.58</ele>
        <time>2014-09-10T09:05:16Z</time>
      </trkpt>
      <trkpt lat="48.08546" lon="7.68312">
        <ele>412.06</ele>
        <time>2014-09-10T09:05:25Z</time>
      </trkpt>
      <trkpt lat="48.08558" lon="7.68304">
        <ele>413.02</ele>
        <time>2014-09-10T09:05:40Z</time>
      </trkpt>
      <trkpt lat="48.08567" lon="7.68302">
        <ele>413.5</ele>
        <time>2014-09-10T09:05:47Z</time>
      </trkpt>
      <trkpt lat="48.08583" lon="7.68293">
        <ele>414.95</ele>
        <time>2014-09-10T09:06:01Z</time>
      </trkpt>
      <trkpt lat="48.08583" lon="7.68293">
        <ele>414.95</ele>
        <time>2014-09-10T09:06:02Z</time>
      </trkpt>
      <trkpt lat="48.08591" lon="7.68268">
        <ele>415.43</ele>
        <time>2014-09-10T09:06:11Z</time>
      </trkpt>
      <trkpt lat="48.08598" lon="7.68254">
        <ele>415.43</ele>
        <time>2014-09-10T09:06:22Z</time>
      </trkpt>
      <trkpt lat="48.08604" lon="7.68245">
        <ele>415.43</ele>
        <time>2014-09-10T09:06:27Z</time>
      </trkpt>
      <trkpt lat="48.08623" lon="7.68242">
        <ele>417.35</ele>
        <time>2014-09-10T09:06:45Z</time>
      </trkpt>
      <trkpt lat="48.08644" lon="7.68237">
        <ele>418.79</ele>
        <time>2014-09-10T09:07:02Z</time>
      </trkpt>
      <trkpt lat="48.0865" lon="7.68225">
        <ele>419.75</ele>
        <time>2014-09-10T09:07:09Z</time>
      </trkpt>
      <trkpt lat="48.08657" lon="7.68214">
        <ele>419.75</ele>
        <time>2014-09-10T09:07:13Z</time>
      </trkpt>
      <trkpt lat="48.08665" lon="7.6817">
        <ele>421.19</ele>
        <time>2014-09-10T09:07:30Z</time>
      </trkpt>
      <trkpt lat="48.0867" lon="7.6815">
        <ele>423.12</ele>
        <time>2014-09-10T09:07:42Z</time>
      </trkpt>
      <trkpt lat="48.08673" lon="7.68142">
        <ele>423.12</ele>
        <time>2014-09-10T09:07:45Z</time>
      </trkpt>
      <trkpt lat="48.08676" lon="7.68135">
        <ele>424.08</ele>
        <time>2014-09-10T09:07:49Z</time>
      </trkpt>
      <trkpt lat="48.08681" lon="7.68119">
        <ele>425.52</ele>
        <time>2014-09-10T09:08:00Z</time>
      </trkpt>
      <trkpt lat="48.08676" lon="7.68095">
        <ele>426.96</ele>
        <time>2014-09-10T09:08:12Z</time>
      </trkpt>
      <trkpt lat="48.08675" lon="7.68092">
        <ele>426.96</ele>
        <time>2014-09-10T09:08:14Z</time>
      </trkpt>
      <trkpt lat="48.08662" lon="7.6807">
        <ele>429.37</ele>
        <time>2014-09-10T09:08:30Z</time>
      </trkpt>
      <trkpt lat="48.08651" lon="7.68037">
        <ele>430.81</ele>
        <time>2014-09-10T09:08:46Z</time>
      </trkpt>
      <trkpt lat="48.08638" lon="7.68015">
        <ele>432.73</ele>
        <time>2014-09-10T09:09:02Z</time>
      </trkpt>
      <trkpt lat="48.08633" lon="7.68006">
        <ele>434.17</ele>
        <time>2014-09-10T09:09:21Z</time>
      </trkpt>
      <trkpt lat="48.08627" lon="7.67994">
        <ele>436.58</ele>
        <time>2014-09-10T09:09:50Z</time>
      </trkpt>
      <trkpt lat="48.08577" lon="7.67967">
        <ele>436.1</ele>
        <time>2014-09-10T09:10:07Z</time>
      </trkpt>
      <trkpt lat="48.08547" lon="7.67963">
        <ele>435.61</ele>
        <time>2014-09-10T09:10:25Z</time>
      </trkpt>
      <trkpt lat="48.0854" lon="7.67979">
        <ele>433.69</ele>
        <time>2014-09-10T09:10:42Z</time>
      </trkpt>
      <trkpt lat="48.08527" lon="7.67992">
        <ele>433.21</ele>
        <time>2014-09-10T09:10:56Z</time>
      </trkpt>
      <trkpt lat="48.08501" lon="7.67993">
        <ele>431.77</ele>
        <time>2014-09-10T09:11:15Z</time>
      </trkpt>
      <trkpt lat="48.0849" lon="7.67988">
        <ele>430.33</ele>
        <time>2014-09-10T09:11:34Z</time>
      </trkpt>
      <trkpt lat="48.08484" lon="7.67978">
        <ele>427.92</ele>
        <time>2014-09-10T09:11:50Z</time>
      </trkpt>
      <trkpt lat="48.08465" lon="7.67959">
        <ele>426.96</ele>
        <time>2014-09-10T09:12:08Z</time>
      </trkpt>
      <trkpt lat="48.08453" lon="7.67941">
        <ele>426</ele>
        <time>2014-09-10T09:12:26Z</time>
      </trkpt>
      <trkpt lat="48.08429" lon="7.67924">
        <ele>425.04</ele>
        <time>2014-09-10T09:12:42Z</time>
      </trkpt>
      <trkpt lat="48.08401" lon="7.67901">
        <ele>424.08</ele>
        <time>2014-09-10T09:12:58Z</time>
      </trkpt>
      <trkpt lat="48.08386" lon="7.67881">
        <ele>423.12</ele>
        <time>2014-09-10T09:13:11Z</time>
      </trkpt>
      <trkpt lat="48.08374" lon="7.6787">
        <ele>422.64</ele>
        <time>2014-09-10T09:13:22Z</time>
      </trkpt>
      <trkpt lat="48.08351" lon="7.6785">
        <ele>421.68</ele>
        <time>2014-09-10T09:13:38Z</time>
      </trkpt>
      <trkpt lat="48.08339" lon="7.67827">
        <ele>419.75</ele>
        <time>2014-09-10T09:13:52Z</time>
      </trkpt>
      <trkpt lat="48.08338" lon="7.67825">
        <ele>420.23</ele>
        <time>2014-09-10T09:13:53Z</time>
      </trkpt>
      <trkpt lat="48.08337" lon="7.67821">
        <ele>419.75</ele>
        <time>2014-09-10T09:13:56Z</time>
      </trkpt>
      <trkpt lat="48.08332" lon="7.67798">
        <ele>418.79</ele>
        <time>2014-09-10T09:14:10Z</time>
      </trkpt>
      <trkpt lat="48.0834" lon="7.67778">
        <ele>418.31</ele>
        <time>2014-09-10T09:14:25Z</time>
      </trkpt>
      <trkpt lat="48.08352" lon="7.67773">
        <ele>417.35</ele>
        <time>2014-09-10T09:14:38Z</time>
      </trkpt>
      <trkpt lat="48.08367" lon="7.67764">
        <ele>416.87</ele>
        <time>2014-09-10T09:14:51Z</time>
      </trkpt>
      <trkpt lat="48.08377" lon="7.67759">
        <ele>416.39</ele>
        <time>2014-09-10T09:14:59Z</time>
      </trkpt>
      <trkpt lat="48.08388" lon="7.6775">
        <ele>415.91</ele>
        <time>2014-09-10T09:15:09Z</time>
      </trkpt>
      <trkpt lat="48.08405" lon="7.67732">
        <ele>414.95</ele>
        <time>2014-09-10T09:15:23Z</time>
      </trkpt>
      <trkpt lat="48.08419" lon="7.67706">
        <ele>413.98</ele>
        <time>2014-09-10T09:15:36Z</time>
      </trkpt>
      <trkpt lat="48.08429" lon="7.67691">
        <ele>413.5</ele>
        <time>2014-09-10T09:15:47Z</time>
      </trkpt>
      <trkpt lat="48.08439" lon="7.6767">
        <ele>412.54</ele>
        <time>2014-09-10T09:16:01Z</time>
      </trkpt>
      <trkpt lat="48.08453" lon="7.67648">
        <ele>412.54</ele>
        <time>2014-09-10T09:16:14Z</time>
      </trkpt>
      <trkpt lat="48.08459" lon="7.67612">
        <ele>412.06</ele>
        <time>2014-09-10T09:16:30Z</time>
      </trkpt>
      <trkpt lat="48.08463" lon="7.67577">
        <ele>412.06</ele>
        <time>2014-09-10T09:16:43Z</time>
      </trkpt>
      <trkpt lat="48.08458" lon="7.6755">
        <ele>412.06</ele>
        <time>2014-09-10T09:17:03Z</time>
      </trkpt>
      <trkpt lat="48.08428" lon="7.67518">
        <ele>411.58</ele>
        <time>2014-09-10T09:17:19Z</time>
      </trkpt>
      <trkpt lat="48.08412" lon="7.67503">
        <ele>411.1</ele>
        <time>2014-09-10T09:17:38Z</time>
      </trkpt>
      <trkpt lat="48.08394" lon="7.67492">
        <ele>411.58</ele>
        <time>2014-09-10T09:17:53Z</time>
      </trkpt>
      <trkpt lat="48.08384" lon="7.67473">
        <ele>410.62</ele>
        <time>2014-09-10T09:18:09Z</time>
      </trkpt>
      <trkpt lat="48.08379" lon="7.67473">
        <ele>411.1</ele>
        <time>2014-09-10T09:18:12Z</time>
      </trkpt>
      <trkpt lat="48.08382" lon="7.67461">
        <ele>412.06</ele>
        <time>2014-09-10T09:18:27Z</time>
      </trkpt>
      <trkpt lat="48.08387" lon="7.67447">
        <ele>413.5</ele>
        <time>2014-09-10T09:18:44Z</time>
      </trkpt>
      <trkpt lat="48.08388" lon="7.67439">
        <ele>413.5</ele>
        <time>2014-09-10T09:18:47Z</time>
      </trkpt>
      <trkpt lat="48.08395" lon="7.67403">
        <ele>413.5</ele>
        <time>2014-09-10T09:19:01Z</time>
      </trkpt>
      <trkpt lat="48.08393" lon="7.6737">
        <ele>413.02</ele>
        <time>2014-09-10T09:19:13Z</time>
      </trkpt>
      <trkpt lat="48.08389" lon="7.67343">
        <ele>412.54</ele>
        <time>2014-09-10T09:19:26Z</time>
      </trkpt>
      <trkpt lat="48.08393" lon="7.67337">
        <ele>412.54</ele>
        <time>2014-09-10T09:19:32Z</time>
      </trkpt>
      <trkpt lat="48.08395" lon="7.67331">
        <ele>412.54</ele>
        <time>2014-09-10T09:19:38Z</time>
      </trkpt>
      <trkpt lat="48.08416" lon="7.67323">
        <ele>413.5</ele>
        <time>2014-09-10T09:19:53Z</time>
      </trkpt>
      <trkpt lat="48.08439" lon="7.67336">
        <ele>414.47</ele>
        <time>2014-09-10T09:20:08Z</time>
      </trkpt>
      <trkpt lat="48.08447" lon="7.67343">
        <ele>414.95</ele>
        <time>2014-09-10T09:20:21Z</time>
      </trkpt>
      <trkpt lat="48.08456" lon="7.67357">
        <ele>415.91</ele>
        <time>2014-09-10T09:20:34Z</time>
      </trkpt>
      <trkpt lat="48.08474" lon="7.67366">
        <ele>416.87</ele>
        <time>2014-09-10T09:20:48Z</time>
      </trkpt>
      <trkpt lat="48.0849" lon="7.67353">
        <ele>416.87</ele>
        <time>2014-09-10T09:21:01Z</time>
      </trkpt>
      <trkpt lat="48.08498" lon="7.67349">
        <ele>417.35</ele>
        <time>2014-09-10T09:21:18Z</time>
      </trkpt>
      <trkpt lat="48.08498" lon="7.67346">
        <ele>417.83</ele>
        <time>2014-09-10T09:21:43Z</time>
      </trkpt>
      <trkpt lat="48.085" lon="7.67344">
        <ele>417.35</ele>
        <time>2014-09-10T09:22:13Z</time>
      </trkpt>
      <trkpt lat="48.08498" lon="7.67344">
        <ele>416.87</ele>
        <time>2014-09-10T09:23:04Z</time>
      </trkpt>
      <trkpt lat="48.08492" lon="7.67332">
        <ele>417.35</ele>
        <time>2014-09-10T09:23:36Z</time>
      </trkpt>
      <trkpt lat="48.08481" lon="7.67304">
        <ele>416.87</ele>
        <time>2014-09-10T09:23:53Z</time>
      </trkpt>
      <trkpt lat="48.08478" lon="7.67275">
        <ele>416.39</ele>
        <time>2014-09-10T09:24:10Z</time>
      </trkpt>
      <trkpt lat="48.08476" lon="7.67241">
        <ele>417.35</ele>
        <time>2014-09-10T09:24:25Z</time>
      </trkpt>
      <trkpt lat="48.08477" lon="7.67231">
        <ele>417.35</ele>
        <time>2014-09-10T09:24:29Z</time>
      </trkpt>
      <trkpt lat="48.08475" lon="7.67212">
        <ele>417.83</ele>
        <time>2014-09-10T09:24:40Z</time>
      </trkpt>
      <trkpt lat="48.08487" lon="7.67193">
        <ele>418.79</ele>
        <time>2014-09-10T09:24:57Z</time>
      </trkpt>
      <trkpt lat="48.08495" lon="7.67169">
        <ele>419.75</ele>
        <time>2014-09-10T09:25:13Z</time>
      </trkpt>
      <trkpt lat="48.08496" lon="7.67144">
        <ele>419.75</ele>
        <time>2014-09-10T09:25:21Z</time>
      </trkpt>
      <trkpt lat="48.08484" lon="7.67117">
        <ele>420.23</ele>
        <time>2014-09-10T09:25:36Z</time>
      </trkpt>
      <trkpt lat="48.08473" lon="7.67087">
        <ele>419.27</ele>
        <time>2014-09-10T09:25:50Z</time>
      </trkpt>
      <trkpt lat="48.08468" lon="7.67084">
        <ele>419.27</ele>
        <time>2014-09-10T09:25:51Z</time>
      </trkpt>
      <trkpt lat="48.08463" lon="7.67055">
        <ele>420.71</ele>
        <time>2014-09-10T09:26:08Z</time>
      </trkpt>
      <trkpt lat="48.08462" lon="7.67025">
        <ele>421.19</ele>
        <time>2014-09-10T09:26:22Z</time>
      </trkpt>
      <trkpt lat="48.08468" lon="7.67013">
        <ele>421.19</ele>
        <time>2014-09-10T09:26:38Z</time>
      </trkpt>
      <trkpt lat="48.08484" lon="7.67001">
        <ele>422.16</ele>
        <time>2014-09-10T09:26:55Z</time>
      </trkpt>
      <trkpt lat="48.08498" lon="7.66989">
        <ele>423.6</ele>
        <time>2014-09-10T09:27:07Z</time>
      </trkpt>
      <trkpt lat="48.08504" lon="7.66981">
        <ele>423.12</ele>
        <time>2014-09-10T09:27:14Z</time>
      </trkpt>
      <trkpt lat="48.08515" lon="7.6697">
        <ele>423.6</ele>
        <time>2014-09-10T09:27:22Z</time>
      </trkpt>
      <trkpt lat="48.08521" lon="7.66941">
        <ele>423.6</ele>
        <time>2014-09-10T09:27:34Z</time>
      </trkpt>
      <trkpt lat="48.08522" lon="7.66933">
        <ele>423.6</ele>
        <time>2014-09-10T09:27:37Z</time>
      </trkpt>
      <trkpt lat="48.08521" lon="7.66922">
        <ele>423.6</ele>
        <time>2014-09-10T09:27:41Z</time>
      </trkpt>
      <trkpt lat="48.08513" lon="7.66891">
        <ele>422.64</ele>
        <time>2014-09-10T09:27:58Z</time>
      </trkpt>
      <trkpt lat="48.08513" lon="7.66861">
        <ele>421.19</ele>
        <time>2014-09-10T09:28:11Z</time>
      </trkpt>
      <trkpt lat="48.08505" lon="7.66849">
        <ele>421.19</ele>
        <time>2014-09-10T09:28:15Z</time>
      </trkpt>
      <trkpt lat="48.08505" lon="7.66839">
        <ele>420.23</ele>
        <time>2014-09-10T09:28:20Z</time>
      </trkpt>
      <trkpt lat="48.08513" lon="7.66828">
        <ele>419.27</ele>
        <time>2014-09-10T09:28:31Z</time>
      </trkpt>
      <trkpt lat="48.0852" lon="7.66817">
        <ele>418.31</ele>
        <time>2014-09-10T09:28:39Z</time>
      </trkpt>
      <trkpt lat="48.08522" lon="7.66814">
        <ele>418.31</ele>
        <time>2014-09-10T09:28:42Z</time>
      </trkpt>
      <trkpt lat="48.08533" lon="7.66796">
        <ele>418.31</ele>
        <time>2014-09-10T09:28:57Z</time>
      </trkpt>
      <trkpt lat="48.08545" lon="7.66779">
        <ele>418.79</ele>
        <time>2014-09-10T09:29:09Z</time>
      </trkpt>
      <trkpt lat="48.08556" lon="7.66752">
        <ele>417.83</ele>
        <time>2014-09-10T09:29:23Z</time>
      </trkpt>
      <trkpt lat="48.08568" lon="7.66717">
        <ele>415.43</ele>
        <time>2014-09-10T09:29:40Z</time>
      </trkpt>
      <trkpt lat="48.08574" lon="7.66694">
        <ele>414.47</ele>
        <time>2014-09-10T09:29:52Z</time>
      </trkpt>
      <trkpt lat="48.08577" lon="7.66677">
        <ele>413.5</ele>
        <time>2014-09-10T09:30:01Z</time>
      </trkpt>
      <trkpt lat="48.08583" lon="7.66645">
        <ele>411.58</ele>
        <time>2014-09-10T09:30:15Z</time>
      </trkpt>
      <trkpt lat="48.08589" lon="7.66605">
        <ele>410.62</ele>
        <time>2014-09-10T09:30:30Z</time>
      </trkpt>
      <trkpt lat="48.08588" lon="7.66577">
        <ele>409.66</ele>
        <time>2014-09-10T09:30:44Z</time>
      </trkpt>
      <trkpt lat="48.08588" lon="7.6657">
        <ele>410.14</ele>
        <time>2014-09-10T09:30:47Z</time>
      </trkpt>
      <trkpt lat="48.08579" lon="7.66536">
        <ele>407.74</ele>
        <time>2014-09-10T09:31:05Z</time>
      </trkpt>
      <trkpt lat="48.08573" lon="7.6652">
        <ele>407.26</ele>
        <time>2014-09-10T09:31:21Z</time>
      </trkpt>
      <trkpt lat="48.08576" lon="7.66522">
        <ele>408.22</ele>
        <time>2014-09-10T09:31:40Z</time>
      </trkpt>
      <trkpt lat="48.08577" lon="7.66525">
        <ele>407.74</ele>
        <time>2014-09-10T09:32:03Z</time>
      </trkpt>
      <trkpt lat="48.08576" lon="7.66524">
        <ele>408.22</ele>
        <time>2014-09-10T09:32:24Z</time>
      </trkpt>
      <trkpt lat="48.08575" lon="7.66523">
        <ele>407.26</ele>
        <time>2014-09-10T09:32:42Z</time>
      </trkpt>
      <trkpt lat="48.08564" lon="7.66512">
        <ele>406.29</ele>
        <time>2014-09-10T09:32:56Z</time>
      </trkpt>
      <trkpt lat="48.08554" lon="7.66502">
        <ele>404.37</ele>
        <time>2014-09-10T09:33:09Z</time>
      </trkpt>
      <trkpt lat="48.08552" lon="7.6649">
        <ele>402.45</ele>
        <time>2014-09-10T09:33:15Z</time>
      </trkpt>
      <trkpt lat="48.0855" lon="7.66477">
        <ele>400.05</ele>
        <time>2014-09-10T09:33:22Z</time>
      </trkpt>
      <trkpt lat="48.08545" lon="7.66469">
        <ele>398.6</ele>
        <time>2014-09-10T09:33:27Z</time>
      </trkpt>
      <trkpt lat="48.08543" lon="7.66458">
        <ele>397.16</ele>
        <time>2014-09-10T09:33:31Z</time>
      </trkpt>
      <trkpt lat="48.08542" lon="7.66455">
        <ele>397.16</ele>
        <time>2014-09-10T09:33:33Z</time>
      </trkpt>
      <trkpt lat="48.08538" lon="7.66442">
        <ele>395.72</ele>
        <time>2014-09-10T09:33:41Z</time>
      </trkpt>
      <trkpt lat="48.08532" lon="7.66428">
        <ele>394.76</ele>
        <time>2014-09-10T09:33:47Z</time>
      </trkpt>
      <trkpt lat="48.08529" lon="7.66426">
        <ele>393.32</ele>
        <time>2014-09-10T09:33:49Z</time>
      </trkpt>
      <trkpt lat="48.0852" lon="7.66411">
        <ele>389.95</ele>
        <time>2014-09-10T09:33:58Z</time>
      </trkpt>
      <trkpt lat="48.08509" lon="7.66402">
        <ele>386.59</ele>
        <time>2014-09-10T09:34:09Z</time>
      </trkpt>
      <trkpt lat="48.08496" lon="7.66379">
        <ele>383.7</ele>
        <time>2014-09-10T09:34:22Z</time>
      </trkpt>
      <trkpt lat="48.08495" lon="7.66378">
        <ele>383.22</ele>
        <time>2014-09-10T09:34:23Z</time>
      </trkpt>
      <trkpt lat="48.08486" lon="7.66366">
        <ele>380.34</ele>
        <time>2014-09-10T09:34:34Z</time>
      </trkpt>
      <trkpt lat="48.0847" lon="7.66351">
        <ele>377.45</ele>
        <time>2014-09-10T09:34:46Z</time>
      </trkpt>
      <trkpt lat="48.08468" lon="7.66333">
        <ele>374.09</ele>
        <time>2014-09-10T09:35:00Z</time>
      </trkpt>
      <trkpt lat="48.08466" lon="7.66311">
        <ele>371.21</ele>
        <time>2014-09-10T09:35:13Z</time>
      </trkpt>
      <trkpt lat="48.08469" lon="7.66298">
        <ele>368.32</ele>
        <time>2014-09-10T09:35:23Z</time>
      </trkpt>
      <trkpt lat="48.08485" lon="7.66278">
        <ele>364.96</ele>
        <time>2014-09-10T09:35:36Z</time>
      </trkpt>
      <trkpt lat="48.08488" lon="7.6627">
        <ele>362.55</ele>
        <time>2014-09-10T09:35:43Z</time>
      </trkpt>
      <trkpt lat="48.08504" lon="7.66245">
        <ele>359.67</ele>
        <time>2014-09-10T09:35:56Z</time>
      </trkpt>
      <trkpt lat="48.0851" lon="7.66238">
        <ele>358.71</ele>
        <time>2014-09-10T09:36:01Z</time>
      </trkpt>
      <trkpt lat="48.0852" lon="7.66212">
        <ele>355.83</ele>
        <time>2014-09-10T09:36:16Z</time>
      </trkpt>
      <trkpt lat="48.08518" lon="7.66207">
        <ele>355.34</ele>
        <time>2014-09-10T09:36:19Z</time>
      </trkpt>
      <trkpt lat="48.08508" lon="7.66176">
        <ele>352.46</ele>
        <time>2014-09-10T09:36:36Z</time>
      </trkpt>
      <trkpt lat="48.0851" lon="7.66173">
        <ele>352.46</ele>
        <time>2014-09-10T09:36:37Z</time>
      </trkpt>
      <trkpt lat="48.08511" lon="7.66166">
        <ele>351.98</ele>
        <time>2014-09-10T09:36:40Z</time>
      </trkpt>
      <trkpt lat="48.0851" lon="7.6616">
        <ele>351.02</ele>
        <time>2014-09-10T09:36:44Z</time>
      </trkpt>
      <trkpt lat="48.08504" lon="7.66148">
        <ele>350.06</ele>
        <time>2014-09-10T09:36:53Z</time>
      </trkpt>
      <trkpt lat="48.08503" lon="7.66145">
        <ele>350.54</ele>
        <time>2014-09-10T09:36:57Z</time>
      </trkpt>
      <trkpt lat="48.08502" lon="7.66125">
        <ele>350.06</ele>
        <time>2014-09-10T09:37:03Z</time>
      </trkpt>
      <trkpt lat="48.08501" lon="7.66122">
        <ele>350.06</ele>
        <time>2014-09-10T09:37:04Z</time>
      </trkpt>
      <trkpt lat="48.08497" lon="7.66106">
        <ele>349.58</ele>
        <time>2014-09-10T09:37:15Z</time>
      </trkpt>
      <trkpt lat="48.08496" lon="7.66095">
        <ele>349.58</ele>
        <time>2014-09-10T09:37:21Z</time>
      </trkpt>
      <trkpt lat="48.08489" lon="7.6608">
        <ele>349.58</ele>
        <time>2014-09-10T09:37:35Z</time>
      </trkpt>
      <trkpt lat="48.08478" lon="7.66061">
        <ele>349.1</ele>
        <time>2014-09-10T09:37:48Z</time>
      </trkpt>
      <trkpt lat="48.08476" lon="7.66046">
        <ele>349.58</ele>
        <time>2014-09-10T09:37:59Z</time>
      </trkpt>
      <trkpt lat="48.08477" lon="7.66039">
        <ele>350.06</ele>
        <time>2014-09-10T09:38:04Z</time>
      </trkpt>
      <trkpt lat="48.08474" lon="7.66027">
        <ele>349.58</ele>
        <time>2014-09-10T09:38:16Z</time>
      </trkpt>
      <trkpt lat="48.08483" lon="7.66022">
        <ele>349.58</ele>
        <time>2014-09-10T09:38:34Z</time>
      </trkpt>
      <trkpt lat="48.08485" lon="7.66022">
        <ele>349.58</ele>
        <time>2014-09-10T09:38:58Z</time>
      </trkpt>
      <trkpt lat="48.08488" lon="7.66019">
        <ele>350.06</ele>
        <time>2014-09-10T09:39:19Z</time>
      </trkpt>
      <trkpt lat="48.08489" lon="7.66016">
        <ele>349.1</ele>
        <time>2014-09-10T09:39:47Z</time>
      </trkpt>
      <trkpt lat="48.08491" lon="7.65998">
        <ele>346.21</ele>
        <time>2014-09-10T09:40:01Z</time>
      </trkpt>
      <trkpt lat="48.08493" lon="7.65995">
        <ele>347.17</ele>
        <time>2014-09-10T09:40:13Z</time>
      </trkpt>
      <trkpt lat="48.08492" lon="7.6601">
        <ele>349.58</ele>
        <time>2014-09-10T09:40:30Z</time>
      </trkpt>
      <trkpt lat="48.0849" lon="7.66029">
        <ele>350.06</ele>
        <time>2014-09-10T09:40:48Z</time>
      </trkpt>
      <trkpt lat="48.08485" lon="7.6604">
        <ele>350.54</ele>
        <time>2014-09-10T09:41:04Z</time>
      </trkpt>
      <trkpt lat="48.08473" lon="7.66041">
        <ele>352.94</ele>
        <time>2014-09-10T09:41:16Z</time>
      </trkpt>
      <trkpt lat="48.08458" lon="7.66036">
        <ele>355.83</ele>
        <time>2014-09-10T09:41:30Z</time>
      </trkpt>
      <trkpt lat="48.08456" lon="7.66027">
        <ele>357.75</ele>
        <time>2014-09-10T09:41:40Z</time>
      </trkpt>
      <trkpt lat="48.08453" lon="7.66023">
        <ele>360.15</ele>
        <time>2014-09-10T09:41:52Z</time>
      </trkpt>
      <trkpt lat="48.08453" lon="7.66017">
        <ele>361.59</ele>
        <time>2014-09-10T09:42:05Z</time>
      </trkpt>
      <trkpt lat="48.08442" lon="7.66013">
        <ele>363.52</ele>
        <time>2014-09-10T09:42:20Z</time>
      </trkpt>
      <trkpt lat="48.08425" lon="7.6601">
        <ele>366.4</ele>
        <time>2014-09-10T09:42:34Z</time>
      </trkpt>
      <trkpt lat="48.08409" lon="7.66007">
        <ele>368.8</ele>
        <time>2014-09-10T09:42:49Z</time>
      </trkpt>
      <trkpt lat="48.08404" lon="7.66007">
        <ele>368.8</ele>
        <time>2014-09-10T09:42:52Z</time>
      </trkpt>
      <trkpt lat="48.08381" lon="7.66006">
        <ele>372.17</ele>
        <time>2014-09-10T09:43:08Z</time>
      </trkpt>
      <trkpt lat="48.0838" lon="7.65999">
        <ele>375.53</ele>
        <time>2014-09-10T09:43:21Z</time>
      </trkpt>
      <trkpt lat="48.08373" lon="7.65988">
        <ele>378.42</ele>
        <time>2014-09-10T09:43:39Z</time>
      </trkpt>
      <trkpt lat="48.0837" lon="7.65989">
        <ele>378.9</ele>
        <time>2014-09-10T09:44:08Z</time>
      </trkpt>
      <trkpt lat="48.08372" lon="7.65984">
        <ele>378.9</ele>
        <time>2014-09-10T09:44:38Z</time>
      </trkpt>
      <trkpt lat="48.08384" lon="7.65977">
        <ele>378.9</ele>
        <time>2014-09-10T09:44:50Z</time>
      </trkpt>
      <trkpt lat="48.08395" lon="7.65979">
        <ele>379.38</ele>
        <time>2014-09-10T09:45:03Z</time>
      </trkpt>
      <trkpt lat="48.08398" lon="7.6598">
        <ele>378.9</ele>
        <time>2014-09-10T09:45:06Z</time>
      </trkpt>
      <trkpt lat="48.08411" lon="7.65982">
        <ele>379.38</ele>
        <time>2014-09-10T09:45:18Z</time>
      </trkpt>
      <trkpt lat="48.0843" lon="7.65957">
        <ele>379.38</ele>
        <time>2014-09-10T09:45:34Z</time>
      </trkpt>
      <trkpt lat="48.08431" lon="7.65953">
        <ele>379.38</ele>
        <time>2014-09-10T09:45:35Z</time>
      </trkpt>
      <trkpt lat="48.08431" lon="7.65931">
        <ele>379.38</ele>
        <time>2014-09-10T09:45:45Z</time>
      </trkpt>
      <trkpt lat="48.08427" lon="7.65916">
        <ele>378.9</ele>
        <time>2014-09-10T09:45:56Z</time>
      </trkpt>
      <trkpt lat="48.08429" lon="7.65896">
        <ele>377.94</ele>
        <time>2014-09-10T09:46:06Z</time>
      </trkpt>
      <trkpt lat="48.08429" lon="7.65881">
        <ele>377.94</ele>
        <time>2014-09-10T09:46:12Z</time>
      </trkpt>
      <trkpt lat="48.08427" lon="7.65872">
        <ele>378.42</ele>
        <time>2014-09-10T09:46:16Z</time>
      </trkpt>
      <trkpt lat="48.08423" lon="7.65868">
        <ele>379.38</ele>
        <time>2014-09-10T09:46:32Z</time>
      </trkpt>
      <trkpt lat="48.08421" lon="7.6588">
        <ele>381.3</ele>
        <time>2014-09-10T09:46:45Z</time>
      </trkpt>
      <trkpt lat="48.08425" lon="7.65895">
        <ele>382.26</ele>
        <time>2014-09-10T09:46:59Z</time>
      </trkpt>
      <trkpt lat="48.08426" lon="7.65897">
        <ele>382.74</ele>
        <time>2014-09-10T09:47:02Z</time>
      </trkpt>
      <trkpt lat="48.0843" lon="7.65919">
        <ele>385.15</ele>
        <time>2014-09-10T09:47:19Z</time>
      </trkpt>
      <trkpt lat="48.08421" lon="7.65932">
        <ele>386.11</ele>
        <time>2014-09-10T09:47:29Z</time>
      </trkpt>
      <trkpt lat="48.08396" lon="7.65933">
        <ele>387.07</ele>
        <time>2014-09-10T09:47:45Z</time>
      </trkpt>
      <trkpt lat="48.08383" lon="7.65931">
        <ele>388.99</ele>
        <time>2014-09-10T09:47:55Z</time>
      </trkpt>
      <trkpt lat="48.08369" lon="7.65928">
        <ele>391.39</ele>
        <time>2014-09-10T09:48:11Z</time>
      </trkpt>
      <trkpt lat="48.0835" lon="7.65935">
        <ele>393.32</ele>
        <time>2014-09-10T09:48:25Z</time>
      </trkpt>
      <trkpt lat="48.08339" lon="7.65948">
        <ele>394.76</ele>
        <time>2014-09-10T09:48:37Z</time>
      </trkpt>
      <trkpt lat="48.08327" lon="7.65951">
        <ele>395.24</ele>
        <time>2014-09-10T09:48:53Z</time>
      </trkpt>
      <trkpt lat="48.08326" lon="7.6595">
        <ele>395.24</ele>
        <time>2014-09-10T09:48:54Z</time>
      </trkpt>
      <trkpt lat="48.0831" lon="7.65927">
        <ele>396.2</ele>
        <time>2014-09-10T09:49:11Z</time>
      </trkpt>
      <trkpt lat="48.08306" lon="7.65911">
        <ele>395.72</ele>
        <time>2014-09-10T09:49:24Z</time>
      </trkpt>
      <trkpt lat="48.08314" lon="7.65884">
        <ele>394.28</ele>
        <time>2014-09-10T09:49:42Z</time>
      </trkpt>
      <trkpt lat="48.08315" lon="7.65882">
        <ele>394.28</ele>
        <time>2014-09-10T09:50:00Z</time>
      </trkpt>
      <trkpt lat="48.08315" lon="7.65882">
        <ele>394.76</ele>
        <time>2014-09-10T09:50:12Z</time>
      </trkpt>
      <trkpt lat="48.08315" lon="7.6588">
        <ele>394.28</ele>
        <time>2014-09-10T09:50:37Z</time>
      </trkpt>
      <trkpt lat="48.08318" lon="7.65868">
        <ele>392.84</ele>
        <time>2014-09-10T09:51:00Z</time>
      </trkpt>
      <trkpt lat="48.08314" lon="7.65847">
        <ele>392.36</ele>
        <time>2014-09-10T09:51:13Z</time>
      </trkpt>
      <trkpt lat="48.08309" lon="7.65829">
        <ele>392.84</ele>
        <time>2014-09-10T09:51:23Z</time>
      </trkpt>
      <trkpt lat="48.08308" lon="7.65825">
        <ele>391.39</ele>
        <time>2014-09-10T09:51:25Z</time>
      </trkpt>
      <trkpt lat="48.08305" lon="7.65818">
        <ele>391.39</ele>
        <time>2014-09-10T09:51:30Z</time>
      </trkpt>
      <trkpt lat="48.08302" lon="7.65815">
        <ele>391.39</ele>
        <time>2014-09-10T09:51:33Z</time>
      </trkpt>
      <trkpt lat="48.08298" lon="7.65813">
        <ele>391.87</ele>
        <time>2014-09-10T09:51:37Z</time>
      </trkpt>
      <trkpt lat="48.08297" lon="7.65813">
        <ele>392.36</ele>
        <time>2014-09-10T09:51:38Z</time>
      </trkpt>
      <trkpt lat="48.08286" lon="7.65814">
        <ele>392.36</ele>
        <time>2014-09-10T09:51:46Z</time>
      </trkpt>
      <trkpt lat="48.08273" lon="7.65814">
        <ele>392.84</ele>
        <time>2014-09-10T09:52:00Z</time>
      </trkpt>
      <trkpt lat="48.08272" lon="7.65815">
        <ele>392.36</ele>
        <time>2014-09-10T09:52:29Z</time>
      </trkpt>
      <trkpt lat="48.08272" lon="7.65815">
        <ele>393.32</ele>
        <time>2014-09-10T09:53:09Z</time>
      </trkpt>
      <trkpt lat="48.08273" lon="7.65817">
        <ele>392.84</ele>
        <time>2014-09-10T09:53:50Z</time>
      </trkpt>
      <trkpt lat="48.08273" lon="7.6582">
        <ele>392.84</ele>
        <time>2014-09-10T09:54:07Z</time>
      </trkpt>
      <trkpt lat="48.08273" lon="7.65831">
        <ele>392.84</ele>
        <time>2014-09-10T09:54:17Z</time>
      </trkpt>
      <trkpt lat="48.08273" lon="7.65829">
        <ele>393.32</ele>
        <time>2014-09-10T09:54:36Z</time>
      </trkpt>
      <trkpt lat="48.08274" lon="7.65818">
        <ele>393.32</ele>
        <time>2014-09-10T09:55:11Z</time>
      </trkpt>
      <trkpt lat="48.08274" lon="7.6582">
        <ele>392.84</ele>
        <time>2014-09-10T09:55:26Z</time>
      </trkpt>
      <trkpt lat="48.08273" lon="7.65821">
        <ele>393.32</ele>
        <time>2014-09-10T09:56:27Z</time>
      </trkpt>
      <trkpt lat="48.08273" lon="7.65822">
        <ele>392.84</ele>
        <time>2014-09-10T10:00:49Z</time>
      </trkpt>
      <trkpt lat="48.08273" lon="7.65823">
        <ele>392.84</ele>
        <time>2014-09-10T10:01:30Z</time>
      </trkpt>
      <trkpt lat="48.08278" lon="7.65823">
        <ele>392.84</ele>
        <time>2014-09-10T10:01:50Z</time>
      </trkpt>
      <trkpt lat="48.08294" lon="7.65817">
        <ele>393.32</ele>
        <time>2014-09-10T10:02:04Z</time>
      </trkpt>
      <trkpt lat="48.08298" lon="7.65814">
        <ele>392.84</ele>
        <time>2014-09-10T10:02:08Z</time>
      </trkpt>
      <trkpt lat="48.083" lon="7.65807">
        <ele>392.36</ele>
        <time>2014-09-10T10:02:12Z</time>
      </trkpt>
      <trkpt lat="48.08301" lon="7.658">
        <ele>392.36</ele>
        <time>2014-09-10T10:02:15Z</time>
      </trkpt>
      <trkpt lat="48.08301" lon="7.65793">
        <ele>392.36</ele>
        <time>2014-09-10T10:02:19Z</time>
      </trkpt>
      <trkpt lat="48.083" lon="7.65769">
        <ele>392.36</ele>
        <time>2014-09-10T10:02:33Z</time>
      </trkpt>
      <trkpt lat="48.083" lon="7.65767">
        <ele>391.87</ele>
        <time>2014-09-10T10:02:34Z</time>
      </trkpt>
      <trkpt lat="48.083" lon="7.65747">
        <ele>391.87</ele>
        <time>2014-09-10T10:02:45Z</time>
      </trkpt>
      <trkpt lat="48.08303" lon="7.65722">
        <ele>390.91</ele>
        <time>2014-09-10T10:02:57Z</time>
      </trkpt>
      <trkpt lat="48.08306" lon="7.65702">
        <ele>390.91</ele>
        <time>2014-09-10T10:03:07Z</time>
      </trkpt>
      <trkpt lat="48.08307" lon="7.65687">
        <ele>390.91</ele>
        <time>2014-09-10T10:03:15Z</time>
      </trkpt>
      <trkpt lat="48.08309" lon="7.65675">
        <ele>390.43</ele>
        <time>2014-09-10T10:03:21Z</time>
      </trkpt>
      <trkpt lat="48.0831" lon="7.65672">
        <ele>390.43</ele>
        <time>2014-09-10T10:03:23Z</time>
      </trkpt>
      <trkpt lat="48.08314" lon="7.65655">
        <ele>389.47</ele>
        <time>2014-09-10T10:03:33Z</time>
      </trkpt>
      <trkpt lat="48.08319" lon="7.65643">
        <ele>389.47</ele>
        <time>2014-09-10T10:03:39Z</time>
      </trkpt>
      <trkpt lat="48.08323" lon="7.65634">
        <ele>388.99</ele>
        <time>2014-09-10T10:03:43Z</time>
      </trkpt>
      <trkpt lat="48.08325" lon="7.65625">
        <ele>388.99</ele>
        <time>2014-09-10T10:03:48Z</time>
      </trkpt>
      <trkpt lat="48.08324" lon="7.65605">
        <ele>388.99</ele>
        <time>2014-09-10T10:03:59Z</time>
      </trkpt>
      <trkpt lat="48.0832" lon="7.65585">
        <ele>389.95</ele>
        <time>2014-09-10T10:04:10Z</time>
      </trkpt>
      <trkpt lat="48.08318" lon="7.65573">
        <ele>390.91</ele>
        <time>2014-09-10T10:04:18Z</time>
      </trkpt>
      <trkpt lat="48.08312" lon="7.65546">
        <ele>392.36</ele>
        <time>2014-09-10T10:04:33Z</time>
      </trkpt>
      <trkpt lat="48.08299" lon="7.65519">
        <ele>394.76</ele>
        <time>2014-09-10T10:04:48Z</time>
      </trkpt>
      <trkpt lat="48.08292" lon="7.65508">
        <ele>395.72</ele>
        <time>2014-09-10T10:04:56Z</time>
      </trkpt>
      <trkpt lat="48.08284" lon="7.65481">
        <ele>395.72</ele>
        <time>2014-09-10T10:05:15Z</time>
      </trkpt>
      <trkpt lat="48.08284" lon="7.65462">
        <ele>396.68</ele>
        <time>2014-09-10T10:05:26Z</time>
      </trkpt>
      <trkpt lat="48.08288" lon="7.65441">
        <ele>397.16</ele>
        <time>2014-09-10T10:05:37Z</time>
      </trkpt>
      <trkpt lat="48.08294" lon="7.65424">
        <ele>397.64</ele>
        <time>2014-09-10T10:05:47Z</time>
      </trkpt>
      <trkpt lat="48.083" lon="7.65405">
        <ele>397.16</ele>
        <time>2014-09-10T10:05:58Z</time>
      </trkpt>
      <trkpt lat="48.08302" lon="7.65384">
        <ele>397.64</ele>
        <time>2014-09-10T10:06:09Z</time>
      </trkpt>
      <trkpt lat="48.08303" lon="7.65364">
        <ele>397.64</ele>
        <time>2014-09-10T10:06:20Z</time>
      </trkpt>
      <trkpt lat="48.08305" lon="7.6534">
        <ele>398.6</ele>
        <time>2014-09-10T10:06:32Z</time>
      </trkpt>
      <trkpt lat="48.08304" lon="7.65315">
        <ele>398.12</ele>
        <time>2014-09-10T10:06:45Z</time>
      </trkpt>
      <trkpt lat="48.08302" lon="7.65288">
        <ele>398.6</ele>
        <time>2014-09-10T10:06:58Z</time>
      </trkpt>
      <trkpt lat="48.08301" lon="7.65283">
        <ele>399.08</ele>
        <time>2014-09-10T10:07:01Z</time>
      </trkpt>
      <trkpt lat="48.08297" lon="7.65259">
        <ele>398.12</ele>
        <time>2014-09-10T10:07:14Z</time>
      </trkpt>
      <trkpt lat="48.08295" lon="7.65247">
        <ele>398.6</ele>
        <time>2014-09-10T10:07:20Z</time>
      </trkpt>
      <trkpt lat="48.08295" lon="7.65243">
        <ele>399.08</ele>
        <time>2014-09-10T10:07:22Z</time>
      </trkpt>
      <trkpt lat="48.08295" lon="7.65221">
        <ele>400.53</ele>
        <time>2014-09-10T10:07:33Z</time>
      </trkpt>
      <trkpt lat="48.08295" lon="7.65219">
        <ele>401.01</ele>
        <time>2014-09-10T10:07:34Z</time>
      </trkpt>
      <trkpt lat="48.08297" lon="7.65213">
        <ele>401.49</ele>
        <time>2014-09-10T10:07:37Z</time>
      </trkpt>
      <trkpt lat="48.08293" lon="7.65195">
        <ele>403.41</ele>
        <time>2014-09-10T10:07:49Z</time>
      </trkpt>
      <trkpt lat="48.08289" lon="7.65187">
        <ele>403.89</ele>
        <time>2014-09-10T10:07:54Z</time>
      </trkpt>
      <trkpt lat="48.08277" lon="7.65177">
        <ele>404.37</ele>
        <time>2014-09-10T10:08:02Z</time>
      </trkpt>
      <trkpt lat="48.08268" lon="7.65165">
        <ele>404.85</ele>
        <time>2014-09-10T10:08:12Z</time>
      </trkpt>
      <trkpt lat="48.08265" lon="7.6516">
        <ele>405.33</ele>
        <time>2014-09-10T10:08:21Z</time>
      </trkpt>
      <trkpt lat="48.08264" lon="7.6516">
        <ele>404.85</ele>
        <time>2014-09-10T10:08:33Z</time>
      </trkpt>
      <trkpt lat="48.08265" lon="7.6517">
        <ele>404.85</ele>
        <time>2014-09-10T10:08:46Z</time>
      </trkpt>
      <trkpt lat="48.08266" lon="7.65172">
        <ele>404.85</ele>
        <time>2014-09-10T10:09:01Z</time>
      </trkpt>
      <trkpt lat="48.08266" lon="7.6517">
        <ele>404.37</ele>
        <time>2014-09-10T10:09:27Z</time>
      </trkpt>
      <trkpt lat="48.08265" lon="7.65157">
        <ele>404.37</ele>
        <time>2014-09-10T10:09:37Z</time>
      </trkpt>
      <trkpt lat="48.08264" lon="7.65154">
        <ele>405.81</ele>
        <time>2014-09-10T10:09:50Z</time>
      </trkpt>
      <trkpt lat="48.08264" lon="7.65154">
        <ele>403.89</ele>
        <time>2014-09-10T10:09:57Z</time>
      </trkpt>
      <trkpt lat="48.08264" lon="7.65154">
        <ele>396.68</ele>
        <time>2014-09-10T11:08:32Z</time>
      </trkpt>
      <trkpt lat="48.08264" lon="7.65154">
        <ele>408.7</ele>
        <time>2014-09-10T11:08:34Z</time>
      </trkpt>
      <trkpt lat="48.08272" lon="7.65145">
        <ele>408.7</ele>
        <time>2014-09-10T11:08:43Z</time>
      </trkpt>
      <trkpt lat="48.08274" lon="7.65149">
        <ele>408.22</ele>
        <time>2014-09-10T11:09:42Z</time>
      </trkpt>
      <trkpt lat="48.08272" lon="7.6515">
        <ele>408.7</ele>
        <time>2014-09-10T11:10:25Z</time>
      </trkpt>
      <trkpt lat="48.08271" lon="7.65158">
        <ele>409.18</ele>
        <time>2014-09-10T11:11:16Z</time>
      </trkpt>
      <trkpt lat="48.08268" lon="7.6516">
        <ele>408.22</ele>
        <time>2014-09-10T11:11:55Z</time>
      </trkpt>
      <trkpt lat="48.08264" lon="7.65151">
        <ele>406.29</ele>
        <time>2014-09-10T11:12:05Z</time>
      </trkpt>
      <trkpt lat="48.08271" lon="7.65139">
        <ele>406.29</ele>
        <time>2014-09-10T11:12:21Z</time>
      </trkpt>
      <trkpt lat="48.08276" lon="7.65133">
        <ele>405.81</ele>
        <time>2014-09-10T11:12:33Z</time>
      </trkpt>
      <trkpt lat="48.08275" lon="7.65132">
        <ele>405.81</ele>
        <time>2014-09-10T11:14:14Z</time>
      </trkpt>
      <trkpt lat="48.08277" lon="7.65133">
        <ele>404.85</ele>
        <time>2014-09-10T11:14:39Z</time>
      </trkpt>
      <trkpt lat="48.08282" lon="7.65127">
        <ele>402.45</ele>
        <time>2014-09-10T11:14:48Z</time>
      </trkpt>
      <trkpt lat="48.08286" lon="7.65114">
        <ele>399.57</ele>
        <time>2014-09-10T11:14:59Z</time>
      </trkpt>
      <trkpt lat="48.08288" lon="7.65113">
        <ele>398.12</ele>
        <time>2014-09-10T11:15:01Z</time>
      </trkpt>
      <trkpt lat="48.083" lon="7.65105">
        <ele>395.24</ele>
        <time>2014-09-10T11:15:12Z</time>
      </trkpt>
      <trkpt lat="48.08307" lon="7.6509">
        <ele>391.87</ele>
        <time>2014-09-10T11:15:26Z</time>
      </trkpt>
      <trkpt lat="48.0831" lon="7.65062">
        <ele>388.51</ele>
        <time>2014-09-10T11:15:40Z</time>
      </trkpt>
      <trkpt lat="48.08313" lon="7.65043">
        <ele>385.15</ele>
        <time>2014-09-10T11:15:50Z</time>
      </trkpt>
      <trkpt lat="48.08315" lon="7.65036">
        <ele>382.74</ele>
        <time>2014-09-10T11:15:55Z</time>
      </trkpt>
      <trkpt lat="48.08317" lon="7.65026">
        <ele>379.86</ele>
        <time>2014-09-10T11:16:06Z</time>
      </trkpt>
      <trkpt lat="48.08318" lon="7.65017">
        <ele>376.49</ele>
        <time>2014-09-10T11:16:14Z</time>
      </trkpt>
      <trkpt lat="48.08317" lon="7.65005">
        <ele>373.61</ele>
        <time>2014-09-10T11:16:22Z</time>
      </trkpt>
      <trkpt lat="48.08318" lon="7.64978">
        <ele>369.76</ele>
        <time>2014-09-10T11:16:33Z</time>
      </trkpt>
      <trkpt lat="48.08321" lon="7.64969">
        <ele>368.8</ele>
        <time>2014-09-10T11:16:38Z</time>
      </trkpt>
      <trkpt lat="48.08321" lon="7.64957">
        <ele>366.88</ele>
        <time>2014-09-10T11:16:46Z</time>
      </trkpt>
      <trkpt lat="48.08318" lon="7.6494">
        <ele>365.44</ele>
        <time>2014-09-10T11:16:57Z</time>
      </trkpt>
      <trkpt lat="48.08313" lon="7.6494">
        <ele>364.96</ele>
        <time>2014-09-10T11:17:11Z</time>
      </trkpt>
      <trkpt lat="48.08303" lon="7.64949">
        <ele>364.48</ele>
        <time>2014-09-10T11:17:23Z</time>
      </trkpt>
      <trkpt lat="48.08302" lon="7.64949">
        <ele>364.48</ele>
        <time>2014-09-10T11:17:24Z</time>
      </trkpt>
      <trkpt lat="48.08289" lon="7.64953">
        <ele>363.52</ele>
        <time>2014-09-10T11:17:35Z</time>
      </trkpt>
      <trkpt lat="48.08287" lon="7.64951">
        <ele>364</ele>
        <time>2014-09-10T11:17:52Z</time>
      </trkpt>
      <trkpt lat="48.08287" lon="7.64951">
        <ele>360.15</ele>
        <time>2014-09-10T11:18:12Z</time>
      </trkpt>
      <trkpt lat="48.08287" lon="7.64951">
        <ele>364</ele>
        <time>2014-09-10T11:18:13Z</time>
      </trkpt>
      <trkpt lat="48.08286" lon="7.6495">
        <ele>363.52</ele>
        <time>2014-09-10T11:18:32Z</time>
      </trkpt>
      <trkpt lat="48.08285" lon="7.6495">
        <ele>363.52</ele>
        <time>2014-09-10T11:19:17Z</time>
      </trkpt>
      <trkpt lat="48.08283" lon="7.64958">
        <ele>362.55</ele>
        <time>2014-09-10T11:19:39Z</time>
      </trkpt>
      <trkpt lat="48.08278" lon="7.64953">
        <ele>362.55</ele>
        <time>2014-09-10T11:19:44Z</time>
      </trkpt>
      <trkpt lat="48.08276" lon="7.64954">
        <ele>363.04</ele>
        <time>2014-09-10T11:19:46Z</time>
      </trkpt>
      <trkpt lat="48.08271" lon="7.64957">
        <ele>363.04</ele>
        <time>2014-09-10T11:19:51Z</time>
      </trkpt>
      <trkpt lat="48.08264" lon="7.64962">
        <ele>362.55</ele>
        <time>2014-09-10T11:19:57Z</time>
      </trkpt>
      <trkpt lat="48.08255" lon="7.6497">
        <ele>361.59</ele>
        <time>2014-09-10T11:20:06Z</time>
      </trkpt>
      <trkpt lat="48.08236" lon="7.64981">
        <ele>359.67</ele>
        <time>2014-09-10T11:20:21Z</time>
      </trkpt>
      <trkpt lat="48.08227" lon="7.64985">
        <ele>360.15</ele>
        <time>2014-09-10T11:20:36Z</time>
      </trkpt>
      <trkpt lat="48.08214" lon="7.64987">
        <ele>359.19</ele>
        <time>2014-09-10T11:20:49Z</time>
      </trkpt>
      <trkpt lat="48.08208" lon="7.64986">
        <ele>359.19</ele>
        <time>2014-09-10T11:20:54Z</time>
      </trkpt>
      <trkpt lat="48.08193" lon="7.64986">
        <ele>357.27</ele>
        <time>2014-09-10T11:21:06Z</time>
      </trkpt>
      <trkpt lat="48.08172" lon="7.64981">
        <ele>354.86</ele>
        <time>2014-09-10T11:21:25Z</time>
      </trkpt>
      <trkpt lat="48.08166" lon="7.64965">
        <ele>352.94</ele>
        <time>2014-09-10T11:21:41Z</time>
      </trkpt>
      <trkpt lat="48.08155" lon="7.6495">
        <ele>350.06</ele>
        <time>2014-09-10T11:21:51Z</time>
      </trkpt>
      <trkpt lat="48.08145" lon="7.64932">
        <ele>349.58</ele>
        <time>2014-09-10T11:22:02Z</time>
      </trkpt>
      <trkpt lat="48.0814" lon="7.6492">
        <ele>349.58</ele>
        <time>2014-09-10T11:22:09Z</time>
      </trkpt>
      <trkpt lat="48.08129" lon="7.64912">
        <ele>349.1</ele>
        <time>2014-09-10T11:22:26Z</time>
      </trkpt>
      <trkpt lat="48.08142" lon="7.64918">
        <ele>349.1</ele>
        <time>2014-09-10T11:22:42Z</time>
      </trkpt>
      <trkpt lat="48.08141" lon="7.64919">
        <ele>349.58</ele>
        <time>2014-09-10T11:22:55Z</time>
      </trkpt>
      <trkpt lat="48.0814" lon="7.6492">
        <ele>349.58</ele>
        <time>2014-09-10T11:23:09Z</time>
      </trkpt>
      <trkpt lat="48.08137" lon="7.64919">
        <ele>350.06</ele>
        <time>2014-09-10T11:23:13Z</time>
      </trkpt>
      <trkpt lat="48.08125" lon="7.64916">
        <ele>349.58</ele>
        <time>2014-09-10T11:23:24Z</time>
      </trkpt>
      <trkpt lat="48.08102" lon="7.6491">
        <ele>350.06</ele>
        <time>2014-09-10T11:23:41Z</time>
      </trkpt>
      <trkpt lat="48.08082" lon="7.64906">
        <ele>350.06</ele>
        <time>2014-09-10T11:23:55Z</time>
      </trkpt>
      <trkpt lat="48.0807" lon="7.64912">
        <ele>350.06</ele>
        <time>2014-09-10T11:24:05Z</time>
      </trkpt>
      <trkpt lat="48.08052" lon="7.64925">
        <ele>350.54</ele>
        <time>2014-09-10T11:24:20Z</time>
      </trkpt>
      <trkpt lat="48.08037" lon="7.6494">
        <ele>350.54</ele>
        <time>2014-09-10T11:24:34Z</time>
      </trkpt>
      <trkpt lat="48.08034" lon="7.64943">
        <ele>350.54</ele>
        <time>2014-09-10T11:24:36Z</time>
      </trkpt>
      <trkpt lat="48.08022" lon="7.64966">
        <ele>351.02</ele>
        <time>2014-09-10T11:24:52Z</time>
      </trkpt>
      <trkpt lat="48.0801" lon="7.64988">
        <ele>351.5</ele>
        <time>2014-09-10T11:25:06Z</time>
      </trkpt>
      <trkpt lat="48.08001" lon="7.65016">
        <ele>351.5</ele>
        <time>2014-09-10T11:25:22Z</time>
      </trkpt>
      <trkpt lat="48.08005" lon="7.65042">
        <ele>351.02</ele>
        <time>2014-09-10T11:25:35Z</time>
      </trkpt>
      <trkpt lat="48.0801" lon="7.65065">
        <ele>349.58</ele>
        <time>2014-09-10T11:25:48Z</time>
      </trkpt>
      <trkpt lat="48.08011" lon="7.65081">
        <ele>348.62</ele>
        <time>2014-09-10T11:25:55Z</time>
      </trkpt>
      <trkpt lat="48.08008" lon="7.65081">
        <ele>348.13</ele>
        <time>2014-09-10T11:26:07Z</time>
      </trkpt>
      <trkpt lat="48.08006" lon="7.6507">
        <ele>348.62</ele>
        <time>2014-09-10T11:26:26Z</time>
      </trkpt>
      <trkpt lat="48.08007" lon="7.65066">
        <ele>349.1</ele>
        <time>2014-09-10T11:26:35Z</time>
      </trkpt>
      <trkpt lat="48.08001" lon="7.65054">
        <ele>348.13</ele>
        <time>2014-09-10T11:26:44Z</time>
      </trkpt>
      <trkpt lat="48.07992" lon="7.6505">
        <ele>346.69</ele>
        <time>2014-09-10T11:26:52Z</time>
      </trkpt>
      <trkpt lat="48.07979" lon="7.65055">
        <ele>343.33</ele>
        <time>2014-09-10T11:27:04Z</time>
      </trkpt>
      <trkpt lat="48.07965" lon="7.65053">
        <ele>340.44</ele>
        <time>2014-09-10T11:27:16Z</time>
      </trkpt>
      <trkpt lat="48.07952" lon="7.65047">
        <ele>336.6</ele>
        <time>2014-09-10T11:27:30Z</time>
      </trkpt>
      <trkpt lat="48.07938" lon="7.65041">
        <ele>333.71</ele>
        <time>2014-09-10T11:27:44Z</time>
      </trkpt>
      <trkpt lat="48.07917" lon="7.65029">
        <ele>330.35</ele>
        <time>2014-09-10T11:28:01Z</time>
      </trkpt>
      <trkpt lat="48.07905" lon="7.65021">
        <ele>326.99</ele>
        <time>2014-09-10T11:28:13Z</time>
      </trkpt>
      <trkpt lat="48.07885" lon="7.65014">
        <ele>324.1</ele>
        <time>2014-09-10T11:28:25Z</time>
      </trkpt>
      <trkpt lat="48.07885" lon="7.65014">
        <ele>322.66</ele>
        <time>2014-09-10T11:28:35Z</time>
      </trkpt>
      <trkpt lat="48.07886" lon="7.65012">
        <ele>323.14</ele>
        <time>2014-09-10T11:28:44Z</time>
      </trkpt>
      <trkpt lat="48.07901" lon="7.64987">
        <ele>324.1</ele>
        <time>2014-09-10T11:29:05Z</time>
      </trkpt>
      <trkpt lat="48.07877" lon="7.65015">
        <ele>323.62</ele>
        <time>2014-09-10T11:29:17Z</time>
      </trkpt>
      <trkpt lat="48.07876" lon="7.65017">
        <ele>323.14</ele>
        <time>2014-09-10T11:29:22Z</time>
      </trkpt>
      <trkpt lat="48.07865" lon="7.65034">
        <ele>320.74</ele>
        <time>2014-09-10T11:29:37Z</time>
      </trkpt>
      <trkpt lat="48.07855" lon="7.6506">
        <ele>318.33</ele>
        <time>2014-09-10T11:29:53Z</time>
      </trkpt>
      <trkpt lat="48.07847" lon="7.65074">
        <ele>316.41</ele>
        <time>2014-09-10T11:30:09Z</time>
      </trkpt>
      <trkpt lat="48.07847" lon="7.65074">
        <ele>315.93</ele>
        <time>2014-09-10T11:30:10Z</time>
      </trkpt>
      <trkpt lat="48.07835" lon="7.65095">
        <ele>313.05</ele>
        <time>2014-09-10T11:30:25Z</time>
      </trkpt>
      <trkpt lat="48.07829" lon="7.65103">
        <ele>311.12</ele>
        <time>2014-09-10T11:30:33Z</time>
      </trkpt>
      <trkpt lat="48.07817" lon="7.65101">
        <ele>309.2</ele>
        <time>2014-09-10T11:30:47Z</time>
      </trkpt>
      <trkpt lat="48.07797" lon="7.65093">
        <ele>308.24</ele>
        <time>2014-09-10T11:31:04Z</time>
      </trkpt>
      <trkpt lat="48.07785" lon="7.65083">
        <ele>305.36</ele>
        <time>2014-09-10T11:31:16Z</time>
      </trkpt>
      <trkpt lat="48.07778" lon="7.65077">
        <ele>302.95</ele>
        <time>2014-09-10T11:31:23Z</time>
      </trkpt>
      <trkpt lat="48.0777" lon="7.65068">
        <ele>301.03</ele>
        <time>2014-09-10T11:31:30Z</time>
      </trkpt>
      <trkpt lat="48.07765" lon="7.65039">
        <ele>298.15</ele>
        <time>2014-09-10T11:31:47Z</time>
      </trkpt>
      <trkpt lat="48.07752" lon="7.65026">
        <ele>297.67</ele>
        <time>2014-09-10T11:32:07Z</time>
      </trkpt>
      <trkpt lat="48.07757" lon="7.6503">
        <ele>297.18</ele>
        <time>2014-09-10T11:32:29Z</time>
      </trkpt>
      <trkpt lat="48.07756" lon="7.65032">
        <ele>297.18</ele>
        <time>2014-09-10T11:32:32Z</time>
      </trkpt>
      <trkpt lat="48.07756" lon="7.65064">
        <ele>293.34</ele>
        <time>2014-09-10T11:32:49Z</time>
      </trkpt>
      <trkpt lat="48.07755" lon="7.65095">
        <ele>290.46</ele>
        <time>2014-09-10T11:33:04Z</time>
      </trkpt>
      <trkpt lat="48.07744" lon="7.65106">
        <ele>288.53</ele>
        <time>2014-09-10T11:33:19Z</time>
      </trkpt>
      <trkpt lat="48.07741" lon="7.65097">
        <ele>287.57</ele>
        <time>2014-09-10T11:33:31Z</time>
      </trkpt>
      <trkpt lat="48.07731" lon="7.65075">
        <ele>286.13</ele>
        <time>2014-09-10T11:33:44Z</time>
      </trkpt>
      <trkpt lat="48.07732" lon="7.65045">
        <ele>285.17</ele>
        <time>2014-09-10T11:33:59Z</time>
      </trkpt>
      <trkpt lat="48.07732" lon="7.65026">
        <ele>283.73</ele>
        <time>2014-09-10T11:34:14Z</time>
      </trkpt>
      <trkpt lat="48.07734" lon="7.65025">
        <ele>284.21</ele>
        <time>2014-09-10T11:34:31Z</time>
      </trkpt>
      <trkpt lat="48.07734" lon="7.65024">
        <ele>283.73</ele>
        <time>2014-09-10T11:34:32Z</time>
      </trkpt>
      <trkpt lat="48.07734" lon="7.6502">
        <ele>283.73</ele>
        <time>2014-09-10T11:34:34Z</time>
      </trkpt>
      <trkpt lat="48.07736" lon="7.64988">
        <ele>281.8</ele>
        <time>2014-09-10T11:34:49Z</time>
      </trkpt>
      <trkpt lat="48.07736" lon="7.64978">
        <ele>280.84</ele>
        <time>2014-09-10T11:34:55Z</time>
      </trkpt>
      <trkpt lat="48.07741" lon="7.64958">
        <ele>279.88</ele>
        <time>2014-09-10T11:35:05Z</time>
      </trkpt>
      <trkpt lat="48.07747" lon="7.64929">
        <ele>278.44</ele>
        <time>2014-09-10T11:35:22Z</time>
      </trkpt>
      <trkpt lat="48.07753" lon="7.64905">
        <ele>277</ele>
        <time>2014-09-10T11:35:35Z</time>
      </trkpt>
      <trkpt lat="48.07761" lon="7.64885">
        <ele>276.04</ele>
        <time>2014-09-10T11:35:48Z</time>
      </trkpt>
      <trkpt lat="48.07767" lon="7.64859">
        <ele>275.07</ele>
        <time>2014-09-10T11:36:00Z</time>
      </trkpt>
      <trkpt lat="48.07772" lon="7.64842">
        <ele>275.07</ele>
        <time>2014-09-10T11:36:10Z</time>
      </trkpt>
      <trkpt lat="48.0778" lon="7.64823">
        <ele>273.15</ele>
        <time>2014-09-10T11:36:21Z</time>
      </trkpt>
      <trkpt lat="48.0778" lon="7.64807">
        <ele>271.23</ele>
        <time>2014-09-10T11:36:29Z</time>
      </trkpt>
      <trkpt lat="48.07783" lon="7.64798">
        <ele>270.27</ele>
        <time>2014-09-10T11:36:33Z</time>
      </trkpt>
      <trkpt lat="48.07784" lon="7.64789">
        <ele>269.79</ele>
        <time>2014-09-10T11:36:39Z</time>
      </trkpt>
      <trkpt lat="48.07779" lon="7.64769">
        <ele>267.86</ele>
        <time>2014-09-10T11:36:49Z</time>
      </trkpt>
      <trkpt lat="48.07779" lon="7.64751">
        <ele>266.9</ele>
        <time>2014-09-10T11:36:57Z</time>
      </trkpt>
      <trkpt lat="48.07775" lon="7.64743">
        <ele>265.46</ele>
        <time>2014-09-10T11:37:03Z</time>
      </trkpt>
      <trkpt lat="48.07777" lon="7.64733">
        <ele>265.46</ele>
        <time>2014-09-10T11:37:07Z</time>
      </trkpt>
      <trkpt lat="48.07772" lon="7.64711">
        <ele>264.5</ele>
        <time>2014-09-10T11:37:20Z</time>
      </trkpt>
      <trkpt lat="48.07773" lon="7.64703">
        <ele>264.5</ele>
        <time>2014-09-10T11:37:26Z</time>
      </trkpt>
      <trkpt lat="48.07776" lon="7.64698">
        <ele>264.5</ele>
        <time>2014-09-10T11:37:29Z</time>
      </trkpt>
      <trkpt lat="48.07784" lon="7.64676">
        <ele>264.02</ele>
        <time>2014-09-10T11:37:42Z</time>
      </trkpt>
      <trkpt lat="48.07784" lon="7.64671">
        <ele>264.02</ele>
        <time>2014-09-10T11:37:45Z</time>
      </trkpt>
      <trkpt lat="48.07795" lon="7.64656">
        <ele>263.54</ele>
        <time>2014-09-10T11:37:58Z</time>
      </trkpt>
      <trkpt lat="48.07799" lon="7.64644">
        <ele>264.02</ele>
        <time>2014-09-10T11:38:11Z</time>
      </trkpt>
      <trkpt lat="48.07798" lon="7.64643">
        <ele>263.54</ele>
        <time>2014-09-10T11:38:47Z</time>
      </trkpt>
      <trkpt lat="48.07798" lon="7.64641">
        <ele>263.54</ele>
        <time>2014-09-10T11:39:05Z</time>
      </trkpt>
      <trkpt lat="48.07799" lon="7.64641">
        <ele>263.54</ele>
        <time>2014-09-10T11:39:21Z</time>
      </trkpt>
      <trkpt lat="48.07807" lon="7.64637">
        <ele>263.06</ele>
        <time>2014-09-10T11:39:25Z</time>
      </trkpt>
      <trkpt lat="48.0782" lon="7.64634">
        <ele>264.02</ele>
        <time>2014-09-10T11:39:36Z</time>
      </trkpt>
      <trkpt lat="48.0783" lon="7.64627">
        <ele>263.54</ele>
        <time>2014-09-10T11:39:46Z</time>
      </trkpt>
      <trkpt lat="48.07843" lon="7.6461">
        <ele>263.54</ele>
        <time>2014-09-10T11:39:58Z</time>
      </trkpt>
      <trkpt lat="48.07851" lon="7.64601">
        <ele>264.02</ele>
        <time>2014-09-10T11:40:05Z</time>
      </trkpt>
      <trkpt lat="48.07861" lon="7.64584">
        <ele>264.02</ele>
        <time>2014-09-10T11:40:15Z</time>
      </trkpt>
      <trkpt lat="48.07867" lon="7.64575">
        <ele>263.54</ele>
        <time>2014-09-10T11:40:21Z</time>
      </trkpt>
      <trkpt lat="48.07871" lon="7.64562">
        <ele>263.06</ele>
        <time>2014-09-10T11:40:30Z</time>
      </trkpt>
      <trkpt lat="48.07871" lon="7.64558">
        <ele>263.54</ele>
        <time>2014-09-10T11:40:40Z</time>
      </trkpt>
      <trkpt lat="48.07871" lon="7.64558">
        <ele>263.06</ele>
        <time>2014-09-10T11:41:04Z</time>
      </trkpt>
      <trkpt lat="48.07871" lon="7.64561">
        <ele>263.06</ele>
        <time>2014-09-10T11:41:19Z</time>
      </trkpt>
      <trkpt lat="48.07871" lon="7.64561">
        <ele>263.06</ele>
        <time>2014-09-10T11:41:48Z</time>
      </trkpt>
      <trkpt lat="48.0787" lon="7.64562">
        <ele>263.06</ele>
        <time>2014-09-10T11:42:13Z</time>
      </trkpt>
      <trkpt lat="48.07871" lon="7.64562">
        <ele>263.06</ele>
        <time>2014-09-10T11:42:38Z</time>
      </trkpt>
      <trkpt lat="48.07872" lon="7.6456">
        <ele>263.06</ele>
        <time>2014-09-10T11:43:10Z</time>
      </trkpt>
      <trkpt lat="48.07872" lon="7.6456">
        <ele>262.58</ele>
        <time>2014-09-10T11:44:22Z</time>
      </trkpt>
      <trkpt lat="48.07869" lon="7.64559">
        <ele>262.1</ele>
        <time>2014-09-10T11:44:49Z</time>
      </trkpt>
      <trkpt lat="48.07863" lon="7.6456">
        <ele>262.58</ele>
        <time>2014-09-10T11:45:02Z</time>
      </trkpt>
      <trkpt lat="48.07861" lon="7.64561">
        <ele>263.06</ele>
        <time>2014-09-10T11:45:04Z</time>
      </trkpt>
      <trkpt lat="48.07851" lon="7.64576">
        <ele>263.06</ele>
        <time>2014-09-10T11:45:18Z</time>
      </trkpt>
      <trkpt lat="48.07848" lon="7.64578">
        <ele>262.58</ele>
        <time>2014-09-10T11:45:29Z</time>
      </trkpt>
      <trkpt lat="48.07841" lon="7.64571">
        <ele>263.06</ele>
        <time>2014-09-10T11:45:42Z</time>
      </trkpt>
      <trkpt lat="48.07837" lon="7.64578">
        <ele>264.02</ele>
        <time>2014-09-10T11:45:54Z</time>
      </trkpt>
      <trkpt lat="48.0784" lon="7.64583">
        <ele>264.02</ele>
        <time>2014-09-10T11:46:09Z</time>
      </trkpt>
      <trkpt lat="48.07838" lon="7.64577">
        <ele>264.02</ele>
        <time>2014-09-10T11:46:26Z</time>
      </trkpt>
      <trkpt lat="48.07838" lon="7.64577">
        <ele>264.02</ele>
        <time>2014-09-10T11:46:42Z</time>
      </trkpt>
      <trkpt lat="48.07836" lon="7.64575">
        <ele>263.06</ele>
        <time>2014-09-10T11:47:09Z</time>
      </trkpt>
      <trkpt lat="48.07836" lon="7.64575">
        <ele>263.54</ele>
        <time>2014-09-10T11:47:46Z</time>
      </trkpt>
      <trkpt lat="48.07836" lon="7.64575">
        <ele>263.06</ele>
        <time>2014-09-10T11:48:30Z</time>
      </trkpt>
      <trkpt lat="48.07831" lon="7.64578">
        <ele>263.06</ele>
        <time>2014-09-10T11:48:51Z</time>
      </trkpt>
      <trkpt lat="48.07831" lon="7.64578">
        <ele>263.06</ele>
        <time>2014-09-10T11:49:42Z</time>
      </trkpt>
      <trkpt lat="48.07827" lon="7.64561">
        <ele>263.54</ele>
        <time>2014-09-10T11:50:21Z</time>
      </trkpt>
      <trkpt lat="48.0783" lon="7.64565">
        <ele>263.06</ele>
        <time>2014-09-10T11:51:16Z</time>
      </trkpt>
      <trkpt lat="48.0783" lon="7.64572">
        <ele>263.54</ele>
        <time>2014-09-10T11:51:37Z</time>
      </trkpt>
      <trkpt lat="48.07827" lon="7.64575">
        <ele>263.54</ele>
        <time>2014-09-10T11:52:48Z</time>
      </trkpt>
      <trkpt lat="48.07826" lon="7.64574">
        <ele>263.54</ele>
        <time>2014-09-10T11:53:38Z</time>
      </trkpt>
      <trkpt lat="48.07826" lon="7.64574">
        <ele>264.02</ele>
        <time>2014-09-10T11:54:19Z</time>
      </trkpt>
      <trkpt lat="48.07825" lon="7.64574">
        <ele>264.02</ele>
        <time>2014-09-10T11:57:30Z</time>
      </trkpt>
      <trkpt lat="48.07833" lon="7.64575">
        <ele>264.02</ele>
        <time>2014-09-10T11:58:00Z</time>
      </trkpt>
      <trkpt lat="48.07826" lon="7.64577">
        <ele>265.46</ele>
        <time>2014-09-10T12:01:02Z</time>
      </trkpt>
      <trkpt lat="48.07826" lon="7.64577">
        <ele>264.98</ele>
        <time>2014-09-10T12:01:43Z</time>
      </trkpt>
      <trkpt lat="48.07824" lon="7.64578">
        <ele>265.46</ele>
        <time>2014-09-10T12:02:22Z</time>
      </trkpt>
      <trkpt lat="48.07825" lon="7.64578">
        <ele>264.98</ele>
        <time>2014-09-10T12:03:26Z</time>
      </trkpt>
      <trkpt lat="48.07825" lon="7.64579">
        <ele>266.9</ele>
        <time>2014-09-10T12:07:59Z</time>
      </trkpt>
      <trkpt lat="48.07825" lon="7.6458">
        <ele>266.9</ele>
        <time>2014-09-10T12:08:27Z</time>
      </trkpt>
      <trkpt lat="48.07826" lon="7.6458">
        <ele>266.42</ele>
        <time>2014-09-10T12:08:45Z</time>
      </trkpt>
      <trkpt lat="48.0783" lon="7.64576">
        <ele>266.9</ele>
        <time>2014-09-10T12:08:53Z</time>
      </trkpt>
      <trkpt lat="48.07834" lon="7.64577">
        <ele>267.38</ele>
        <time>2014-09-10T12:08:56Z</time>
      </trkpt>
      <trkpt lat="48.07837" lon="7.64572">
        <ele>266.9</ele>
        <time>2014-09-10T12:09:13Z</time>
      </trkpt>
      <trkpt lat="48.07836" lon="7.64579">
        <ele>267.38</ele>
        <time>2014-09-10T12:09:30Z</time>
      </trkpt>
      <trkpt lat="48.07836" lon="7.64579">
        <ele>266.9</ele>
        <time>2014-09-10T12:10:02Z</time>
      </trkpt>
      <trkpt lat="48.07836" lon="7.64579">
        <ele>266.9</ele>
        <time>2014-09-10T12:10:11Z</time>
      </trkpt>
      <trkpt lat="48.07833" lon="7.64584">
        <ele>266.9</ele>
        <time>2014-09-10T12:10:24Z</time>
      </trkpt>
      <trkpt lat="48.07833" lon="7.64584">
        <ele>267.38</ele>
        <time>2014-09-10T12:10:28Z</time>
      </trkpt>
      <trkpt lat="48.07829" lon="7.64575">
        <ele>266.42</ele>
        <time>2014-09-10T12:10:45Z</time>
      </trkpt>
      <trkpt lat="48.07829" lon="7.64574">
        <ele>266.9</ele>
        <time>2014-09-10T12:11:26Z</time>
      </trkpt>
      <trkpt lat="48.07834" lon="7.64581">
        <ele>265.94</ele>
        <time>2014-09-10T12:12:22Z</time>
      </trkpt>
      <trkpt lat="48.07837" lon="7.64581">
        <ele>265.94</ele>
        <time>2014-09-10T12:12:35Z</time>
      </trkpt>
      <trkpt lat="48.07836" lon="7.64587">
        <ele>266.42</ele>
        <time>2014-09-10T12:12:41Z</time>
      </trkpt>
      <trkpt lat="48.07842" lon="7.64591">
        <ele>266.42</ele>
        <time>2014-09-10T12:12:43Z</time>
      </trkpt>
      <trkpt lat="48.07849" lon="7.64597">
        <ele>266.9</ele>
        <time>2014-09-10T12:12:47Z</time>
      </trkpt>
      <trkpt lat="48.07867" lon="7.64583">
        <ele>266.9</ele>
        <time>2014-09-10T12:13:04Z</time>
      </trkpt>
      <trkpt lat="48.07866" lon="7.64567">
        <ele>266.42</ele>
        <time>2014-09-10T12:13:24Z</time>
      </trkpt>
      <trkpt lat="48.07865" lon="7.64562">
        <ele>266.42</ele>
        <time>2014-09-10T12:13:43Z</time>
      </trkpt>
      <trkpt lat="48.07866" lon="7.64557">
        <ele>266.42</ele>
        <time>2014-09-10T12:14:07Z</time>
      </trkpt>
      <trkpt lat="48.07868" lon="7.64553">
        <ele>266.9</ele>
        <time>2014-09-10T12:14:39Z</time>
      </trkpt>
      <trkpt lat="48.07862" lon="7.64556">
        <ele>266.9</ele>
        <time>2014-09-10T12:15:05Z</time>
      </trkpt>
      <trkpt lat="48.07862" lon="7.64554">
        <ele>266.42</ele>
        <time>2014-09-10T12:15:36Z</time>
      </trkpt>
      <trkpt lat="48.07865" lon="7.64559">
        <ele>267.38</ele>
        <time>2014-09-10T12:16:16Z</time>
      </trkpt>
      <trkpt lat="48.07861" lon="7.6457">
        <ele>267.86</ele>
        <time>2014-09-10T12:16:27Z</time>
      </trkpt>
      <trkpt lat="48.07859" lon="7.64576">
        <ele>267.86</ele>
        <time>2014-09-10T12:16:53Z</time>
      </trkpt>
      <trkpt lat="48.07861" lon="7.64575">
        <ele>267.38</ele>
        <time>2014-09-10T12:17:27Z</time>
      </trkpt>
      <trkpt lat="48.07864" lon="7.64574">
        <ele>266.9</ele>
        <time>2014-09-10T12:17:30Z</time>
      </trkpt>
      <trkpt lat="48.0787" lon="7.6457">
        <ele>266.9</ele>
        <time>2014-09-10T12:17:38Z</time>
      </trkpt>
      <trkpt lat="48.07872" lon="7.64547">
        <ele>266.9</ele>
        <time>2014-09-10T12:17:53Z</time>
      </trkpt>
      <trkpt lat="48.07873" lon="7.64546">
        <ele>266.42</ele>
        <time>2014-09-10T12:17:55Z</time>
      </trkpt>
      <trkpt lat="48.07877" lon="7.64531">
        <ele>264.98</ele>
        <time>2014-09-10T12:18:06Z</time>
      </trkpt>
      <trkpt lat="48.07882" lon="7.64503">
        <ele>264.5</ele>
        <time>2014-09-10T12:18:23Z</time>
      </trkpt>
      <trkpt lat="48.07886" lon="7.64479">
        <ele>263.54</ele>
        <time>2014-09-10T12:18:37Z</time>
      </trkpt>
      <trkpt lat="48.07891" lon="7.64455">
        <ele>263.06</ele>
        <time>2014-09-10T12:18:51Z</time>
      </trkpt>
      <trkpt lat="48.07893" lon="7.64446">
        <ele>262.58</ele>
        <time>2014-09-10T12:18:57Z</time>
      </trkpt>
      <trkpt lat="48.07894" lon="7.64431">
        <ele>262.1</ele>
        <time>2014-09-10T12:19:07Z</time>
      </trkpt>
      <trkpt lat="48.07898" lon="7.64419">
        <ele>261.62</ele>
        <time>2014-09-10T12:19:13Z</time>
      </trkpt>
      <trkpt lat="48.07905" lon="7.64396">
        <ele>261.62</ele>
        <time>2014-09-10T12:19:27Z</time>
      </trkpt>
      <trkpt lat="48.07906" lon="7.64395">
        <ele>261.14</ele>
        <time>2014-09-10T12:19:28Z</time>
      </trkpt>
      <trkpt lat="48.0791" lon="7.64375">
        <ele>261.14</ele>
        <time>2014-09-10T12:19:39Z</time>
      </trkpt>
      <trkpt lat="48.07916" lon="7.64356">
        <ele>260.17</ele>
        <time>2014-09-10T12:19:50Z</time>
      </trkpt>
      <trkpt lat="48.07919" lon="7.64348">
        <ele>260.17</ele>
        <time>2014-09-10T12:19:54Z</time>
      </trkpt>
      <trkpt lat="48.07924" lon="7.64338">
        <ele>260.17</ele>
        <time>2014-09-10T12:20:00Z</time>
      </trkpt>
      <trkpt lat="48.0792" lon="7.64326">
        <ele>259.21</ele>
        <time>2014-09-10T12:20:10Z</time>
      </trkpt>
      <trkpt lat="48.07915" lon="7.64308">
        <ele>259.21</ele>
        <time>2014-09-10T12:20:19Z</time>
      </trkpt>
      <trkpt lat="48.07915" lon="7.64296">
        <ele>258.25</ele>
        <time>2014-09-10T12:20:26Z</time>
      </trkpt>
      <trkpt lat="48.07921" lon="7.64275">
        <ele>257.77</ele>
        <time>2014-09-10T12:20:40Z</time>
      </trkpt>
      <trkpt lat="48.07927" lon="7.64258">
        <ele>257.29</ele>
        <time>2014-09-10T12:20:50Z</time>
      </trkpt>
      <trkpt lat="48.07929" lon="7.64246">
        <ele>256.81</ele>
        <time>2014-09-10T12:21:02Z</time>
      </trkpt>
      <trkpt lat="48.0793" lon="7.64244">
        <ele>256.81</ele>
        <time>2014-09-10T12:21:17Z</time>
      </trkpt>
      <trkpt lat="48.0793" lon="7.64242">
        <ele>256.81</ele>
        <time>2014-09-10T12:21:36Z</time>
      </trkpt>
      <trkpt lat="48.07933" lon="7.64221">
        <ele>256.33</ele>
        <time>2014-09-10T12:21:45Z</time>
      </trkpt>
      <trkpt lat="48.07935" lon="7.64217">
        <ele>255.85</ele>
        <time>2014-09-10T12:21:47Z</time>
      </trkpt>
      <trkpt lat="48.07946" lon="7.64187">
        <ele>255.37</ele>
        <time>2014-09-10T12:22:01Z</time>
      </trkpt>
      <trkpt lat="48.07952" lon="7.64164">
        <ele>254.89</ele>
        <time>2014-09-10T12:22:13Z</time>
      </trkpt>
      <trkpt lat="48.07954" lon="7.64156">
        <ele>254.41</ele>
        <time>2014-09-10T12:22:16Z</time>
      </trkpt>
      <trkpt lat="48.07959" lon="7.64147">
        <ele>253.93</ele>
        <time>2014-09-10T12:22:23Z</time>
      </trkpt>
      <trkpt lat="48.07962" lon="7.64126">
        <ele>253.93</ele>
        <time>2014-09-10T12:22:33Z</time>
      </trkpt>
      <trkpt lat="48.07968" lon="7.64101">
        <ele>253.44</ele>
        <time>2014-09-10T12:22:45Z</time>
      </trkpt>
      <trkpt lat="48.07969" lon="7.64086">
        <ele>252.96</ele>
        <time>2014-09-10T12:22:52Z</time>
      </trkpt>
      <trkpt lat="48.07967" lon="7.64075">
        <ele>252.48</ele>
        <time>2014-09-10T12:22:57Z</time>
      </trkpt>
      <trkpt lat="48.07956" lon="7.64051">
        <ele>252.48</ele>
        <time>2014-09-10T12:23:11Z</time>
      </trkpt>
      <trkpt lat="48.07938" lon="7.64032">
        <ele>252</ele>
        <time>2014-09-10T12:23:25Z</time>
      </trkpt>
      <trkpt lat="48.0792" lon="7.64018">
        <ele>252.48</ele>
        <time>2014-09-10T12:23:38Z</time>
      </trkpt>
      <trkpt lat="48.07918" lon="7.64015">
        <ele>252</ele>
        <time>2014-09-10T12:23:40Z</time>
      </trkpt>
      <trkpt lat="48.07923" lon="7.63998">
        <ele>252</ele>
        <time>2014-09-10T12:23:48Z</time>
      </trkpt>
      <trkpt lat="48.07926" lon="7.63973">
        <ele>251.04</ele>
        <time>2014-09-10T12:24:00Z</time>
      </trkpt>
      <trkpt lat="48.07926" lon="7.63965">
        <ele>250.56</ele>
        <time>2014-09-10T12:24:03Z</time>
      </trkpt>
      <trkpt lat="48.0793" lon="7.6394">
        <ele>250.56</ele>
        <time>2014-09-10T12:24:15Z</time>
      </trkpt>
      <trkpt lat="48.07927" lon="7.6393">
        <ele>250.56</ele>
        <time>2014-09-10T12:24:20Z</time>
      </trkpt>
      <trkpt lat="48.07932" lon="7.639">
        <ele>252.96</ele>
        <time>2014-09-10T12:24:37Z</time>
      </trkpt>
      <trkpt lat="48.07937" lon="7.63897">
        <ele>253.93</ele>
        <time>2014-09-10T12:24:41Z</time>
      </trkpt>
      <trkpt lat="48.07955" lon="7.63882">
        <ele>256.33</ele>
        <time>2014-09-10T12:24:57Z</time>
      </trkpt>
      <trkpt lat="48.0797" lon="7.63866">
        <ele>258.25</ele>
        <time>2014-09-10T12:25:11Z</time>
      </trkpt>
      <trkpt lat="48.07972" lon="7.63865">
        <ele>259.21</ele>
        <time>2014-09-10T12:25:13Z</time>
      </trkpt>
      <trkpt lat="48.07973" lon="7.6386">
        <ele>259.21</ele>
        <time>2014-09-10T12:25:15Z</time>
      </trkpt>
      <trkpt lat="48.07975" lon="7.63837">
        <ele>261.62</ele>
        <time>2014-09-10T12:25:27Z</time>
      </trkpt>
      <trkpt lat="48.07977" lon="7.63823">
        <ele>264.02</ele>
        <time>2014-09-10T12:25:39Z</time>
      </trkpt>
      <trkpt lat="48.07968" lon="7.6382">
        <ele>267.86</ele>
        <time>2014-09-10T12:25:54Z</time>
      </trkpt>
      <trkpt lat="48.07971" lon="7.63803">
        <ele>270.75</ele>
        <time>2014-09-10T12:26:08Z</time>
      </trkpt>
      <trkpt lat="48.07973" lon="7.63795">
        <ele>272.19</ele>
        <time>2014-09-10T12:26:14Z</time>
      </trkpt>
      <trkpt lat="48.07977" lon="7.63789">
        <ele>273.15</ele>
        <time>2014-09-10T12:26:18Z</time>
      </trkpt>
      <trkpt lat="48.07985" lon="7.6378">
        <ele>273.15</ele>
        <time>2014-09-10T12:26:24Z</time>
      </trkpt>
      <trkpt lat="48.07993" lon="7.63777">
        <ele>273.15</ele>
        <time>2014-09-10T12:26:30Z</time>
      </trkpt>
      <trkpt lat="48.08" lon="7.63759">
        <ele>276.04</ele>
        <time>2014-09-10T12:26:43Z</time>
      </trkpt>
      <trkpt lat="48.08002" lon="7.63751">
        <ele>277</ele>
        <time>2014-09-10T12:26:48Z</time>
      </trkpt>
      <trkpt lat="48.08001" lon="7.63742">
        <ele>277.48</ele>
        <time>2014-09-10T12:26:53Z</time>
      </trkpt>
      <trkpt lat="48.07993" lon="7.63734">
        <ele>278.44</ele>
        <time>2014-09-10T12:27:05Z</time>
      </trkpt>
      <trkpt lat="48.07997" lon="7.63726">
        <ele>279.4</ele>
        <time>2014-09-10T12:27:12Z</time>
      </trkpt>
      <trkpt lat="48.08" lon="7.63721">
        <ele>278.92</ele>
        <time>2014-09-10T12:27:16Z</time>
      </trkpt>
      <trkpt lat="48.08" lon="7.63711">
        <ele>279.4</ele>
        <time>2014-09-10T12:27:21Z</time>
      </trkpt>
      <trkpt lat="48.07999" lon="7.63708">
        <ele>279.88</ele>
        <time>2014-09-10T12:27:23Z</time>
      </trkpt>
      <trkpt lat="48.07994" lon="7.63699">
        <ele>280.36</ele>
        <time>2014-09-10T12:27:29Z</time>
      </trkpt>
      <trkpt lat="48.07984" lon="7.6368">
        <ele>280.36</ele>
        <time>2014-09-10T12:27:43Z</time>
      </trkpt>
      <trkpt lat="48.07971" lon="7.63687">
        <ele>281.32</ele>
        <time>2014-09-10T12:27:56Z</time>
      </trkpt>
      <trkpt lat="48.07968" lon="7.63688">
        <ele>281.8</ele>
        <time>2014-09-10T12:27:58Z</time>
      </trkpt>
      <trkpt lat="48.07962" lon="7.63693">
        <ele>282.28</ele>
        <time>2014-09-10T12:28:05Z</time>
      </trkpt>
      <trkpt lat="48.07944" lon="7.63701">
        <ele>283.73</ele>
        <time>2014-09-10T12:28:20Z</time>
      </trkpt>
      <trkpt lat="48.0793" lon="7.63707">
        <ele>284.21</ele>
        <time>2014-09-10T12:28:33Z</time>
      </trkpt>
      <trkpt lat="48.07916" lon="7.63713">
        <ele>285.65</ele>
        <time>2014-09-10T12:28:45Z</time>
      </trkpt>
      <trkpt lat="48.07908" lon="7.63724">
        <ele>285.65</ele>
        <time>2014-09-10T12:28:54Z</time>
      </trkpt>
      <trkpt lat="48.07907" lon="7.63731">
        <ele>285.65</ele>
        <time>2014-09-10T12:28:58Z</time>
      </trkpt>
      <trkpt lat="48.0791" lon="7.63745">
        <ele>286.13</ele>
        <time>2014-09-10T12:29:07Z</time>
      </trkpt>
      <trkpt lat="48.07903" lon="7.63735">
        <ele>287.09</ele>
        <time>2014-09-10T12:29:14Z</time>
      </trkpt>
      <trkpt lat="48.079" lon="7.63733">
        <ele>287.09</ele>
        <time>2014-09-10T12:29:17Z</time>
      </trkpt>
      <trkpt lat="48.07886" lon="7.63744">
        <ele>287.09</ele>
        <time>2014-09-10T12:29:31Z</time>
      </trkpt>
      <trkpt lat="48.07877" lon="7.6376">
        <ele>287.09</ele>
        <time>2014-09-10T12:29:43Z</time>
      </trkpt>
      <trkpt lat="48.07874" lon="7.63767">
        <ele>286.61</ele>
        <time>2014-09-10T12:29:47Z</time>
      </trkpt>
      <trkpt lat="48.07869" lon="7.63772">
        <ele>286.61</ele>
        <time>2014-09-10T12:29:53Z</time>
      </trkpt>
      <trkpt lat="48.07868" lon="7.63784">
        <ele>286.13</ele>
        <time>2014-09-10T12:30:00Z</time>
      </trkpt>
      <trkpt lat="48.07865" lon="7.63794">
        <ele>285.65</ele>
        <time>2014-09-10T12:30:06Z</time>
      </trkpt>
      <trkpt lat="48.07861" lon="7.63807">
        <ele>286.13</ele>
        <time>2014-09-10T12:30:14Z</time>
      </trkpt>
      <trkpt lat="48.07857" lon="7.63815">
        <ele>286.13</ele>
        <time>2014-09-10T12:30:19Z</time>
      </trkpt>
      <trkpt lat="48.07855" lon="7.6382">
        <ele>286.13</ele>
        <time>2014-09-10T12:30:22Z</time>
      </trkpt>
      <trkpt lat="48.07845" lon="7.63832">
        <ele>285.65</ele>
        <time>2014-09-10T12:30:32Z</time>
      </trkpt>
      <trkpt lat="48.07839" lon="7.63839">
        <ele>285.65</ele>
        <time>2014-09-10T12:30:39Z</time>
      </trkpt>
      <trkpt lat="48.07824" lon="7.6385">
        <ele>287.57</ele>
        <time>2014-09-10T12:30:56Z</time>
      </trkpt>
      <trkpt lat="48.07824" lon="7.63851">
        <ele>287.57</ele>
        <time>2014-09-10T12:31:01Z</time>
      </trkpt>
      <trkpt lat="48.07831" lon="7.63856">
        <ele>287.09</ele>
        <time>2014-09-10T12:31:16Z</time>
      </trkpt>
      <trkpt lat="48.07832" lon="7.63851">
        <ele>286.61</ele>
        <time>2014-09-10T12:31:22Z</time>
      </trkpt>
      <trkpt lat="48.07838" lon="7.63845">
        <ele>287.09</ele>
        <time>2014-09-10T12:31:36Z</time>
      </trkpt>
      <trkpt lat="48.07837" lon="7.63845">
        <ele>286.61</ele>
        <time>2014-09-10T12:31:41Z</time>
      </trkpt>
      <trkpt lat="48.07832" lon="7.63848">
        <ele>286.61</ele>
        <time>2014-09-10T12:31:47Z</time>
      </trkpt>
      <trkpt lat="48.07821" lon="7.6385">
        <ele>287.09</ele>
        <time>2014-09-10T12:32:01Z</time>
      </trkpt>
      <trkpt lat="48.0782" lon="7.63851">
        <ele>287.57</ele>
        <time>2014-09-10T12:32:32Z</time>
      </trkpt>
      <trkpt lat="48.07819" lon="7.63852">
        <ele>287.09</ele>
        <time>2014-09-10T12:32:55Z</time>
      </trkpt>
      <trkpt lat="48.07817" lon="7.63857">
        <ele>287.57</ele>
        <time>2014-09-10T12:32:59Z</time>
      </trkpt>
      <trkpt lat="48.078" lon="7.63874">
        <ele>287.09</ele>
        <time>2014-09-10T12:33:15Z</time>
      </trkpt>
      <trkpt lat="48.07791" lon="7.63892">
        <ele>286.61</ele>
        <time>2014-09-10T12:33:27Z</time>
      </trkpt>
      <trkpt lat="48.07788" lon="7.63908">
        <ele>286.61</ele>
        <time>2014-09-10T12:33:36Z</time>
      </trkpt>
      <trkpt lat="48.07782" lon="7.63935">
        <ele>284.69</ele>
        <time>2014-09-10T12:33:51Z</time>
      </trkpt>
      <trkpt lat="48.07781" lon="7.63937">
        <ele>284.69</ele>
        <time>2014-09-10T12:33:52Z</time>
      </trkpt>
      <trkpt lat="48.07778" lon="7.63952">
        <ele>282.77</ele>
        <time>2014-09-10T12:34:08Z</time>
      </trkpt>
      <trkpt lat="48.07777" lon="7.63964">
        <ele>282.28</ele>
        <time>2014-09-10T12:34:27Z</time>
      </trkpt>
      <trkpt lat="48.07772" lon="7.6397">
        <ele>282.77</ele>
        <time>2014-09-10T12:34:31Z</time>
      </trkpt>
      <trkpt lat="48.07754" lon="7.63986">
        <ele>285.65</ele>
        <time>2014-09-10T12:34:47Z</time>
      </trkpt>
      <trkpt lat="48.07743" lon="7.64004">
        <ele>288.53</ele>
        <time>2014-09-10T12:35:01Z</time>
      </trkpt>
      <trkpt lat="48.07732" lon="7.64015">
        <ele>289.49</ele>
        <time>2014-09-10T12:35:13Z</time>
      </trkpt>
      <trkpt lat="48.07728" lon="7.64023">
        <ele>290.46</ele>
        <time>2014-09-10T12:35:19Z</time>
      </trkpt>
      <trkpt lat="48.0772" lon="7.64028">
        <ele>290.94</ele>
        <time>2014-09-10T12:35:26Z</time>
      </trkpt>
      <trkpt lat="48.07716" lon="7.64032">
        <ele>291.9</ele>
        <time>2014-09-10T12:35:30Z</time>
      </trkpt>
      <trkpt lat="48.07701" lon="7.64045">
        <ele>293.34</ele>
        <time>2014-09-10T12:35:45Z</time>
      </trkpt>
      <trkpt lat="48.07695" lon="7.64049">
        <ele>293.82</ele>
        <time>2014-09-10T12:35:50Z</time>
      </trkpt>
      <trkpt lat="48.0769" lon="7.64053">
        <ele>294.78</ele>
        <time>2014-09-10T12:35:55Z</time>
      </trkpt>
      <trkpt lat="48.07679" lon="7.64074">
        <ele>296.7</ele>
        <time>2014-09-10T12:36:11Z</time>
      </trkpt>
      <trkpt lat="48.07669" lon="7.64098">
        <ele>299.11</ele>
        <time>2014-09-10T12:36:28Z</time>
      </trkpt>
      <trkpt lat="48.07662" lon="7.6412">
        <ele>301.51</ele>
        <time>2014-09-10T12:36:43Z</time>
      </trkpt>
      <trkpt lat="48.07654" lon="7.64135">
        <ele>304.39</ele>
        <time>2014-09-10T12:36:56Z</time>
      </trkpt>
      <trkpt lat="48.07638" lon="7.64149">
        <ele>306.8</ele>
        <time>2014-09-10T12:37:13Z</time>
      </trkpt>
      <trkpt lat="48.07624" lon="7.64156">
        <ele>309.68</ele>
        <time>2014-09-10T12:37:27Z</time>
      </trkpt>
      <trkpt lat="48.07612" lon="7.64164">
        <ele>312.09</ele>
        <time>2014-09-10T12:37:40Z</time>
      </trkpt>
      <trkpt lat="48.07601" lon="7.64171">
        <ele>314.97</ele>
        <time>2014-09-10T12:37:51Z</time>
      </trkpt>
      <trkpt lat="48.07587" lon="7.64176">
        <ele>318.33</ele>
        <time>2014-09-10T12:38:06Z</time>
      </trkpt>
      <trkpt lat="48.07571" lon="7.64182">
        <ele>321.7</ele>
        <time>2014-09-10T12:38:22Z</time>
      </trkpt>
      <trkpt lat="48.07561" lon="7.64186">
        <ele>324.58</ele>
        <time>2014-09-10T12:38:34Z</time>
      </trkpt>
      <trkpt lat="48.07556" lon="7.64188">
        <ele>326.5</ele>
        <time>2014-09-10T12:38:41Z</time>
      </trkpt>
      <trkpt lat="48.07546" lon="7.64186">
        <ele>327.95</ele>
        <time>2014-09-10T12:38:51Z</time>
      </trkpt>
      <trkpt lat="48.07541" lon="7.64187">
        <ele>328.91</ele>
        <time>2014-09-10T12:38:57Z</time>
      </trkpt>
      <trkpt lat="48.07535" lon="7.64185">
        <ele>329.87</ele>
        <time>2014-09-10T12:39:02Z</time>
      </trkpt>
      <trkpt lat="48.0752" lon="7.64189">
        <ele>333.23</ele>
        <time>2014-09-10T12:39:17Z</time>
      </trkpt>
      <trkpt lat="48.07511" lon="7.64191">
        <ele>334.68</ele>
        <time>2014-09-10T12:39:26Z</time>
      </trkpt>
      <trkpt lat="48.07509" lon="7.64189">
        <ele>336.6</ele>
        <time>2014-09-10T12:39:40Z</time>
      </trkpt>
      <trkpt lat="48.07511" lon="7.64191">
        <ele>335.16</ele>
        <time>2014-09-10T12:39:58Z</time>
      </trkpt>
      <trkpt lat="48.07513" lon="7.64183">
        <ele>336.12</ele>
        <time>2014-09-10T12:40:22Z</time>
      </trkpt>
      <trkpt lat="48.07512" lon="7.64182">
        <ele>336.12</ele>
        <time>2014-09-10T12:40:36Z</time>
      </trkpt>
      <trkpt lat="48.07513" lon="7.64185">
        <ele>335.64</ele>
        <time>2014-09-10T12:41:02Z</time>
      </trkpt>
      <trkpt lat="48.07513" lon="7.64185">
        <ele>335.64</ele>
        <time>2014-09-10T12:41:26Z</time>
      </trkpt>
      <trkpt lat="48.07511" lon="7.64187">
        <ele>335.64</ele>
        <time>2014-09-10T12:41:52Z</time>
      </trkpt>
      <trkpt lat="48.0751" lon="7.64187">
        <ele>336.12</ele>
        <time>2014-09-10T12:42:28Z</time>
      </trkpt>
      <trkpt lat="48.0751" lon="7.64188">
        <ele>335.64</ele>
        <time>2014-09-10T12:43:27Z</time>
      </trkpt>
      <trkpt lat="48.0751" lon="7.64187">
        <ele>336.12</ele>
        <time>2014-09-10T12:45:49Z</time>
      </trkpt>
      <trkpt lat="48.0751" lon="7.64186">
        <ele>335.64</ele>
        <time>2014-09-10T12:46:30Z</time>
      </trkpt>
      <trkpt lat="48.07511" lon="7.64183">
        <ele>336.6</ele>
        <time>2014-09-10T12:48:33Z</time>
      </trkpt>
      <trkpt lat="48.07511" lon="7.64182">
        <ele>336.12</ele>
        <time>2014-09-10T12:49:38Z</time>
      </trkpt>
      <trkpt lat="48.07511" lon="7.64182">
        <ele>336.12</ele>
        <time>2014-09-10T12:50:33Z</time>
      </trkpt>
      <trkpt lat="48.07511" lon="7.64182">
        <ele>336.12</ele>
        <time>2014-09-10T12:50:53Z</time>
      </trkpt>
      <trkpt lat="48.07511" lon="7.64182">
        <ele>335.64</ele>
        <time>2014-09-10T12:51:14Z</time>
      </trkpt>
      <trkpt lat="48.0751" lon="7.64184">
        <ele>335.64</ele>
        <time>2014-09-10T12:52:10Z</time>
      </trkpt>
      <trkpt lat="48.07509" lon="7.64188">
        <ele>335.16</ele>
        <time>2014-09-10T12:52:18Z</time>
      </trkpt>
      <trkpt lat="48.07499" lon="7.64191">
        <ele>337.56</ele>
        <time>2014-09-10T12:52:28Z</time>
      </trkpt>
      <trkpt lat="48.07492" lon="7.64192">
        <ele>339</ele>
        <time>2014-09-10T12:52:34Z</time>
      </trkpt>
      <trkpt lat="48.07474" lon="7.64197">
        <ele>340.44</ele>
        <time>2014-09-10T12:52:49Z</time>
      </trkpt>
      <trkpt lat="48.07467" lon="7.64198">
        <ele>341.41</ele>
        <time>2014-09-10T12:52:55Z</time>
      </trkpt>
      <trkpt lat="48.07452" lon="7.642">
        <ele>343.33</ele>
        <time>2014-09-10T12:53:08Z</time>
      </trkpt>
      <trkpt lat="48.07434" lon="7.64202">
        <ele>344.29</ele>
        <time>2014-09-10T12:53:24Z</time>
      </trkpt>
      <trkpt lat="48.07422" lon="7.64205">
        <ele>343.81</ele>
        <time>2014-09-10T12:53:37Z</time>
      </trkpt>
      <trkpt lat="48.07408" lon="7.64205">
        <ele>343.81</ele>
        <time>2014-09-10T12:53:46Z</time>
      </trkpt>
      <trkpt lat="48.07383" lon="7.64217">
        <ele>344.29</ele>
        <time>2014-09-10T12:54:03Z</time>
      </trkpt>
      <trkpt lat="48.07372" lon="7.64234">
        <ele>344.77</ele>
        <time>2014-09-10T12:54:16Z</time>
      </trkpt>
      <trkpt lat="48.07361" lon="7.64253">
        <ele>346.21</ele>
        <time>2014-09-10T12:54:29Z</time>
      </trkpt>
      <trkpt lat="48.0736" lon="7.64264">
        <ele>346.21</ele>
        <time>2014-09-10T12:54:34Z</time>
      </trkpt>
      <trkpt lat="48.07367" lon="7.64284">
        <ele>346.21</ele>
        <time>2014-09-10T12:54:46Z</time>
      </trkpt>
      <trkpt lat="48.07367" lon="7.64287">
        <ele>346.21</ele>
        <time>2014-09-10T12:54:48Z</time>
      </trkpt>
      <trkpt lat="48.07365" lon="7.64296">
        <ele>347.17</ele>
        <time>2014-09-10T12:54:54Z</time>
      </trkpt>
      <trkpt lat="48.07364" lon="7.64308">
        <ele>347.65</ele>
        <time>2014-09-10T12:55:01Z</time>
      </trkpt>
      <trkpt lat="48.07358" lon="7.64322">
        <ele>348.62</ele>
        <time>2014-09-10T12:55:11Z</time>
      </trkpt>
      <trkpt lat="48.07356" lon="7.64323">
        <ele>348.13</ele>
        <time>2014-09-10T12:55:13Z</time>
      </trkpt>
      <trkpt lat="48.07352" lon="7.64322">
        <ele>348.62</ele>
        <time>2014-09-10T12:55:16Z</time>
      </trkpt>
      <trkpt lat="48.0734" lon="7.6433">
        <ele>348.13</ele>
        <time>2014-09-10T12:55:27Z</time>
      </trkpt>
      <trkpt lat="48.07337" lon="7.64334">
        <ele>348.13</ele>
        <time>2014-09-10T12:55:30Z</time>
      </trkpt>
      <trkpt lat="48.07332" lon="7.64335">
        <ele>348.13</ele>
        <time>2014-09-10T12:55:34Z</time>
      </trkpt>
      <trkpt lat="48.07324" lon="7.6434">
        <ele>347.65</ele>
        <time>2014-09-10T12:55:40Z</time>
      </trkpt>
      <trkpt lat="48.07317" lon="7.64346">
        <ele>347.65</ele>
        <time>2014-09-10T12:55:46Z</time>
      </trkpt>
      <trkpt lat="48.07305" lon="7.64363">
        <ele>347.17</ele>
        <time>2014-09-10T12:55:59Z</time>
      </trkpt>
      <trkpt lat="48.07292" lon="7.64381">
        <ele>347.65</ele>
        <time>2014-09-10T12:56:12Z</time>
      </trkpt>
      <trkpt lat="48.07285" lon="7.64404">
        <ele>348.13</ele>
        <time>2014-09-10T12:56:25Z</time>
      </trkpt>
      <trkpt lat="48.07288" lon="7.64431">
        <ele>349.58</ele>
        <time>2014-09-10T12:56:40Z</time>
      </trkpt>
      <trkpt lat="48.07296" lon="7.64452">
        <ele>350.54</ele>
        <time>2014-09-10T12:56:53Z</time>
      </trkpt>
      <trkpt lat="48.07296" lon="7.64453">
        <ele>350.54</ele>
        <time>2014-09-10T12:56:54Z</time>
      </trkpt>
      <trkpt lat="48.07298" lon="7.64479">
        <ele>350.54</ele>
        <time>2014-09-10T12:57:07Z</time>
      </trkpt>
      <trkpt lat="48.07299" lon="7.64503">
        <ele>351.5</ele>
        <time>2014-09-10T12:57:20Z</time>
      </trkpt>
      <trkpt lat="48.07299" lon="7.64523">
        <ele>351.98</ele>
        <time>2014-09-10T12:57:31Z</time>
      </trkpt>
      <trkpt lat="48.07298" lon="7.6453">
        <ele>351.98</ele>
        <time>2014-09-10T12:57:35Z</time>
      </trkpt>
      <trkpt lat="48.07295" lon="7.64556">
        <ele>352.94</ele>
        <time>2014-09-10T12:57:49Z</time>
      </trkpt>
      <trkpt lat="48.07291" lon="7.64579">
        <ele>354.38</ele>
        <time>2014-09-10T12:58:02Z</time>
      </trkpt>
      <trkpt lat="48.07285" lon="7.64603">
        <ele>356.31</ele>
        <time>2014-09-10T12:58:18Z</time>
      </trkpt>
      <trkpt lat="48.07275" lon="7.6462">
        <ele>357.27</ele>
        <time>2014-09-10T12:58:31Z</time>
      </trkpt>
      <trkpt lat="48.07265" lon="7.64632">
        <ele>358.23</ele>
        <time>2014-09-10T12:58:43Z</time>
      </trkpt>
      <trkpt lat="48.07264" lon="7.64634">
        <ele>358.23</ele>
        <time>2014-09-10T12:58:44Z</time>
      </trkpt>
      <trkpt lat="48.0726" lon="7.64635">
        <ele>358.71</ele>
        <time>2014-09-10T12:58:47Z</time>
      </trkpt>
      <trkpt lat="48.07249" lon="7.64644">
        <ele>358.71</ele>
        <time>2014-09-10T12:58:58Z</time>
      </trkpt>
      <trkpt lat="48.0724" lon="7.64651">
        <ele>358.71</ele>
        <time>2014-09-10T12:59:07Z</time>
      </trkpt>
      <trkpt lat="48.07231" lon="7.64659">
        <ele>359.19</ele>
        <time>2014-09-10T12:59:15Z</time>
      </trkpt>
      <trkpt lat="48.07229" lon="7.64678">
        <ele>358.23</ele>
        <time>2014-09-10T12:59:25Z</time>
      </trkpt>
      <trkpt lat="48.07231" lon="7.64692">
        <ele>357.75</ele>
        <time>2014-09-10T12:59:32Z</time>
      </trkpt>
      <trkpt lat="48.07236" lon="7.64718">
        <ele>358.23</ele>
        <time>2014-09-10T12:59:46Z</time>
      </trkpt>
      <trkpt lat="48.07241" lon="7.64743">
        <ele>358.23</ele>
        <time>2014-09-10T12:59:59Z</time>
      </trkpt>
      <trkpt lat="48.07247" lon="7.64767">
        <ele>358.23</ele>
        <time>2014-09-10T13:00:13Z</time>
      </trkpt>
      <trkpt lat="48.07252" lon="7.64787">
        <ele>357.75</ele>
        <time>2014-09-10T13:00:24Z</time>
      </trkpt>
      <trkpt lat="48.0726" lon="7.64819">
        <ele>356.79</ele>
        <time>2014-09-10T13:00:41Z</time>
      </trkpt>
      <trkpt lat="48.07266" lon="7.64848">
        <ele>357.27</ele>
        <time>2014-09-10T13:00:57Z</time>
      </trkpt>
      <trkpt lat="48.07268" lon="7.6488">
        <ele>356.31</ele>
        <time>2014-09-10T13:01:15Z</time>
      </trkpt>
      <trkpt lat="48.07268" lon="7.64884">
        <ele>356.79</ele>
        <time>2014-09-10T13:01:17Z</time>
      </trkpt>
      <trkpt lat="48.07267" lon="7.64886">
        <ele>356.79</ele>
        <time>2014-09-10T13:01:19Z</time>
      </trkpt>
      <trkpt lat="48.07266" lon="7.64892">
        <ele>356.79</ele>
        <time>2014-09-10T13:01:23Z</time>
      </trkpt>
      <trkpt lat="48.07263" lon="7.64905">
        <ele>358.71</ele>
        <time>2014-09-10T13:01:32Z</time>
      </trkpt>
      <trkpt lat="48.07255" lon="7.64927">
        <ele>360.63</ele>
        <time>2014-09-10T13:01:48Z</time>
      </trkpt>
      <trkpt lat="48.07253" lon="7.64935">
        <ele>361.59</ele>
        <time>2014-09-10T13:02:06Z</time>
      </trkpt>
      <trkpt lat="48.07248" lon="7.64946">
        <ele>362.55</ele>
        <time>2014-09-10T13:02:23Z</time>
      </trkpt>
      <trkpt lat="48.07244" lon="7.64964">
        <ele>364.96</ele>
        <time>2014-09-10T13:02:34Z</time>
      </trkpt>
      <trkpt lat="48.07242" lon="7.64971">
        <ele>364.96</ele>
        <time>2014-09-10T13:02:38Z</time>
      </trkpt>
      <trkpt lat="48.07238" lon="7.6498">
        <ele>365.44</ele>
        <time>2014-09-10T13:02:44Z</time>
      </trkpt>
      <trkpt lat="48.07231" lon="7.6499">
        <ele>365.92</ele>
        <time>2014-09-10T13:02:52Z</time>
      </trkpt>
      <trkpt lat="48.07217" lon="7.65003">
        <ele>366.4</ele>
        <time>2014-09-10T13:03:05Z</time>
      </trkpt>
      <trkpt lat="48.0721" lon="7.65013">
        <ele>366.4</ele>
        <time>2014-09-10T13:03:13Z</time>
      </trkpt>
      <trkpt lat="48.07207" lon="7.65021">
        <ele>366.4</ele>
        <time>2014-09-10T13:03:18Z</time>
      </trkpt>
      <trkpt lat="48.07203" lon="7.65024">
        <ele>366.88</ele>
        <time>2014-09-10T13:03:21Z</time>
      </trkpt>
      <trkpt lat="48.072" lon="7.65026">
        <ele>367.36</ele>
        <time>2014-09-10T13:03:24Z</time>
      </trkpt>
      <trkpt lat="48.07197" lon="7.65028">
        <ele>366.88</ele>
        <time>2014-09-10T13:03:27Z</time>
      </trkpt>
      <trkpt lat="48.07193" lon="7.65032">
        <ele>367.36</ele>
        <time>2014-09-10T13:03:31Z</time>
      </trkpt>
      <trkpt lat="48.07186" lon="7.65037">
        <ele>367.84</ele>
        <time>2014-09-10T13:03:38Z</time>
      </trkpt>
      <trkpt lat="48.07181" lon="7.65043">
        <ele>368.32</ele>
        <time>2014-09-10T13:03:45Z</time>
      </trkpt>
      <trkpt lat="48.07181" lon="7.65052">
        <ele>369.28</ele>
        <time>2014-09-10T13:04:02Z</time>
      </trkpt>
      <trkpt lat="48.07181" lon="7.65052">
        <ele>369.28</ele>
        <time>2014-09-10T13:04:41Z</time>
      </trkpt>
      <trkpt lat="48.07185" lon="7.65057">
        <ele>367.36</ele>
        <time>2014-09-10T13:05:53Z</time>
      </trkpt>
      <trkpt lat="48.07192" lon="7.65067">
        <ele>364</ele>
        <time>2014-09-10T13:06:01Z</time>
      </trkpt>
      <trkpt lat="48.07197" lon="7.65092">
        <ele>362.55</ele>
        <time>2014-09-10T13:06:14Z</time>
      </trkpt>
      <trkpt lat="48.07205" lon="7.65136">
        <ele>359.67</ele>
        <time>2014-09-10T13:06:31Z</time>
      </trkpt>
      <trkpt lat="48.07216" lon="7.65161">
        <ele>357.27</ele>
        <time>2014-09-10T13:06:48Z</time>
      </trkpt>
      <trkpt lat="48.07223" lon="7.65189">
        <ele>357.27</ele>
        <time>2014-09-10T13:07:06Z</time>
      </trkpt>
      <trkpt lat="48.07232" lon="7.65219">
        <ele>356.31</ele>
        <time>2014-09-10T13:07:21Z</time>
      </trkpt>
      <trkpt lat="48.07242" lon="7.65252">
        <ele>355.83</ele>
        <time>2014-09-10T13:07:36Z</time>
      </trkpt>
      <trkpt lat="48.07259" lon="7.65271">
        <ele>355.34</ele>
        <time>2014-09-10T13:07:52Z</time>
      </trkpt>
      <trkpt lat="48.0728" lon="7.65281">
        <ele>354.38</ele>
        <time>2014-09-10T13:08:09Z</time>
      </trkpt>
      <trkpt lat="48.07305" lon="7.65299">
        <ele>353.42</ele>
        <time>2014-09-10T13:08:29Z</time>
      </trkpt>
      <trkpt lat="48.07313" lon="7.65317">
        <ele>350.06</ele>
        <time>2014-09-10T13:08:41Z</time>
      </trkpt>
      <trkpt lat="48.07315" lon="7.65334">
        <ele>347.17</ele>
        <time>2014-09-10T13:08:50Z</time>
      </trkpt>
      <trkpt lat="48.07316" lon="7.65345">
        <ele>344.29</ele>
        <time>2014-09-10T13:08:59Z</time>
      </trkpt>
      <trkpt lat="48.07317" lon="7.65349">
        <ele>342.37</ele>
        <time>2014-09-10T13:09:04Z</time>
      </trkpt>
      <trkpt lat="48.0732" lon="7.65353">
        <ele>340.92</ele>
        <time>2014-09-10T13:09:08Z</time>
      </trkpt>
      <trkpt lat="48.07326" lon="7.65363">
        <ele>339</ele>
        <time>2014-09-10T13:09:16Z</time>
      </trkpt>
      <trkpt lat="48.07319" lon="7.65374">
        <ele>339.96</ele>
        <time>2014-09-10T13:09:26Z</time>
      </trkpt>
      <trkpt lat="48.07318" lon="7.65399">
        <ele>340.92</ele>
        <time>2014-09-10T13:09:40Z</time>
      </trkpt>
      <trkpt lat="48.07318" lon="7.65427">
        <ele>341.41</ele>
        <time>2014-09-10T13:09:56Z</time>
      </trkpt>
      <trkpt lat="48.07321" lon="7.65453">
        <ele>341.89</ele>
        <time>2014-09-10T13:10:11Z</time>
      </trkpt>
      <trkpt lat="48.07326" lon="7.65467">
        <ele>340.92</ele>
        <time>2014-09-10T13:10:26Z</time>
      </trkpt>
      <trkpt lat="48.07328" lon="7.65473">
        <ele>339.96</ele>
        <time>2014-09-10T13:10:47Z</time>
      </trkpt>
      <trkpt lat="48.0734" lon="7.65507">
        <ele>336.6</ele>
        <time>2014-09-10T13:11:06Z</time>
      </trkpt>
      <trkpt lat="48.07356" lon="7.65526">
        <ele>334.2</ele>
        <time>2014-09-10T13:11:23Z</time>
      </trkpt>
      <trkpt lat="48.07373" lon="7.65541">
        <ele>331.31</ele>
        <time>2014-09-10T13:11:38Z</time>
      </trkpt>
      <trkpt lat="48.07374" lon="7.65542">
        <ele>331.31</ele>
        <time>2014-09-10T13:11:39Z</time>
      </trkpt>
      <trkpt lat="48.07389" lon="7.65548">
        <ele>329.39</ele>
        <time>2014-09-10T13:11:52Z</time>
      </trkpt>
      <trkpt lat="48.07411" lon="7.65562">
        <ele>330.35</ele>
        <time>2014-09-10T13:12:07Z</time>
      </trkpt>
      <trkpt lat="48.07424" lon="7.65566">
        <ele>329.87</ele>
        <time>2014-09-10T13:12:18Z</time>
      </trkpt>
      <trkpt lat="48.07432" lon="7.65543">
        <ele>329.39</ele>
        <time>2014-09-10T13:12:32Z</time>
      </trkpt>
      <trkpt lat="48.07437" lon="7.65522">
        <ele>328.91</ele>
        <time>2014-09-10T13:12:44Z</time>
      </trkpt>
      <trkpt lat="48.07443" lon="7.65502">
        <ele>328.43</ele>
        <time>2014-09-10T13:12:57Z</time>
      </trkpt>
      <trkpt lat="48.07442" lon="7.65506">
        <ele>328.43</ele>
        <time>2014-09-10T13:13:35Z</time>
      </trkpt>
      <trkpt lat="48.07446" lon="7.65499">
        <ele>327.47</ele>
        <time>2014-09-10T13:13:42Z</time>
      </trkpt>
      <trkpt lat="48.07449" lon="7.65494">
        <ele>325.54</ele>
        <time>2014-09-10T13:13:47Z</time>
      </trkpt>
      <trkpt lat="48.07453" lon="7.65485">
        <ele>322.66</ele>
        <time>2014-09-10T13:13:55Z</time>
      </trkpt>
      <trkpt lat="48.07457" lon="7.65485">
        <ele>318.81</ele>
        <time>2014-09-10T13:14:06Z</time>
      </trkpt>
      <trkpt lat="48.07457" lon="7.65488">
        <ele>318.33</ele>
        <time>2014-09-10T13:14:08Z</time>
      </trkpt>
      <trkpt lat="48.07457" lon="7.65492">
        <ele>317.37</ele>
        <time>2014-09-10T13:14:10Z</time>
      </trkpt>
      <trkpt lat="48.07459" lon="7.65497">
        <ele>315.45</ele>
        <time>2014-09-10T13:14:15Z</time>
      </trkpt>
      <trkpt lat="48.07467" lon="7.65478">
        <ele>314.49</ele>
        <time>2014-09-10T13:14:31Z</time>
      </trkpt>
      <trkpt lat="48.07473" lon="7.65466">
        <ele>314.01</ele>
        <time>2014-09-10T13:14:41Z</time>
      </trkpt>
      <trkpt lat="48.07476" lon="7.65463">
        <ele>313.53</ele>
        <time>2014-09-10T13:14:45Z</time>
      </trkpt>
      <trkpt lat="48.07488" lon="7.65468">
        <ele>312.09</ele>
        <time>2014-09-10T13:14:56Z</time>
      </trkpt>
      <trkpt lat="48.07501" lon="7.65479">
        <ele>309.68</ele>
        <time>2014-09-10T13:15:07Z</time>
      </trkpt>
      <trkpt lat="48.07504" lon="7.65482">
        <ele>309.2</ele>
        <time>2014-09-10T13:15:12Z</time>
      </trkpt>
      <trkpt lat="48.07519" lon="7.65498">
        <ele>307.76</ele>
        <time>2014-09-10T13:15:26Z</time>
      </trkpt>
      <trkpt lat="48.07527" lon="7.65508">
        <ele>306.8</ele>
        <time>2014-09-10T13:15:34Z</time>
      </trkpt>
      <trkpt lat="48.07528" lon="7.65516">
        <ele>307.28</ele>
        <time>2014-09-10T13:15:39Z</time>
      </trkpt>
      <trkpt lat="48.07526" lon="7.65518">
        <ele>307.28</ele>
        <time>2014-09-10T13:15:42Z</time>
      </trkpt>
      <trkpt lat="48.07524" lon="7.65525">
        <ele>308.24</ele>
        <time>2014-09-10T13:15:47Z</time>
      </trkpt>
      <trkpt lat="48.07519" lon="7.6554">
        <ele>309.68</ele>
        <time>2014-09-10T13:15:57Z</time>
      </trkpt>
      <trkpt lat="48.07514" lon="7.65553">
        <ele>310.64</ele>
        <time>2014-09-10T13:16:04Z</time>
      </trkpt>
      <trkpt lat="48.07512" lon="7.65559">
        <ele>310.16</ele>
        <time>2014-09-10T13:16:08Z</time>
      </trkpt>
      <trkpt lat="48.0751" lon="7.65567">
        <ele>310.64</ele>
        <time>2014-09-10T13:16:13Z</time>
      </trkpt>
      <trkpt lat="48.07504" lon="7.6559">
        <ele>313.05</ele>
        <time>2014-09-10T13:16:27Z</time>
      </trkpt>
      <trkpt lat="48.07502" lon="7.65614">
        <ele>314.97</ele>
        <time>2014-09-10T13:16:41Z</time>
      </trkpt>
      <trkpt lat="48.07503" lon="7.6562">
        <ele>315.45</ele>
        <time>2014-09-10T13:16:46Z</time>
      </trkpt>
      <trkpt lat="48.07525" lon="7.65614">
        <ele>314.01</ele>
        <time>2014-09-10T13:17:03Z</time>
      </trkpt>
      <trkpt lat="48.07532" lon="7.65611">
        <ele>314.49</ele>
        <time>2014-09-10T13:17:10Z</time>
      </trkpt>
      <trkpt lat="48.07537" lon="7.65609">
        <ele>314.49</ele>
        <time>2014-09-10T13:17:14Z</time>
      </trkpt>
      <trkpt lat="48.07552" lon="7.65605">
        <ele>314.97</ele>
        <time>2014-09-10T13:17:29Z</time>
      </trkpt>
      <trkpt lat="48.07553" lon="7.65607">
        <ele>314.49</ele>
        <time>2014-09-10T13:17:33Z</time>
      </trkpt>
      <trkpt lat="48.07553" lon="7.6561">
        <ele>314.49</ele>
        <time>2014-09-10T13:17:35Z</time>
      </trkpt>
      <trkpt lat="48.0756" lon="7.65639">
        <ele>317.85</ele>
        <time>2014-09-10T13:17:52Z</time>
      </trkpt>
      <trkpt lat="48.07566" lon="7.65654">
        <ele>320.26</ele>
        <time>2014-09-10T13:18:05Z</time>
      </trkpt>
      <trkpt lat="48.07572" lon="7.6567">
        <ele>322.66</ele>
        <time>2014-09-10T13:18:18Z</time>
      </trkpt>
      <trkpt lat="48.07579" lon="7.65689">
        <ele>324.1</ele>
        <time>2014-09-10T13:18:32Z</time>
      </trkpt>
      <trkpt lat="48.07586" lon="7.65711">
        <ele>326.5</ele>
        <time>2014-09-10T13:18:46Z</time>
      </trkpt>
      <trkpt lat="48.07594" lon="7.65732">
        <ele>329.39</ele>
        <time>2014-09-10T13:19:02Z</time>
      </trkpt>
      <trkpt lat="48.07599" lon="7.65752">
        <ele>331.31</ele>
        <time>2014-09-10T13:19:15Z</time>
      </trkpt>
      <trkpt lat="48.07602" lon="7.65761">
        <ele>332.27</ele>
        <time>2014-09-10T13:19:21Z</time>
      </trkpt>
      <trkpt lat="48.07606" lon="7.65782">
        <ele>334.68</ele>
        <time>2014-09-10T13:19:35Z</time>
      </trkpt>
      <trkpt lat="48.0761" lon="7.65808">
        <ele>337.56</ele>
        <time>2014-09-10T13:19:51Z</time>
      </trkpt>
      <trkpt lat="48.07613" lon="7.6583">
        <ele>339.48</ele>
        <time>2014-09-10T13:20:04Z</time>
      </trkpt>
      <trkpt lat="48.07614" lon="7.65851">
        <ele>342.85</ele>
        <time>2014-09-10T13:20:19Z</time>
      </trkpt>
      <trkpt lat="48.07614" lon="7.65871">
        <ele>344.77</ele>
        <time>2014-09-10T13:20:33Z</time>
      </trkpt>
      <trkpt lat="48.07612" lon="7.65892">
        <ele>348.13</ele>
        <time>2014-09-10T13:20:48Z</time>
      </trkpt>
      <trkpt lat="48.07609" lon="7.65911">
        <ele>351.02</ele>
        <time>2014-09-10T13:21:01Z</time>
      </trkpt>
      <trkpt lat="48.07606" lon="7.65929">
        <ele>354.38</ele>
        <time>2014-09-10T13:21:14Z</time>
      </trkpt>
      <trkpt lat="48.07604" lon="7.65938">
        <ele>355.83</ele>
        <time>2014-09-10T13:21:20Z</time>
      </trkpt>
      <trkpt lat="48.07602" lon="7.65955">
        <ele>358.23</ele>
        <time>2014-09-10T13:21:32Z</time>
      </trkpt>
      <trkpt lat="48.07602" lon="7.65977">
        <ele>360.63</ele>
        <time>2014-09-10T13:21:47Z</time>
      </trkpt>
      <trkpt lat="48.0761" lon="7.66">
        <ele>364</ele>
        <time>2014-09-10T13:22:03Z</time>
      </trkpt>
      <trkpt lat="48.07619" lon="7.6602">
        <ele>366.4</ele>
        <time>2014-09-10T13:22:18Z</time>
      </trkpt>
      <trkpt lat="48.07627" lon="7.66037">
        <ele>369.28</ele>
        <time>2014-09-10T13:22:36Z</time>
      </trkpt>
      <trkpt lat="48.07632" lon="7.6604">
        <ele>369.76</ele>
        <time>2014-09-10T13:22:57Z</time>
      </trkpt>
      <trkpt lat="48.07639" lon="7.66039">
        <ele>369.28</ele>
        <time>2014-09-10T13:23:16Z</time>
      </trkpt>
      <trkpt lat="48.07639" lon="7.66037">
        <ele>368.8</ele>
        <time>2014-09-10T13:23:51Z</time>
      </trkpt>
      <trkpt lat="48.07639" lon="7.66038">
        <ele>369.28</ele>
        <time>2014-09-10T13:24:27Z</time>
      </trkpt>
      <trkpt lat="48.07638" lon="7.66038">
        <ele>370.24</ele>
        <time>2014-09-10T13:25:17Z</time>
      </trkpt>
      <trkpt lat="48.07642" lon="7.66045">
        <ele>371.21</ele>
        <time>2014-09-10T13:26:27Z</time>
      </trkpt>
      <trkpt lat="48.07652" lon="7.66059">
        <ele>374.57</ele>
        <time>2014-09-10T13:26:43Z</time>
      </trkpt>
      <trkpt lat="48.07668" lon="7.66058">
        <ele>376.97</ele>
        <time>2014-09-10T13:26:59Z</time>
      </trkpt>
      <trkpt lat="48.07672" lon="7.66055">
        <ele>377.94</ele>
        <time>2014-09-10T13:27:03Z</time>
      </trkpt>
      <trkpt lat="48.07689" lon="7.66037">
        <ele>378.9</ele>
        <time>2014-09-10T13:27:19Z</time>
      </trkpt>
      <trkpt lat="48.07698" lon="7.66021">
        <ele>379.38</ele>
        <time>2014-09-10T13:27:31Z</time>
      </trkpt>
      <trkpt lat="48.07705" lon="7.66002">
        <ele>379.86</ele>
        <time>2014-09-10T13:27:44Z</time>
      </trkpt>
      <trkpt lat="48.07705" lon="7.65993">
        <ele>379.86</ele>
        <time>2014-09-10T13:27:48Z</time>
      </trkpt>
      <trkpt lat="48.07705" lon="7.65986">
        <ele>379.86</ele>
        <time>2014-09-10T13:27:52Z</time>
      </trkpt>
      <trkpt lat="48.07705" lon="7.65979">
        <ele>379.38</ele>
        <time>2014-09-10T13:27:56Z</time>
      </trkpt>
      <trkpt lat="48.07705" lon="7.65975">
        <ele>379.86</ele>
        <time>2014-09-10T13:27:58Z</time>
      </trkpt>
      <trkpt lat="48.07706" lon="7.65948">
        <ele>379.38</ele>
        <time>2014-09-10T13:28:14Z</time>
      </trkpt>
      <trkpt lat="48.0771" lon="7.65928">
        <ele>378.42</ele>
        <time>2014-09-10T13:28:25Z</time>
      </trkpt>
      <trkpt lat="48.07718" lon="7.65902">
        <ele>377.94</ele>
        <time>2014-09-10T13:28:40Z</time>
      </trkpt>
      <trkpt lat="48.07719" lon="7.65895">
        <ele>377.94</ele>
        <time>2014-09-10T13:28:44Z</time>
      </trkpt>
      <trkpt lat="48.0772" lon="7.6589">
        <ele>377.94</ele>
        <time>2014-09-10T13:28:47Z</time>
      </trkpt>
      <trkpt lat="48.07722" lon="7.65879">
        <ele>377.94</ele>
        <time>2014-09-10T13:28:53Z</time>
      </trkpt>
      <trkpt lat="48.07726" lon="7.6585">
        <ele>377.45</ele>
        <time>2014-09-10T13:29:10Z</time>
      </trkpt>
      <trkpt lat="48.07727" lon="7.65839">
        <ele>376.97</ele>
        <time>2014-09-10T13:29:17Z</time>
      </trkpt>
      <trkpt lat="48.0773" lon="7.65832">
        <ele>376.49</ele>
        <time>2014-09-10T13:29:38Z</time>
      </trkpt>
      <trkpt lat="48.07735" lon="7.65836">
        <ele>376.97</ele>
        <time>2014-09-10T13:29:52Z</time>
      </trkpt>
      <trkpt lat="48.07736" lon="7.65837">
        <ele>376.97</ele>
        <time>2014-09-10T13:29:56Z</time>
      </trkpt>
      <trkpt lat="48.07746" lon="7.65848">
        <ele>376.97</ele>
        <time>2014-09-10T13:30:10Z</time>
      </trkpt>
      <trkpt lat="48.0776" lon="7.65861">
        <ele>374.09</ele>
        <time>2014-09-10T13:30:24Z</time>
      </trkpt>
      <trkpt lat="48.07768" lon="7.65873">
        <ele>372.65</ele>
        <time>2014-09-10T13:30:35Z</time>
      </trkpt>
      <trkpt lat="48.0777" lon="7.6588">
        <ele>373.13</ele>
        <time>2014-09-10T13:30:39Z</time>
      </trkpt>
      <trkpt lat="48.07768" lon="7.65889">
        <ele>373.61</ele>
        <time>2014-09-10T13:30:45Z</time>
      </trkpt>
      <trkpt lat="48.07752" lon="7.65911">
        <ele>376.97</ele>
        <time>2014-09-10T13:31:02Z</time>
      </trkpt>
      <trkpt lat="48.0774" lon="7.6593">
        <ele>379.86</ele>
        <time>2014-09-10T13:31:17Z</time>
      </trkpt>
      <trkpt lat="48.07732" lon="7.65953">
        <ele>382.74</ele>
        <time>2014-09-10T13:31:33Z</time>
      </trkpt>
      <trkpt lat="48.07732" lon="7.65978">
        <ele>385.15</ele>
        <time>2014-09-10T13:31:48Z</time>
      </trkpt>
      <trkpt lat="48.07731" lon="7.65983">
        <ele>386.11</ele>
        <time>2014-09-10T13:31:51Z</time>
      </trkpt>
      <trkpt lat="48.0773" lon="7.66006">
        <ele>388.03</ele>
        <time>2014-09-10T13:32:05Z</time>
      </trkpt>
      <trkpt lat="48.07729" lon="7.6603">
        <ele>389.47</ele>
        <time>2014-09-10T13:32:19Z</time>
      </trkpt>
      <trkpt lat="48.07726" lon="7.66052">
        <ele>391.39</ele>
        <time>2014-09-10T13:32:32Z</time>
      </trkpt>
      <trkpt lat="48.07723" lon="7.66078">
        <ele>392.84</ele>
        <time>2014-09-10T13:32:47Z</time>
      </trkpt>
      <trkpt lat="48.07723" lon="7.66091">
        <ele>394.28</ele>
        <time>2014-09-10T13:32:56Z</time>
      </trkpt>
      <trkpt lat="48.07728" lon="7.66112">
        <ele>395.24</ele>
        <time>2014-09-10T13:33:10Z</time>
      </trkpt>
      <trkpt lat="48.07729" lon="7.66131">
        <ele>397.16</ele>
        <time>2014-09-10T13:33:23Z</time>
      </trkpt>
      <trkpt lat="48.07731" lon="7.66151">
        <ele>398.6</ele>
        <time>2014-09-10T13:33:36Z</time>
      </trkpt>
      <trkpt lat="48.0773" lon="7.66158">
        <ele>398.6</ele>
        <time>2014-09-10T13:33:41Z</time>
      </trkpt>
      <trkpt lat="48.07729" lon="7.66178">
        <ele>401.01</ele>
        <time>2014-09-10T13:33:57Z</time>
      </trkpt>
      <trkpt lat="48.07729" lon="7.66182">
        <ele>401.97</ele>
        <time>2014-09-10T13:33:59Z</time>
      </trkpt>
      <trkpt lat="48.07727" lon="7.66205">
        <ele>404.85</ele>
        <time>2014-09-10T13:34:15Z</time>
      </trkpt>
      <trkpt lat="48.07728" lon="7.66232">
        <ele>406.77</ele>
        <time>2014-09-10T13:34:31Z</time>
      </trkpt>
      <trkpt lat="48.0773" lon="7.66251">
        <ele>410.14</ele>
        <time>2014-09-10T13:34:45Z</time>
      </trkpt>
      <trkpt lat="48.0773" lon="7.66267">
        <ele>411.1</ele>
        <time>2014-09-10T13:34:58Z</time>
      </trkpt>
      <trkpt lat="48.07726" lon="7.66291">
        <ele>412.54</ele>
        <time>2014-09-10T13:35:13Z</time>
      </trkpt>
      <trkpt lat="48.07726" lon="7.663">
        <ele>412.54</ele>
        <time>2014-09-10T13:35:20Z</time>
      </trkpt>
      <trkpt lat="48.07727" lon="7.66304">
        <ele>413.02</ele>
        <time>2014-09-10T13:35:23Z</time>
      </trkpt>
      <trkpt lat="48.07729" lon="7.66318">
        <ele>414.47</ele>
        <time>2014-09-10T13:35:32Z</time>
      </trkpt>
      <trkpt lat="48.07731" lon="7.66341">
        <ele>416.87</ele>
        <time>2014-09-10T13:35:47Z</time>
      </trkpt>
      <trkpt lat="48.07731" lon="7.66359">
        <ele>418.31</ele>
        <time>2014-09-10T13:35:59Z</time>
      </trkpt>
      <trkpt lat="48.0773" lon="7.66366">
        <ele>419.75</ele>
        <time>2014-09-10T13:36:11Z</time>
      </trkpt>
      <trkpt lat="48.07729" lon="7.6638">
        <ele>421.68</ele>
        <time>2014-09-10T13:36:24Z</time>
      </trkpt>
      <trkpt lat="48.07727" lon="7.66407">
        <ele>424.08</ele>
        <time>2014-09-10T13:36:37Z</time>
      </trkpt>
      <trkpt lat="48.07726" lon="7.6644">
        <ele>426</ele>
        <time>2014-09-10T13:36:53Z</time>
      </trkpt>
      <trkpt lat="48.07731" lon="7.66466">
        <ele>427.92</ele>
        <time>2014-09-10T13:37:08Z</time>
      </trkpt>
      <trkpt lat="48.07732" lon="7.6647">
        <ele>428.4</ele>
        <time>2014-09-10T13:37:11Z</time>
      </trkpt>
      <trkpt lat="48.07736" lon="7.66491">
        <ele>429.85</ele>
        <time>2014-09-10T13:37:26Z</time>
      </trkpt>
      <trkpt lat="48.07744" lon="7.6652">
        <ele>432.25</ele>
        <time>2014-09-10T13:37:44Z</time>
      </trkpt>
      <trkpt lat="48.07747" lon="7.66533">
        <ele>433.69</ele>
        <time>2014-09-10T13:37:53Z</time>
      </trkpt>
      <trkpt lat="48.07753" lon="7.66561">
        <ele>435.61</ele>
        <time>2014-09-10T13:38:10Z</time>
      </trkpt>
      <trkpt lat="48.07749" lon="7.66582">
        <ele>437.06</ele>
        <time>2014-09-10T13:38:24Z</time>
      </trkpt>
      <trkpt lat="48.07756" lon="7.66605">
        <ele>439.46</ele>
        <time>2014-09-10T13:38:38Z</time>
      </trkpt>
      <trkpt lat="48.0776" lon="7.66617">
        <ele>442.82</ele>
        <time>2014-09-10T13:38:53Z</time>
      </trkpt>
      <trkpt lat="48.07769" lon="7.66639">
        <ele>446.19</ele>
        <time>2014-09-10T13:39:09Z</time>
      </trkpt>
      <trkpt lat="48.07779" lon="7.66665">
        <ele>449.07</ele>
        <time>2014-09-10T13:39:27Z</time>
      </trkpt>
      <trkpt lat="48.07789" lon="7.66698">
        <ele>451.48</ele>
        <time>2014-09-10T13:39:44Z</time>
      </trkpt>
      <trkpt lat="48.07796" lon="7.66716">
        <ele>454.36</ele>
        <time>2014-09-10T13:39:59Z</time>
      </trkpt>
      <trkpt lat="48.07804" lon="7.66736">
        <ele>456.28</ele>
        <time>2014-09-10T13:40:13Z</time>
      </trkpt>
      <trkpt lat="48.07813" lon="7.66757">
        <ele>459.65</ele>
        <time>2014-09-10T13:40:29Z</time>
      </trkpt>
      <trkpt lat="48.0782" lon="7.66768">
        <ele>460.61</ele>
        <time>2014-09-10T13:40:39Z</time>
      </trkpt>
      <trkpt lat="48.07828" lon="7.66784">
        <ele>463.97</ele>
        <time>2014-09-10T13:40:56Z</time>
      </trkpt>
      <trkpt lat="48.07823" lon="7.66803">
        <ele>467.82</ele>
        <time>2014-09-10T13:41:13Z</time>
      </trkpt>
      <trkpt lat="48.07818" lon="7.66813">
        <ele>469.74</ele>
        <time>2014-09-10T13:41:23Z</time>
      </trkpt>
      <trkpt lat="48.0781" lon="7.66824">
        <ele>472.63</ele>
        <time>2014-09-10T13:41:37Z</time>
      </trkpt>
      <trkpt lat="48.07804" lon="7.66839">
        <ele>475.99</ele>
        <time>2014-09-10T13:41:51Z</time>
      </trkpt>
      <trkpt lat="48.07799" lon="7.66841">
        <ele>478.87</ele>
        <time>2014-09-10T13:42:04Z</time>
      </trkpt>
      <trkpt lat="48.07795" lon="7.6685">
        <ele>477.91</ele>
        <time>2014-09-10T13:42:22Z</time>
      </trkpt>
      <trkpt lat="48.07793" lon="7.66852">
        <ele>478.39</ele>
        <time>2014-09-10T13:42:52Z</time>
      </trkpt>
      <trkpt lat="48.07792" lon="7.66852">
        <ele>477.91</ele>
        <time>2014-09-10T13:43:07Z</time>
      </trkpt>
      <trkpt lat="48.07793" lon="7.66855">
        <ele>478.87</ele>
        <time>2014-09-10T13:43:30Z</time>
      </trkpt>
      <trkpt lat="48.07792" lon="7.66856">
        <ele>477.91</ele>
        <time>2014-09-10T13:44:19Z</time>
      </trkpt>
      <trkpt lat="48.07791" lon="7.66856">
        <ele>478.39</ele>
        <time>2014-09-10T13:46:04Z</time>
      </trkpt>
      <trkpt lat="48.07791" lon="7.66856">
        <ele>477.43</ele>
        <time>2014-09-10T13:46:38Z</time>
      </trkpt>
      <trkpt lat="48.07792" lon="7.66856">
        <ele>477.43</ele>
        <time>2014-09-10T13:47:36Z</time>
      </trkpt>
      <trkpt lat="48.07792" lon="7.66855">
        <ele>478.87</ele>
        <time>2014-09-10T13:48:14Z</time>
      </trkpt>
      <trkpt lat="48.07792" lon="7.66855">
        <ele>479.35</ele>
        <time>2014-09-10T13:49:33Z</time>
      </trkpt>
      <trkpt lat="48.07792" lon="7.66855">
        <ele>478.87</ele>
        <time>2014-09-10T13:50:42Z</time>
      </trkpt>
      <trkpt lat="48.07792" lon="7.66855">
        <ele>478.87</ele>
        <time>2014-09-10T13:52:20Z</time>
      </trkpt>
      <trkpt lat="48.07793" lon="7.66855">
        <ele>477.91</ele>
        <time>2014-09-10T13:53:34Z</time>
      </trkpt>
      <trkpt lat="48.07792" lon="7.66855">
        <ele>478.39</ele>
        <time>2014-09-10T13:54:19Z</time>
      </trkpt>
      <trkpt lat="48.07791" lon="7.66855">
        <ele>478.87</ele>
        <time>2014-09-10T13:54:59Z</time>
      </trkpt>
      <trkpt lat="48.07787" lon="7.6685">
        <ele>478.39</ele>
        <time>2014-09-10T13:55:20Z</time>
      </trkpt>
      <trkpt lat="48.07787" lon="7.6685">
        <ele>477.91</ele>
        <time>2014-09-10T13:55:21Z</time>
      </trkpt>
      <trkpt lat="48.07774" lon="7.66835">
        <ele>476.47</ele>
        <time>2014-09-10T13:55:34Z</time>
      </trkpt>
      <trkpt lat="48.0777" lon="7.66833">
        <ele>476.95</ele>
        <time>2014-09-10T13:55:39Z</time>
      </trkpt>
      <trkpt lat="48.0776" lon="7.66824">
        <ele>477.91</ele>
        <time>2014-09-10T13:55:52Z</time>
      </trkpt>
      <trkpt lat="48.0776" lon="7.66824">
        <ele>477.43</ele>
        <time>2014-09-10T13:55:57Z</time>
      </trkpt>
      <trkpt lat="48.07759" lon="7.66824">
        <ele>476.95</ele>
        <time>2014-09-10T13:55:59Z</time>
      </trkpt>
      <trkpt lat="48.07733" lon="7.66819">
        <ele>475.51</ele>
        <time>2014-09-10T13:56:14Z</time>
      </trkpt>
      <trkpt lat="48.07717" lon="7.66826">
        <ele>474.55</ele>
        <time>2014-09-10T13:56:28Z</time>
      </trkpt>
      <trkpt lat="48.07703" lon="7.66832">
        <ele>473.59</ele>
        <time>2014-09-10T13:56:41Z</time>
      </trkpt>
      <trkpt lat="48.07686" lon="7.66839">
        <ele>472.14</ele>
        <time>2014-09-10T13:56:56Z</time>
      </trkpt>
      <trkpt lat="48.07668" lon="7.66844">
        <ele>468.78</ele>
        <time>2014-09-10T13:57:11Z</time>
      </trkpt>
      <trkpt lat="48.0765" lon="7.66848">
        <ele>465.9</ele>
        <time>2014-09-10T13:57:24Z</time>
      </trkpt>
      <trkpt lat="48.07648" lon="7.66848">
        <ele>465.9</ele>
        <time>2014-09-10T13:57:25Z</time>
      </trkpt>
      <trkpt lat="48.07629" lon="7.6685">
        <ele>463.01</ele>
        <time>2014-09-10T13:57:40Z</time>
      </trkpt>
      <trkpt lat="48.07606" lon="7.66832">
        <ele>459.65</ele>
        <time>2014-09-10T13:57:53Z</time>
      </trkpt>
      <trkpt lat="48.07585" lon="7.66827">
        <ele>456.76</ele>
        <time>2014-09-10T13:58:09Z</time>
      </trkpt>
      <trkpt lat="48.07568" lon="7.66827">
        <ele>453.88</ele>
        <time>2014-09-10T13:58:25Z</time>
      </trkpt>
      <trkpt lat="48.07549" lon="7.6683">
        <ele>451</ele>
        <time>2014-09-10T13:58:38Z</time>
      </trkpt>
      <trkpt lat="48.07529" lon="7.66832">
        <ele>447.63</ele>
        <time>2014-09-10T13:58:53Z</time>
      </trkpt>
      <trkpt lat="48.07519" lon="7.6684">
        <ele>445.71</ele>
        <time>2014-09-10T13:59:02Z</time>
      </trkpt>
      <trkpt lat="48.07501" lon="7.6685">
        <ele>442.34</ele>
        <time>2014-09-10T13:59:16Z</time>
      </trkpt>
      <trkpt lat="48.07488" lon="7.66856">
        <ele>439.94</ele>
        <time>2014-09-10T13:59:27Z</time>
      </trkpt>
      <trkpt lat="48.07481" lon="7.66864">
        <ele>438.5</ele>
        <time>2014-09-10T13:59:34Z</time>
      </trkpt>
      <trkpt lat="48.07473" lon="7.6687">
        <ele>436.58</ele>
        <time>2014-09-10T13:59:42Z</time>
      </trkpt>
      <trkpt lat="48.0747" lon="7.66874">
        <ele>436.1</ele>
        <time>2014-09-10T13:59:46Z</time>
      </trkpt>
      <trkpt lat="48.07463" lon="7.66882">
        <ele>434.17</ele>
        <time>2014-09-10T13:59:52Z</time>
      </trkpt>
      <trkpt lat="48.0745" lon="7.66904">
        <ele>431.29</ele>
        <time>2014-09-10T14:00:06Z</time>
      </trkpt>
      <trkpt lat="48.07436" lon="7.66924">
        <ele>428.4</ele>
        <time>2014-09-10T14:00:20Z</time>
      </trkpt>
      <trkpt lat="48.07425" lon="7.66938">
        <ele>425.04</ele>
        <time>2014-09-10T14:00:32Z</time>
      </trkpt>
      <trkpt lat="48.07408" lon="7.66954">
        <ele>422.16</ele>
        <time>2014-09-10T14:00:46Z</time>
      </trkpt>
      <trkpt lat="48.07402" lon="7.6696">
        <ele>421.19</ele>
        <time>2014-09-10T14:00:52Z</time>
      </trkpt>
      <trkpt lat="48.07396" lon="7.66961">
        <ele>419.75</ele>
        <time>2014-09-10T14:00:57Z</time>
      </trkpt>
      <trkpt lat="48.07389" lon="7.66962">
        <ele>418.79</ele>
        <time>2014-09-10T14:01:03Z</time>
      </trkpt>
      <trkpt lat="48.07368" lon="7.66958">
        <ele>415.91</ele>
        <time>2014-09-10T14:01:20Z</time>
      </trkpt>
      <trkpt lat="48.07355" lon="7.66941">
        <ele>413.5</ele>
        <time>2014-09-10T14:01:36Z</time>
      </trkpt>
      <trkpt lat="48.07353" lon="7.6694">
        <ele>413.5</ele>
        <time>2014-09-10T14:01:37Z</time>
      </trkpt>
      <trkpt lat="48.07339" lon="7.66928">
        <ele>412.54</ele>
        <time>2014-09-10T14:01:51Z</time>
      </trkpt>
      <trkpt lat="48.07321" lon="7.66918">
        <ele>411.1</ele>
        <time>2014-09-10T14:02:04Z</time>
      </trkpt>
      <trkpt lat="48.07306" lon="7.66908">
        <ele>409.66</ele>
        <time>2014-09-10T14:02:15Z</time>
      </trkpt>
      <trkpt lat="48.07286" lon="7.66895">
        <ele>407.74</ele>
        <time>2014-09-10T14:02:31Z</time>
      </trkpt>
      <trkpt lat="48.07266" lon="7.66878">
        <ele>406.29</ele>
        <time>2014-09-10T14:02:48Z</time>
      </trkpt>
      <trkpt lat="48.07243" lon="7.66864">
        <ele>404.85</ele>
        <time>2014-09-10T14:03:06Z</time>
      </trkpt>
      <trkpt lat="48.07225" lon="7.66856">
        <ele>403.41</ele>
        <time>2014-09-10T14:03:20Z</time>
      </trkpt>
      <trkpt lat="48.07221" lon="7.66855">
        <ele>403.41</ele>
        <time>2014-09-10T14:03:23Z</time>
      </trkpt>
      <trkpt lat="48.07205" lon="7.66852">
        <ele>401.49</ele>
        <time>2014-09-10T14:03:37Z</time>
      </trkpt>
      <trkpt lat="48.07187" lon="7.66851">
        <ele>400.53</ele>
        <time>2014-09-10T14:03:50Z</time>
      </trkpt>
      <trkpt lat="48.07162" lon="7.66847">
        <ele>399.08</ele>
        <time>2014-09-10T14:04:06Z</time>
      </trkpt>
      <trkpt lat="48.07143" lon="7.66851">
        <ele>399.08</ele>
        <time>2014-09-10T14:04:21Z</time>
      </trkpt>
      <trkpt lat="48.07138" lon="7.66854">
        <ele>398.12</ele>
        <time>2014-09-10T14:04:26Z</time>
      </trkpt>
      <trkpt lat="48.07114" lon="7.6687">
        <ele>396.68</ele>
        <time>2014-09-10T14:04:46Z</time>
      </trkpt>
      <trkpt lat="48.07097" lon="7.6688">
        <ele>396.2</ele>
        <time>2014-09-10T14:04:58Z</time>
      </trkpt>
      <trkpt lat="48.07077" lon="7.66882">
        <ele>395.24</ele>
        <time>2014-09-10T14:05:13Z</time>
      </trkpt>
      <trkpt lat="48.07068" lon="7.66881">
        <ele>394.28</ele>
        <time>2014-09-10T14:05:21Z</time>
      </trkpt>
      <trkpt lat="48.07058" lon="7.66884">
        <ele>393.8</ele>
        <time>2014-09-10T14:05:29Z</time>
      </trkpt>
      <trkpt lat="48.07044" lon="7.66887">
        <ele>391.87</ele>
        <time>2014-09-10T14:05:43Z</time>
      </trkpt>
      <trkpt lat="48.07026" lon="7.66888">
        <ele>390.91</ele>
        <time>2014-09-10T14:05:56Z</time>
      </trkpt>
      <trkpt lat="48.07006" lon="7.66878">
        <ele>389.95</ele>
        <time>2014-09-10T14:06:11Z</time>
      </trkpt>
      <trkpt lat="48.06993" lon="7.66858">
        <ele>388.03</ele>
        <time>2014-09-10T14:06:26Z</time>
      </trkpt>
      <trkpt lat="48.06974" lon="7.66838">
        <ele>385.15</ele>
        <time>2014-09-10T14:06:44Z</time>
      </trkpt>
      <trkpt lat="48.06962" lon="7.66824">
        <ele>382.74</ele>
        <time>2014-09-10T14:06:58Z</time>
      </trkpt>
      <trkpt lat="48.06949" lon="7.6681">
        <ele>380.34</ele>
        <time>2014-09-10T14:07:11Z</time>
      </trkpt>
      <trkpt lat="48.06941" lon="7.66807">
        <ele>379.38</ele>
        <time>2014-09-10T14:07:17Z</time>
      </trkpt>
      <trkpt lat="48.06921" lon="7.668">
        <ele>376.49</ele>
        <time>2014-09-10T14:07:33Z</time>
      </trkpt>
      <trkpt lat="48.06894" lon="7.66785">
        <ele>374.09</ele>
        <time>2014-09-10T14:07:50Z</time>
      </trkpt>
      <trkpt lat="48.06873" lon="7.66781">
        <ele>371.69</ele>
        <time>2014-09-10T14:08:04Z</time>
      </trkpt>
      <trkpt lat="48.06857" lon="7.66795">
        <ele>370.24</ele>
        <time>2014-09-10T14:08:18Z</time>
      </trkpt>
      <trkpt lat="48.06853" lon="7.66808">
        <ele>369.28</ele>
        <time>2014-09-10T14:08:25Z</time>
      </trkpt>
      <trkpt lat="48.06851" lon="7.66831">
        <ele>367.36</ele>
        <time>2014-09-10T14:08:39Z</time>
      </trkpt>
      <trkpt lat="48.06846" lon="7.66858">
        <ele>365.44</ele>
        <time>2014-09-10T14:08:53Z</time>
      </trkpt>
      <trkpt lat="48.06843" lon="7.66885">
        <ele>364</ele>
        <time>2014-09-10T14:09:08Z</time>
      </trkpt>
      <trkpt lat="48.06842" lon="7.66909">
        <ele>363.04</ele>
        <time>2014-09-10T14:09:19Z</time>
      </trkpt>
      <trkpt lat="48.06841" lon="7.66931">
        <ele>362.55</ele>
        <time>2014-09-10T14:09:32Z</time>
      </trkpt>
      <trkpt lat="48.06842" lon="7.66941">
        <ele>362.07</ele>
        <time>2014-09-10T14:09:42Z</time>
      </trkpt>
      <trkpt lat="48.06837" lon="7.66941">
        <ele>362.07</ele>
        <time>2014-09-10T14:09:59Z</time>
      </trkpt>
      <trkpt lat="48.0684" lon="7.66943">
        <ele>362.55</ele>
        <time>2014-09-10T14:10:37Z</time>
      </trkpt>
      <trkpt lat="48.06834" lon="7.6694">
        <ele>362.07</ele>
        <time>2014-09-10T14:10:51Z</time>
      </trkpt>
      <trkpt lat="48.06834" lon="7.66942">
        <ele>362.07</ele>
        <time>2014-09-10T14:11:09Z</time>
      </trkpt>
      <trkpt lat="48.06834" lon="7.66941">
        <ele>361.59</ele>
        <time>2014-09-10T14:12:05Z</time>
      </trkpt>
      <trkpt lat="48.06835" lon="7.66942">
        <ele>361.59</ele>
        <time>2014-09-10T14:12:35Z</time>
      </trkpt>
      <trkpt lat="48.06835" lon="7.66942">
        <ele>361.59</ele>
        <time>2014-09-10T14:13:01Z</time>
      </trkpt>
      <trkpt lat="48.06828" lon="7.6694">
        <ele>360.63</ele>
        <time>2014-09-10T14:13:07Z</time>
      </trkpt>
      <trkpt lat="48.06817" lon="7.6694">
        <ele>360.63</ele>
        <time>2014-09-10T14:13:17Z</time>
      </trkpt>
      <trkpt lat="48.068" lon="7.66949">
        <ele>358.71</ele>
        <time>2014-09-10T14:13:32Z</time>
      </trkpt>
      <trkpt lat="48.06787" lon="7.66947">
        <ele>357.75</ele>
        <time>2014-09-10T14:13:45Z</time>
      </trkpt>
      <trkpt lat="48.06772" lon="7.6695">
        <ele>356.31</ele>
        <time>2014-09-10T14:13:59Z</time>
      </trkpt>
      <trkpt lat="48.0676" lon="7.66954">
        <ele>355.83</ele>
        <time>2014-09-10T14:14:08Z</time>
      </trkpt>
      <trkpt lat="48.06753" lon="7.66955">
        <ele>354.38</ele>
        <time>2014-09-10T14:14:12Z</time>
      </trkpt>
      <trkpt lat="48.06746" lon="7.66971">
        <ele>353.9</ele>
        <time>2014-09-10T14:14:19Z</time>
      </trkpt>
      <trkpt lat="48.06744" lon="7.67">
        <ele>352.46</ele>
        <time>2014-09-10T14:14:32Z</time>
      </trkpt>
      <trkpt lat="48.06744" lon="7.67002">
        <ele>352.46</ele>
        <time>2014-09-10T14:14:33Z</time>
      </trkpt>
      <trkpt lat="48.06747" lon="7.6701">
        <ele>351.98</ele>
        <time>2014-09-10T14:14:37Z</time>
      </trkpt>
      <trkpt lat="48.0675" lon="7.67016">
        <ele>351.5</ele>
        <time>2014-09-10T14:14:41Z</time>
      </trkpt>
      <trkpt lat="48.06753" lon="7.67022">
        <ele>351.02</ele>
        <time>2014-09-10T14:14:45Z</time>
      </trkpt>
      <trkpt lat="48.06758" lon="7.67024">
        <ele>350.06</ele>
        <time>2014-09-10T14:14:52Z</time>
      </trkpt>
      <trkpt lat="48.06761" lon="7.67027">
        <ele>350.06</ele>
        <time>2014-09-10T14:15:04Z</time>
      </trkpt>
      <trkpt lat="48.06766" lon="7.67028">
        <ele>349.58</ele>
        <time>2014-09-10T14:15:08Z</time>
      </trkpt>
      <trkpt lat="48.06775" lon="7.67025">
        <ele>348.62</ele>
        <time>2014-09-10T14:15:15Z</time>
      </trkpt>
      <trkpt lat="48.06783" lon="7.67027">
        <ele>347.65</ele>
        <time>2014-09-10T14:15:20Z</time>
      </trkpt>
      <trkpt lat="48.06786" lon="7.6703">
        <ele>348.13</ele>
        <time>2014-09-10T14:15:24Z</time>
      </trkpt>
      <trkpt lat="48.06798" lon="7.6704">
        <ele>346.21</ele>
        <time>2014-09-10T14:15:36Z</time>
      </trkpt>
      <trkpt lat="48.06804" lon="7.67047">
        <ele>345.73</ele>
        <time>2014-09-10T14:15:40Z</time>
      </trkpt>
      <trkpt lat="48.06814" lon="7.67063">
        <ele>345.25</ele>
        <time>2014-09-10T14:15:50Z</time>
      </trkpt>
      <trkpt lat="48.06817" lon="7.67071">
        <ele>344.29</ele>
        <time>2014-09-10T14:15:56Z</time>
      </trkpt>
      <trkpt lat="48.0682" lon="7.67081">
        <ele>343.81</ele>
        <time>2014-09-10T14:16:01Z</time>
      </trkpt>
      <trkpt lat="48.06828" lon="7.67097">
        <ele>342.37</ele>
        <time>2014-09-10T14:16:12Z</time>
      </trkpt>
      <trkpt lat="48.06829" lon="7.67097">
        <ele>341.89</ele>
        <time>2014-09-10T14:16:27Z</time>
      </trkpt>
      <trkpt lat="48.06829" lon="7.67097">
        <ele>341.89</ele>
        <time>2014-09-10T14:16:32Z</time>
      </trkpt>
      <trkpt lat="48.06828" lon="7.67113">
        <ele>339</ele>
        <time>2014-09-10T14:16:45Z</time>
      </trkpt>
      <trkpt lat="48.06829" lon="7.67123">
        <ele>339</ele>
        <time>2014-09-10T14:16:56Z</time>
      </trkpt>
      <trkpt lat="48.06835" lon="7.67129">
        <ele>337.08</ele>
        <time>2014-09-10T14:17:02Z</time>
      </trkpt>
      <trkpt lat="48.0684" lon="7.67144">
        <ele>333.23</ele>
        <time>2014-09-10T14:17:11Z</time>
      </trkpt>
      <trkpt lat="48.06842" lon="7.67147">
        <ele>335.16</ele>
        <time>2014-09-10T14:17:13Z</time>
      </trkpt>
      <trkpt lat="48.06845" lon="7.67156">
        <ele>334.2</ele>
        <time>2014-09-10T14:17:19Z</time>
      </trkpt>
      <trkpt lat="48.06847" lon="7.67159">
        <ele>333.23</ele>
        <time>2014-09-10T14:17:32Z</time>
      </trkpt>
      <trkpt lat="48.06846" lon="7.67158">
        <ele>333.23</ele>
        <time>2014-09-10T14:17:34Z</time>
      </trkpt>
      <trkpt lat="48.06845" lon="7.67157">
        <ele>333.23</ele>
        <time>2014-09-10T14:17:37Z</time>
      </trkpt>
      <trkpt lat="48.0684" lon="7.67167">
        <ele>331.31</ele>
        <time>2014-09-10T14:17:47Z</time>
      </trkpt>
      <trkpt lat="48.06841" lon="7.67169">
        <ele>331.31</ele>
        <time>2014-09-10T14:18:04Z</time>
      </trkpt>
      <trkpt lat="48.06842" lon="7.67168">
        <ele>331.31</ele>
        <time>2014-09-10T14:18:25Z</time>
      </trkpt>
      <trkpt lat="48.06841" lon="7.67177">
        <ele>329.39</ele>
        <time>2014-09-10T14:18:46Z</time>
      </trkpt>
      <trkpt lat="48.06841" lon="7.67181">
        <ele>328.91</ele>
        <time>2014-09-10T14:18:49Z</time>
      </trkpt>
      <trkpt lat="48.06843" lon="7.67186">
        <ele>328.43</ele>
        <time>2014-09-10T14:19:02Z</time>
      </trkpt>
      <trkpt lat="48.06843" lon="7.67186">
        <ele>328.43</ele>
        <time>2014-09-10T14:19:30Z</time>
      </trkpt>
      <trkpt lat="48.06845" lon="7.67193">
        <ele>326.5</ele>
        <time>2014-09-10T14:19:41Z</time>
      </trkpt>
      <trkpt lat="48.06844" lon="7.67217">
        <ele>326.02</ele>
        <time>2014-09-10T14:19:56Z</time>
      </trkpt>
      <trkpt lat="48.06844" lon="7.6724">
        <ele>326.02</ele>
        <time>2014-09-10T14:20:07Z</time>
      </trkpt>
      <trkpt lat="48.06845" lon="7.67257">
        <ele>326.02</ele>
        <time>2014-09-10T14:20:19Z</time>
      </trkpt>
      <trkpt lat="48.0684" lon="7.67265">
        <ele>326.02</ele>
        <time>2014-09-10T14:20:29Z</time>
      </trkpt>
      <trkpt lat="48.06836" lon="7.67266">
        <ele>325.54</ele>
        <time>2014-09-10T14:20:32Z</time>
      </trkpt>
      <trkpt lat="48.0683" lon="7.67275">
        <ele>326.02</ele>
        <time>2014-09-10T14:20:45Z</time>
      </trkpt>
      <trkpt lat="48.06825" lon="7.67273">
        <ele>326.5</ele>
        <time>2014-09-10T14:21:01Z</time>
      </trkpt>
      <trkpt lat="48.06824" lon="7.67276">
        <ele>326.02</ele>
        <time>2014-09-10T14:21:10Z</time>
      </trkpt>
      <trkpt lat="48.06817" lon="7.67289">
        <ele>327.47</ele>
        <time>2014-09-10T14:21:21Z</time>
      </trkpt>
      <trkpt lat="48.06816" lon="7.67295">
        <ele>327.95</ele>
        <time>2014-09-10T14:21:25Z</time>
      </trkpt>
      <trkpt lat="48.0682" lon="7.67305">
        <ele>326.99</ele>
        <time>2014-09-10T14:21:33Z</time>
      </trkpt>
      <trkpt lat="48.06831" lon="7.67309">
        <ele>327.95</ele>
        <time>2014-09-10T14:21:43Z</time>
      </trkpt>
      <trkpt lat="48.06838" lon="7.67312">
        <ele>328.43</ele>
        <time>2014-09-10T14:21:50Z</time>
      </trkpt>
      <trkpt lat="48.06852" lon="7.67321">
        <ele>327.95</ele>
        <time>2014-09-10T14:22:03Z</time>
      </trkpt>
      <trkpt lat="48.06855" lon="7.67325">
        <ele>326.99</ele>
        <time>2014-09-10T14:22:18Z</time>
      </trkpt>
      <trkpt lat="48.06853" lon="7.6733">
        <ele>327.47</ele>
        <time>2014-09-10T14:22:26Z</time>
      </trkpt>
      <trkpt lat="48.06856" lon="7.67343">
        <ele>325.54</ele>
        <time>2014-09-10T14:22:36Z</time>
      </trkpt>
      <trkpt lat="48.06856" lon="7.67351">
        <ele>324.1</ele>
        <time>2014-09-10T14:22:42Z</time>
      </trkpt>
      <trkpt lat="48.06857" lon="7.67355">
        <ele>323.14</ele>
        <time>2014-09-10T14:22:44Z</time>
      </trkpt>
      <trkpt lat="48.06858" lon="7.67357">
        <ele>322.66</ele>
        <time>2014-09-10T14:22:47Z</time>
      </trkpt>
      <trkpt lat="48.06861" lon="7.67365">
        <ele>321.7</ele>
        <time>2014-09-10T14:22:53Z</time>
      </trkpt>
      <trkpt lat="48.06863" lon="7.67366">
        <ele>321.7</ele>
        <time>2014-09-10T14:22:55Z</time>
      </trkpt>
      <trkpt lat="48.0687" lon="7.67369">
        <ele>319.78</ele>
        <time>2014-09-10T14:23:01Z</time>
      </trkpt>
      <trkpt lat="48.06875" lon="7.67373">
        <ele>318.33</ele>
        <time>2014-09-10T14:23:07Z</time>
      </trkpt>
      <trkpt lat="48.06881" lon="7.6738">
        <ele>315.93</ele>
        <time>2014-09-10T14:23:20Z</time>
      </trkpt>
      <trkpt lat="48.06887" lon="7.67379">
        <ele>314.49</ele>
        <time>2014-09-10T14:23:25Z</time>
      </trkpt>
      <trkpt lat="48.06896" lon="7.67378">
        <ele>311.6</ele>
        <time>2014-09-10T14:23:36Z</time>
      </trkpt>
      <trkpt lat="48.06911" lon="7.67376">
        <ele>308.72</ele>
        <time>2014-09-10T14:23:50Z</time>
      </trkpt>
      <trkpt lat="48.06918" lon="7.67394">
        <ele>306.32</ele>
        <time>2014-09-10T14:24:03Z</time>
      </trkpt>
      <trkpt lat="48.06917" lon="7.67401">
        <ele>304.88</ele>
        <time>2014-09-10T14:24:08Z</time>
      </trkpt>
      <trkpt lat="48.06914" lon="7.67416">
        <ele>301.99</ele>
        <time>2014-09-10T14:24:17Z</time>
      </trkpt>
      <trkpt lat="48.06911" lon="7.67421">
        <ele>301.51</ele>
        <time>2014-09-10T14:24:21Z</time>
      </trkpt>
      <trkpt lat="48.0691" lon="7.67426">
        <ele>300.07</ele>
        <time>2014-09-10T14:24:24Z</time>
      </trkpt>
      <trkpt lat="48.06905" lon="7.6744">
        <ele>298.63</ele>
        <time>2014-09-10T14:24:35Z</time>
      </trkpt>
      <trkpt lat="48.06904" lon="7.67445">
        <ele>297.18</ele>
        <time>2014-09-10T14:24:40Z</time>
      </trkpt>
      <trkpt lat="48.06903" lon="7.67452">
        <ele>295.74</ele>
        <time>2014-09-10T14:24:45Z</time>
      </trkpt>
      <trkpt lat="48.06898" lon="7.67458">
        <ele>294.78</ele>
        <time>2014-09-10T14:24:50Z</time>
      </trkpt>
      <trkpt lat="48.06885" lon="7.67469">
        <ele>294.3</ele>
        <time>2014-09-10T14:25:02Z</time>
      </trkpt>
      <trkpt lat="48.06875" lon="7.67468">
        <ele>293.34</ele>
        <time>2014-09-10T14:25:08Z</time>
      </trkpt>
      <trkpt lat="48.0687" lon="7.6747">
        <ele>293.34</ele>
        <time>2014-09-10T14:25:20Z</time>
      </trkpt>
      <trkpt lat="48.06868" lon="7.67472">
        <ele>293.82</ele>
        <time>2014-09-10T14:25:48Z</time>
      </trkpt>
      <trkpt lat="48.06869" lon="7.67473">
        <ele>293.82</ele>
        <time>2014-09-10T14:25:58Z</time>
      </trkpt>
      <trkpt lat="48.06874" lon="7.67477">
        <ele>293.82</ele>
        <time>2014-09-10T14:26:11Z</time>
      </trkpt>
      <trkpt lat="48.06876" lon="7.67472">
        <ele>293.82</ele>
        <time>2014-09-10T14:26:27Z</time>
      </trkpt>
      <trkpt lat="48.06862" lon="7.67458">
        <ele>293.34</ele>
        <time>2014-09-10T14:26:44Z</time>
      </trkpt>
      <trkpt lat="48.06841" lon="7.67461">
        <ele>292.38</ele>
        <time>2014-09-10T14:27:00Z</time>
      </trkpt>
      <trkpt lat="48.06826" lon="7.67462">
        <ele>291.9</ele>
        <time>2014-09-10T14:27:17Z</time>
      </trkpt>
      <trkpt lat="48.06822" lon="7.67463">
        <ele>291.42</ele>
        <time>2014-09-10T14:27:22Z</time>
      </trkpt>
      <trkpt lat="48.06798" lon="7.67469">
        <ele>290.94</ele>
        <time>2014-09-10T14:27:42Z</time>
      </trkpt>
      <trkpt lat="48.06784" lon="7.67478">
        <ele>289.97</ele>
        <time>2014-09-10T14:27:54Z</time>
      </trkpt>
      <trkpt lat="48.06777" lon="7.67502">
        <ele>288.53</ele>
        <time>2014-09-10T14:28:07Z</time>
      </trkpt>
      <trkpt lat="48.06776" lon="7.67507">
        <ele>287.57</ele>
        <time>2014-09-10T14:28:25Z</time>
      </trkpt>
      <trkpt lat="48.06777" lon="7.67508">
        <ele>288.05</ele>
        <time>2014-09-10T14:28:38Z</time>
      </trkpt>
      <trkpt lat="48.06782" lon="7.67514">
        <ele>287.57</ele>
        <time>2014-09-10T14:28:44Z</time>
      </trkpt>
      <trkpt lat="48.06787" lon="7.67517">
        <ele>287.57</ele>
        <time>2014-09-10T14:29:00Z</time>
      </trkpt>
      <trkpt lat="48.06779" lon="7.67515">
        <ele>287.57</ele>
        <time>2014-09-10T14:29:16Z</time>
      </trkpt>
      <trkpt lat="48.06784" lon="7.67518">
        <ele>288.05</ele>
        <time>2014-09-10T14:29:30Z</time>
      </trkpt>
      <trkpt lat="48.0678" lon="7.67512">
        <ele>287.57</ele>
        <time>2014-09-10T14:29:53Z</time>
      </trkpt>
      <trkpt lat="48.0678" lon="7.67514">
        <ele>286.61</ele>
        <time>2014-09-10T14:30:36Z</time>
      </trkpt>
      <trkpt lat="48.06775" lon="7.67524">
        <ele>286.13</ele>
        <time>2014-09-10T14:30:45Z</time>
      </trkpt>
      <trkpt lat="48.06771" lon="7.67536">
        <ele>286.13</ele>
        <time>2014-09-10T14:30:58Z</time>
      </trkpt>
      <trkpt lat="48.06771" lon="7.67536">
        <ele>286.13</ele>
        <time>2014-09-10T14:31:25Z</time>
      </trkpt>
      <trkpt lat="48.06765" lon="7.67545">
        <ele>285.65</ele>
        <time>2014-09-10T14:31:33Z</time>
      </trkpt>
      <trkpt lat="48.06757" lon="7.6756">
        <ele>288.05</ele>
        <time>2014-09-10T14:31:44Z</time>
      </trkpt>
      <trkpt lat="48.06749" lon="7.67572">
        <ele>288.53</ele>
        <time>2014-09-10T14:31:53Z</time>
      </trkpt>
      <trkpt lat="48.06741" lon="7.67576">
        <ele>289.49</ele>
        <time>2014-09-10T14:32:08Z</time>
      </trkpt>
      <trkpt lat="48.06741" lon="7.67576">
        <ele>289.97</ele>
        <time>2014-09-10T14:32:29Z</time>
      </trkpt>
    </trkseg>
  </trk>
</gpx>